<?xml version="1.0" encoding="UTF-8" standalone="no" ?>
<gpx xmlns="http://www.topografix.com/GPX/1/1" xmlns:xsi="http://www.w3.org/2001/XMLSchema-instance" xsi:schemaLocation="http://www.topografix.com/GPX/1/1 http://www.topografix.com/GPX/1/1/gpx.xsd" version="1.1" creator="VisuGPX - https://www.visugpx.com">
  <metadata>
    <name>Rando du 19122016</name>
    <desc><![CDATA[Delincourt Rando autour des Groux ]]></desc>
  </metadata>
  <trk>
    <name><![CDATA[19 déc. 2016]]></name>
    <cmt><![CDATA[09:02:51]]></cmt>
    <desc><![CDATA[comment ...]]></desc>
    <trkseg>
      <trkpt lat="49.24376" lon="1.8338">
        <ele>105</ele>
        <time>2016-12-19T08:02:51Z</time>
      </trkpt>
      <trkpt lat="49.24376" lon="1.8338">
        <ele>105</ele>
        <time>2016-12-19T08:02:52Z</time>
      </trkpt>
      <trkpt lat="49.24374" lon="1.83373">
        <ele>105</ele>
        <time>2016-12-19T08:03:02Z</time>
      </trkpt>
      <trkpt lat="49.24377" lon="1.83348">
        <ele>103</ele>
        <time>2016-12-19T08:03:16Z</time>
      </trkpt>
      <trkpt lat="49.24372" lon="1.8332">
        <ele>101</ele>
        <time>2016-12-19T08:03:32Z</time>
      </trkpt>
      <trkpt lat="49.2438" lon="1.83315">
        <ele>100</ele>
        <time>2016-12-19T08:03:41Z</time>
      </trkpt>
      <trkpt lat="49.24399" lon="1.83319">
        <ele>101</ele>
        <time>2016-12-19T08:03:59Z</time>
      </trkpt>
      <trkpt lat="49.24402" lon="1.83321">
        <ele>100</ele>
        <time>2016-12-19T08:04:02Z</time>
      </trkpt>
      <trkpt lat="49.24404" lon="1.83326">
        <ele>100</ele>
        <time>2016-12-19T08:04:07Z</time>
      </trkpt>
      <trkpt lat="49.24409" lon="1.83329">
        <ele>98</ele>
        <time>2016-12-19T08:04:11Z</time>
      </trkpt>
      <trkpt lat="49.2442" lon="1.83322">
        <ele>100</ele>
        <time>2016-12-19T08:04:20Z</time>
      </trkpt>
      <trkpt lat="49.24421" lon="1.83327">
        <ele>100</ele>
        <time>2016-12-19T08:04:22Z</time>
      </trkpt>
      <trkpt lat="49.24442" lon="1.83334">
        <ele>101</ele>
        <time>2016-12-19T08:04:39Z</time>
      </trkpt>
      <trkpt lat="49.24444" lon="1.83339">
        <ele>101</ele>
        <time>2016-12-19T08:04:44Z</time>
      </trkpt>
      <trkpt lat="49.24453" lon="1.83339">
        <ele>101</ele>
        <time>2016-12-19T08:04:48Z</time>
      </trkpt>
      <trkpt lat="49.24454" lon="1.83344">
        <ele>101</ele>
        <time>2016-12-19T08:04:53Z</time>
      </trkpt>
      <trkpt lat="49.24466" lon="1.83346">
        <ele>100</ele>
        <time>2016-12-19T08:05:02Z</time>
      </trkpt>
      <trkpt lat="49.2447" lon="1.83353">
        <ele>96</ele>
        <time>2016-12-19T08:05:08Z</time>
      </trkpt>
      <trkpt lat="49.24481" lon="1.83357">
        <ele>95</ele>
        <time>2016-12-19T08:05:18Z</time>
      </trkpt>
      <trkpt lat="49.24483" lon="1.83363">
        <ele>95</ele>
        <time>2016-12-19T08:05:22Z</time>
      </trkpt>
      <trkpt lat="49.24489" lon="1.83366">
        <ele>94</ele>
        <time>2016-12-19T08:05:25Z</time>
      </trkpt>
      <trkpt lat="49.24497" lon="1.83368">
        <ele>91</ele>
        <time>2016-12-19T08:05:35Z</time>
      </trkpt>
      <trkpt lat="49.24529" lon="1.83387">
        <ele>87</ele>
        <time>2016-12-19T08:06:08Z</time>
      </trkpt>
      <trkpt lat="49.24537" lon="1.83394">
        <ele>90</ele>
        <time>2016-12-19T08:06:16Z</time>
      </trkpt>
      <trkpt lat="49.24564" lon="1.83399">
        <ele>93</ele>
        <time>2016-12-19T08:06:42Z</time>
      </trkpt>
      <trkpt lat="49.24571" lon="1.83407">
        <ele>87</ele>
        <time>2016-12-19T08:06:54Z</time>
      </trkpt>
      <trkpt lat="49.24578" lon="1.83409">
        <ele>81</ele>
        <time>2016-12-19T08:06:59Z</time>
      </trkpt>
      <trkpt lat="49.24591" lon="1.83417">
        <ele>74</ele>
        <time>2016-12-19T08:07:15Z</time>
      </trkpt>
      <trkpt lat="49.24592" lon="1.83426">
        <ele>74</ele>
        <time>2016-12-19T08:07:21Z</time>
      </trkpt>
      <trkpt lat="49.24597" lon="1.83469">
        <ele>71</ele>
        <time>2016-12-19T08:07:48Z</time>
      </trkpt>
      <trkpt lat="49.246" lon="1.83479">
        <ele>72</ele>
        <time>2016-12-19T08:07:56Z</time>
      </trkpt>
      <trkpt lat="49.24608" lon="1.83484">
        <ele>72</ele>
        <time>2016-12-19T08:08:06Z</time>
      </trkpt>
      <trkpt lat="49.24609" lon="1.83489">
        <ele>71</ele>
        <time>2016-12-19T08:08:11Z</time>
      </trkpt>
      <trkpt lat="49.24613" lon="1.83494">
        <ele>68</ele>
        <time>2016-12-19T08:08:18Z</time>
      </trkpt>
      <trkpt lat="49.2462" lon="1.83502">
        <ele>64</ele>
        <time>2016-12-19T08:08:24Z</time>
      </trkpt>
      <trkpt lat="49.24651" lon="1.83524">
        <ele>65</ele>
        <time>2016-12-19T08:08:53Z</time>
      </trkpt>
      <trkpt lat="49.24655" lon="1.83526">
        <ele>68</ele>
        <time>2016-12-19T08:08:57Z</time>
      </trkpt>
      <trkpt lat="49.24667" lon="1.8353">
        <ele>68</ele>
        <time>2016-12-19T08:09:08Z</time>
      </trkpt>
      <trkpt lat="49.24672" lon="1.83532">
        <ele>70</ele>
        <time>2016-12-19T08:09:20Z</time>
      </trkpt>
      <trkpt lat="49.24675" lon="1.83537">
        <ele>70</ele>
        <time>2016-12-19T08:09:28Z</time>
      </trkpt>
      <trkpt lat="49.24682" lon="1.83542">
        <ele>67</ele>
        <time>2016-12-19T08:09:41Z</time>
      </trkpt>
      <trkpt lat="49.24719" lon="1.83561">
        <ele>63</ele>
        <time>2016-12-19T08:10:13Z</time>
      </trkpt>
      <trkpt lat="49.24722" lon="1.83564">
        <ele>62</ele>
        <time>2016-12-19T08:10:17Z</time>
      </trkpt>
      <trkpt lat="49.24723" lon="1.83569">
        <ele>62</ele>
        <time>2016-12-19T08:10:19Z</time>
      </trkpt>
      <trkpt lat="49.24726" lon="1.83572">
        <ele>62</ele>
        <time>2016-12-19T08:10:21Z</time>
      </trkpt>
      <trkpt lat="49.24735" lon="1.83578">
        <ele>67</ele>
        <time>2016-12-19T08:10:27Z</time>
      </trkpt>
      <trkpt lat="49.24739" lon="1.8358">
        <ele>65</ele>
        <time>2016-12-19T08:10:31Z</time>
      </trkpt>
      <trkpt lat="49.2474" lon="1.83584">
        <ele>64</ele>
        <time>2016-12-19T08:10:34Z</time>
      </trkpt>
      <trkpt lat="49.24744" lon="1.83588">
        <ele>64</ele>
        <time>2016-12-19T08:10:38Z</time>
      </trkpt>
      <trkpt lat="49.24755" lon="1.83598">
        <ele>64</ele>
        <time>2016-12-19T08:10:49Z</time>
      </trkpt>
      <trkpt lat="49.2476" lon="1.83604">
        <ele>62</ele>
        <time>2016-12-19T08:10:55Z</time>
      </trkpt>
      <trkpt lat="49.24764" lon="1.83618">
        <ele>63</ele>
        <time>2016-12-19T08:11:04Z</time>
      </trkpt>
      <trkpt lat="49.24764" lon="1.83623">
        <ele>63</ele>
        <time>2016-12-19T08:11:07Z</time>
      </trkpt>
      <trkpt lat="49.24767" lon="1.83629">
        <ele>64</ele>
        <time>2016-12-19T08:11:12Z</time>
      </trkpt>
      <trkpt lat="49.24772" lon="1.83633">
        <ele>66</ele>
        <time>2016-12-19T08:11:15Z</time>
      </trkpt>
      <trkpt lat="49.24781" lon="1.83655">
        <ele>72</ele>
        <time>2016-12-19T08:11:29Z</time>
      </trkpt>
      <trkpt lat="49.24788" lon="1.83663">
        <ele>72</ele>
        <time>2016-12-19T08:11:37Z</time>
      </trkpt>
      <trkpt lat="49.24791" lon="1.83665">
        <ele>71</ele>
        <time>2016-12-19T08:11:40Z</time>
      </trkpt>
      <trkpt lat="49.24793" lon="1.83673">
        <ele>74</ele>
        <time>2016-12-19T08:11:43Z</time>
      </trkpt>
      <trkpt lat="49.24796" lon="1.83675">
        <ele>76</ele>
        <time>2016-12-19T08:11:45Z</time>
      </trkpt>
      <trkpt lat="49.248" lon="1.83675">
        <ele>77</ele>
        <time>2016-12-19T08:11:47Z</time>
      </trkpt>
      <trkpt lat="49.24802" lon="1.8368">
        <ele>78</ele>
        <time>2016-12-19T08:11:49Z</time>
      </trkpt>
      <trkpt lat="49.24807" lon="1.8368">
        <ele>79</ele>
        <time>2016-12-19T08:11:53Z</time>
      </trkpt>
      <trkpt lat="49.24816" lon="1.83685">
        <ele>79</ele>
        <time>2016-12-19T08:12:03Z</time>
      </trkpt>
      <trkpt lat="49.24833" lon="1.83687">
        <ele>74</ele>
        <time>2016-12-19T08:12:20Z</time>
      </trkpt>
      <trkpt lat="49.24866" lon="1.83672">
        <ele>71</ele>
        <time>2016-12-19T08:12:54Z</time>
      </trkpt>
      <trkpt lat="49.24875" lon="1.8367">
        <ele>72</ele>
        <time>2016-12-19T08:13:03Z</time>
      </trkpt>
      <trkpt lat="49.24902" lon="1.83686">
        <ele>73</ele>
        <time>2016-12-19T08:13:35Z</time>
      </trkpt>
      <trkpt lat="49.2491" lon="1.83697">
        <ele>71</ele>
        <time>2016-12-19T08:13:46Z</time>
      </trkpt>
      <trkpt lat="49.24914" lon="1.83703">
        <ele>72</ele>
        <time>2016-12-19T08:13:49Z</time>
      </trkpt>
      <trkpt lat="49.24931" lon="1.83729">
        <ele>79</ele>
        <time>2016-12-19T08:14:07Z</time>
      </trkpt>
      <trkpt lat="49.24947" lon="1.83756">
        <ele>81</ele>
        <time>2016-12-19T08:14:26Z</time>
      </trkpt>
      <trkpt lat="49.2495" lon="1.83761">
        <ele>81</ele>
        <time>2016-12-19T08:14:34Z</time>
      </trkpt>
      <trkpt lat="49.24973" lon="1.83801">
        <ele>79</ele>
        <time>2016-12-19T08:15:04Z</time>
      </trkpt>
      <trkpt lat="49.24998" lon="1.83842">
        <ele>79</ele>
        <time>2016-12-19T08:15:34Z</time>
      </trkpt>
      <trkpt lat="49.25008" lon="1.83849">
        <ele>79</ele>
        <time>2016-12-19T08:15:45Z</time>
      </trkpt>
      <trkpt lat="49.25038" lon="1.83881">
        <ele>78</ele>
        <time>2016-12-19T08:16:18Z</time>
      </trkpt>
      <trkpt lat="49.25048" lon="1.83887">
        <ele>78</ele>
        <time>2016-12-19T08:16:28Z</time>
      </trkpt>
      <trkpt lat="49.25077" lon="1.83925">
        <ele>80</ele>
        <time>2016-12-19T08:17:02Z</time>
      </trkpt>
      <trkpt lat="49.25081" lon="1.83927">
        <ele>81</ele>
        <time>2016-12-19T08:17:04Z</time>
      </trkpt>
      <trkpt lat="49.25108" lon="1.83954">
        <ele>77</ele>
        <time>2016-12-19T08:17:39Z</time>
      </trkpt>
      <trkpt lat="49.25134" lon="1.83984">
        <ele>77</ele>
        <time>2016-12-19T08:18:10Z</time>
      </trkpt>
      <trkpt lat="49.25141" lon="1.83993">
        <ele>77</ele>
        <time>2016-12-19T08:18:17Z</time>
      </trkpt>
      <trkpt lat="49.25156" lon="1.84013">
        <ele>77</ele>
        <time>2016-12-19T08:18:33Z</time>
      </trkpt>
      <trkpt lat="49.25164" lon="1.84033">
        <ele>79</ele>
        <time>2016-12-19T08:18:45Z</time>
      </trkpt>
      <trkpt lat="49.25169" lon="1.84041">
        <ele>82</ele>
        <time>2016-12-19T08:18:52Z</time>
      </trkpt>
      <trkpt lat="49.25174" lon="1.84065">
        <ele>83</ele>
        <time>2016-12-19T08:19:11Z</time>
      </trkpt>
      <trkpt lat="49.25176" lon="1.8407">
        <ele>84</ele>
        <time>2016-12-19T08:19:15Z</time>
      </trkpt>
      <trkpt lat="49.2518" lon="1.84073">
        <ele>85</ele>
        <time>2016-12-19T08:19:20Z</time>
      </trkpt>
      <trkpt lat="49.25183" lon="1.84076">
        <ele>84</ele>
        <time>2016-12-19T08:19:25Z</time>
      </trkpt>
      <trkpt lat="49.25189" lon="1.84096">
        <ele>86</ele>
        <time>2016-12-19T08:19:47Z</time>
      </trkpt>
      <trkpt lat="49.25195" lon="1.84103">
        <ele>86</ele>
        <time>2016-12-19T08:19:56Z</time>
      </trkpt>
      <trkpt lat="49.25201" lon="1.84115">
        <ele>84</ele>
        <time>2016-12-19T08:20:08Z</time>
      </trkpt>
      <trkpt lat="49.25204" lon="1.84118">
        <ele>84</ele>
        <time>2016-12-19T08:20:12Z</time>
      </trkpt>
      <trkpt lat="49.25206" lon="1.84125">
        <ele>87</ele>
        <time>2016-12-19T08:20:18Z</time>
      </trkpt>
      <trkpt lat="49.25214" lon="1.84131">
        <ele>91</ele>
        <time>2016-12-19T08:20:31Z</time>
      </trkpt>
      <trkpt lat="49.25225" lon="1.84152">
        <ele>93</ele>
        <time>2016-12-19T08:20:52Z</time>
      </trkpt>
      <trkpt lat="49.25234" lon="1.84161">
        <ele>92</ele>
        <time>2016-12-19T08:21:03Z</time>
      </trkpt>
      <trkpt lat="49.25237" lon="1.84168">
        <ele>93</ele>
        <time>2016-12-19T08:21:07Z</time>
      </trkpt>
      <trkpt lat="49.25243" lon="1.84189">
        <ele>93</ele>
        <time>2016-12-19T08:21:22Z</time>
      </trkpt>
      <trkpt lat="49.25247" lon="1.84195">
        <ele>94</ele>
        <time>2016-12-19T08:21:28Z</time>
      </trkpt>
      <trkpt lat="49.25253" lon="1.84206">
        <ele>102</ele>
        <time>2016-12-19T08:21:37Z</time>
      </trkpt>
      <trkpt lat="49.2527" lon="1.84247">
        <ele>108</ele>
        <time>2016-12-19T08:22:09Z</time>
      </trkpt>
      <trkpt lat="49.25271" lon="1.84254">
        <ele>107</ele>
        <time>2016-12-19T08:22:14Z</time>
      </trkpt>
      <trkpt lat="49.25274" lon="1.84259">
        <ele>106</ele>
        <time>2016-12-19T08:22:17Z</time>
      </trkpt>
      <trkpt lat="49.25275" lon="1.84264">
        <ele>105</ele>
        <time>2016-12-19T08:22:21Z</time>
      </trkpt>
      <trkpt lat="49.25288" lon="1.84287">
        <ele>90</ele>
        <time>2016-12-19T08:22:50Z</time>
      </trkpt>
      <trkpt lat="49.25293" lon="1.84295">
        <ele>91</ele>
        <time>2016-12-19T08:22:55Z</time>
      </trkpt>
      <trkpt lat="49.25298" lon="1.84318">
        <ele>91</ele>
        <time>2016-12-19T08:23:10Z</time>
      </trkpt>
      <trkpt lat="49.25307" lon="1.8434">
        <ele>89</ele>
        <time>2016-12-19T08:23:28Z</time>
      </trkpt>
      <trkpt lat="49.25313" lon="1.84351">
        <ele>92</ele>
        <time>2016-12-19T08:23:34Z</time>
      </trkpt>
      <trkpt lat="49.25322" lon="1.84367">
        <ele>102</ele>
        <time>2016-12-19T08:23:43Z</time>
      </trkpt>
      <trkpt lat="49.25327" lon="1.84373">
        <ele>100</ele>
        <time>2016-12-19T08:23:54Z</time>
      </trkpt>
      <trkpt lat="49.25332" lon="1.84387">
        <ele>93</ele>
        <time>2016-12-19T08:24:08Z</time>
      </trkpt>
      <trkpt lat="49.25336" lon="1.84402">
        <ele>91</ele>
        <time>2016-12-19T08:24:19Z</time>
      </trkpt>
      <trkpt lat="49.25354" lon="1.84427">
        <ele>93</ele>
        <time>2016-12-19T08:24:44Z</time>
      </trkpt>
      <trkpt lat="49.25387" lon="1.84484">
        <ele>117</ele>
        <time>2016-12-19T08:25:14Z</time>
      </trkpt>
      <trkpt lat="49.25389" lon="1.84487">
        <ele>116</ele>
        <time>2016-12-19T08:25:17Z</time>
      </trkpt>
      <trkpt lat="49.25391" lon="1.845">
        <ele>116</ele>
        <time>2016-12-19T08:25:24Z</time>
      </trkpt>
      <trkpt lat="49.25398" lon="1.8451">
        <ele>116</ele>
        <time>2016-12-19T08:25:31Z</time>
      </trkpt>
      <trkpt lat="49.25415" lon="1.84535">
        <ele>115</ele>
        <time>2016-12-19T08:25:53Z</time>
      </trkpt>
      <trkpt lat="49.25418" lon="1.84543">
        <ele>113</ele>
        <time>2016-12-19T08:25:58Z</time>
      </trkpt>
      <trkpt lat="49.25419" lon="1.84551">
        <ele>114</ele>
        <time>2016-12-19T08:26:01Z</time>
      </trkpt>
      <trkpt lat="49.25419" lon="1.8456">
        <ele>117</ele>
        <time>2016-12-19T08:26:05Z</time>
      </trkpt>
      <trkpt lat="49.25422" lon="1.84563">
        <ele>117</ele>
        <time>2016-12-19T08:26:10Z</time>
      </trkpt>
      <trkpt lat="49.25433" lon="1.84586">
        <ele>116</ele>
        <time>2016-12-19T08:26:30Z</time>
      </trkpt>
      <trkpt lat="49.25438" lon="1.84594">
        <ele>116</ele>
        <time>2016-12-19T08:26:36Z</time>
      </trkpt>
      <trkpt lat="49.25448" lon="1.84631">
        <ele>119</ele>
        <time>2016-12-19T08:27:02Z</time>
      </trkpt>
      <trkpt lat="49.25448" lon="1.84648">
        <ele>118</ele>
        <time>2016-12-19T08:27:08Z</time>
      </trkpt>
      <trkpt lat="49.25457" lon="1.8467">
        <ele>119</ele>
        <time>2016-12-19T08:27:22Z</time>
      </trkpt>
      <trkpt lat="49.25464" lon="1.84711">
        <ele>121</ele>
        <time>2016-12-19T08:27:47Z</time>
      </trkpt>
      <trkpt lat="49.25469" lon="1.84718">
        <ele>120</ele>
        <time>2016-12-19T08:27:52Z</time>
      </trkpt>
      <trkpt lat="49.25472" lon="1.8473">
        <ele>117</ele>
        <time>2016-12-19T08:27:59Z</time>
      </trkpt>
      <trkpt lat="49.25473" lon="1.8474">
        <ele>118</ele>
        <time>2016-12-19T08:28:07Z</time>
      </trkpt>
      <trkpt lat="49.25478" lon="1.84751">
        <ele>120</ele>
        <time>2016-12-19T08:28:14Z</time>
      </trkpt>
      <trkpt lat="49.2548" lon="1.84762">
        <ele>120</ele>
        <time>2016-12-19T08:28:18Z</time>
      </trkpt>
      <trkpt lat="49.25489" lon="1.84792">
        <ele>119</ele>
        <time>2016-12-19T08:28:34Z</time>
      </trkpt>
      <trkpt lat="49.25493" lon="1.84815">
        <ele>122</ele>
        <time>2016-12-19T08:28:48Z</time>
      </trkpt>
      <trkpt lat="49.25497" lon="1.84819">
        <ele>122</ele>
        <time>2016-12-19T08:28:52Z</time>
      </trkpt>
      <trkpt lat="49.25501" lon="1.84823">
        <ele>119</ele>
        <time>2016-12-19T08:28:56Z</time>
      </trkpt>
      <trkpt lat="49.25506" lon="1.84828">
        <ele>117</ele>
        <time>2016-12-19T08:29:02Z</time>
      </trkpt>
      <trkpt lat="49.25515" lon="1.84866">
        <ele>115</ele>
        <time>2016-12-19T08:29:27Z</time>
      </trkpt>
      <trkpt lat="49.25517" lon="1.84872">
        <ele>112</ele>
        <time>2016-12-19T08:29:31Z</time>
      </trkpt>
      <trkpt lat="49.25524" lon="1.84886">
        <ele>111</ele>
        <time>2016-12-19T08:29:43Z</time>
      </trkpt>
      <trkpt lat="49.25529" lon="1.84899">
        <ele>115</ele>
        <time>2016-12-19T08:29:51Z</time>
      </trkpt>
      <trkpt lat="49.2554" lon="1.84942">
        <ele>113</ele>
        <time>2016-12-19T08:30:24Z</time>
      </trkpt>
      <trkpt lat="49.25542" lon="1.84952">
        <ele>114</ele>
        <time>2016-12-19T08:30:30Z</time>
      </trkpt>
      <trkpt lat="49.25545" lon="1.8496">
        <ele>118</ele>
        <time>2016-12-19T08:30:35Z</time>
      </trkpt>
      <trkpt lat="49.25547" lon="1.8498">
        <ele>118</ele>
        <time>2016-12-19T08:30:48Z</time>
      </trkpt>
      <trkpt lat="49.25557" lon="1.85028">
        <ele>119</ele>
        <time>2016-12-19T08:31:17Z</time>
      </trkpt>
      <trkpt lat="49.25561" lon="1.85045">
        <ele>118</ele>
        <time>2016-12-19T08:31:26Z</time>
      </trkpt>
      <trkpt lat="49.25561" lon="1.85053">
        <ele>118</ele>
        <time>2016-12-19T08:31:31Z</time>
      </trkpt>
      <trkpt lat="49.25565" lon="1.85081">
        <ele>118</ele>
        <time>2016-12-19T08:31:44Z</time>
      </trkpt>
      <trkpt lat="49.25572" lon="1.85099">
        <ele>122</ele>
        <time>2016-12-19T08:31:56Z</time>
      </trkpt>
      <trkpt lat="49.25579" lon="1.85116">
        <ele>122</ele>
        <time>2016-12-19T08:32:11Z</time>
      </trkpt>
      <trkpt lat="49.25577" lon="1.85136">
        <ele>118</ele>
        <time>2016-12-19T08:32:23Z</time>
      </trkpt>
      <trkpt lat="49.25584" lon="1.85151">
        <ele>120</ele>
        <time>2016-12-19T08:32:30Z</time>
      </trkpt>
      <trkpt lat="49.25596" lon="1.85177">
        <ele>130</ele>
        <time>2016-12-19T08:32:45Z</time>
      </trkpt>
      <trkpt lat="49.25612" lon="1.85221">
        <ele>128</ele>
        <time>2016-12-19T08:33:13Z</time>
      </trkpt>
      <trkpt lat="49.25636" lon="1.85258">
        <ele>127</ele>
        <time>2016-12-19T08:33:43Z</time>
      </trkpt>
      <trkpt lat="49.25652" lon="1.85275">
        <ele>125</ele>
        <time>2016-12-19T08:33:57Z</time>
      </trkpt>
      <trkpt lat="49.25659" lon="1.8528">
        <ele>126</ele>
        <time>2016-12-19T08:34:03Z</time>
      </trkpt>
      <trkpt lat="49.25681" lon="1.85326">
        <ele>127</ele>
        <time>2016-12-19T08:34:36Z</time>
      </trkpt>
      <trkpt lat="49.25685" lon="1.85333">
        <ele>128</ele>
        <time>2016-12-19T08:34:40Z</time>
      </trkpt>
      <trkpt lat="49.25696" lon="1.85353">
        <ele>125</ele>
        <time>2016-12-19T08:35:02Z</time>
      </trkpt>
      <trkpt lat="49.25702" lon="1.85355">
        <ele>125</ele>
        <time>2016-12-19T08:35:06Z</time>
      </trkpt>
      <trkpt lat="49.25703" lon="1.85367">
        <ele>125</ele>
        <time>2016-12-19T08:35:10Z</time>
      </trkpt>
      <trkpt lat="49.25709" lon="1.85368">
        <ele>125</ele>
        <time>2016-12-19T08:35:13Z</time>
      </trkpt>
      <trkpt lat="49.25716" lon="1.85369">
        <ele>126</ele>
        <time>2016-12-19T08:35:16Z</time>
      </trkpt>
      <trkpt lat="49.25716" lon="1.85378">
        <ele>127</ele>
        <time>2016-12-19T08:35:24Z</time>
      </trkpt>
      <trkpt lat="49.25721" lon="1.85382">
        <ele>128</ele>
        <time>2016-12-19T08:35:27Z</time>
      </trkpt>
      <trkpt lat="49.25735" lon="1.85392">
        <ele>130</ele>
        <time>2016-12-19T08:35:40Z</time>
      </trkpt>
      <trkpt lat="49.25732" lon="1.85391">
        <ele>129</ele>
        <time>2016-12-19T08:35:42Z</time>
      </trkpt>
      <trkpt lat="49.25732" lon="1.85395">
        <ele>129</ele>
        <time>2016-12-19T08:35:50Z</time>
      </trkpt>
      <trkpt lat="49.25735" lon="1.85397">
        <ele>128</ele>
        <time>2016-12-19T08:35:59Z</time>
      </trkpt>
      <trkpt lat="49.2574" lon="1.85406">
        <ele>127</ele>
        <time>2016-12-19T08:36:05Z</time>
      </trkpt>
      <trkpt lat="49.25752" lon="1.85423">
        <ele>127</ele>
        <time>2016-12-19T08:36:20Z</time>
      </trkpt>
      <trkpt lat="49.25757" lon="1.85431">
        <ele>125</ele>
        <time>2016-12-19T08:36:25Z</time>
      </trkpt>
      <trkpt lat="49.25763" lon="1.85448">
        <ele>122</ele>
        <time>2016-12-19T08:36:35Z</time>
      </trkpt>
      <trkpt lat="49.25769" lon="1.85444">
        <ele>122</ele>
        <time>2016-12-19T08:36:38Z</time>
      </trkpt>
      <trkpt lat="49.25773" lon="1.85447">
        <ele>121</ele>
        <time>2016-12-19T08:36:41Z</time>
      </trkpt>
      <trkpt lat="49.25773" lon="1.85457">
        <ele>122</ele>
        <time>2016-12-19T08:36:43Z</time>
      </trkpt>
      <trkpt lat="49.25787" lon="1.85477">
        <ele>126</ele>
        <time>2016-12-19T08:37:02Z</time>
      </trkpt>
      <trkpt lat="49.2579" lon="1.85478">
        <ele>126</ele>
        <time>2016-12-19T08:37:05Z</time>
      </trkpt>
      <trkpt lat="49.25793" lon="1.85484">
        <ele>126</ele>
        <time>2016-12-19T08:37:08Z</time>
      </trkpt>
      <trkpt lat="49.25799" lon="1.85488">
        <ele>125</ele>
        <time>2016-12-19T08:37:15Z</time>
      </trkpt>
      <trkpt lat="49.25801" lon="1.85494">
        <ele>126</ele>
        <time>2016-12-19T08:37:19Z</time>
      </trkpt>
      <trkpt lat="49.25814" lon="1.85513">
        <ele>124</ele>
        <time>2016-12-19T08:37:34Z</time>
      </trkpt>
      <trkpt lat="49.25817" lon="1.85514">
        <ele>123</ele>
        <time>2016-12-19T08:37:36Z</time>
      </trkpt>
      <trkpt lat="49.2583" lon="1.85533">
        <ele>125</ele>
        <time>2016-12-19T08:37:52Z</time>
      </trkpt>
      <trkpt lat="49.25836" lon="1.85546">
        <ele>126</ele>
        <time>2016-12-19T08:38:00Z</time>
      </trkpt>
      <trkpt lat="49.2584" lon="1.85546">
        <ele>127</ele>
        <time>2016-12-19T08:38:03Z</time>
      </trkpt>
      <trkpt lat="49.25858" lon="1.85576">
        <ele>128</ele>
        <time>2016-12-19T08:38:23Z</time>
      </trkpt>
      <trkpt lat="49.25858" lon="1.85581">
        <ele>128</ele>
        <time>2016-12-19T08:38:24Z</time>
      </trkpt>
      <trkpt lat="49.25867" lon="1.85589">
        <ele>125</ele>
        <time>2016-12-19T08:38:36Z</time>
      </trkpt>
      <trkpt lat="49.25871" lon="1.85597">
        <ele>124</ele>
        <time>2016-12-19T08:38:42Z</time>
      </trkpt>
      <trkpt lat="49.25895" lon="1.85632">
        <ele>124</ele>
        <time>2016-12-19T08:39:14Z</time>
      </trkpt>
      <trkpt lat="49.25909" lon="1.85652">
        <ele>125</ele>
        <time>2016-12-19T08:39:32Z</time>
      </trkpt>
      <trkpt lat="49.25909" lon="1.85657">
        <ele>126</ele>
        <time>2016-12-19T08:39:33Z</time>
      </trkpt>
      <trkpt lat="49.25913" lon="1.85657">
        <ele>126</ele>
        <time>2016-12-19T08:39:36Z</time>
      </trkpt>
      <trkpt lat="49.25914" lon="1.85661">
        <ele>127</ele>
        <time>2016-12-19T08:39:40Z</time>
      </trkpt>
      <trkpt lat="49.25917" lon="1.85664">
        <ele>126</ele>
        <time>2016-12-19T08:39:43Z</time>
      </trkpt>
      <trkpt lat="49.25944" lon="1.85713">
        <ele>127</ele>
        <time>2016-12-19T08:40:15Z</time>
      </trkpt>
      <trkpt lat="49.25952" lon="1.85737">
        <ele>129</ele>
        <time>2016-12-19T08:40:26Z</time>
      </trkpt>
      <trkpt lat="49.25951" lon="1.85745">
        <ele>129</ele>
        <time>2016-12-19T08:40:29Z</time>
      </trkpt>
      <trkpt lat="49.25952" lon="1.85755">
        <ele>128</ele>
        <time>2016-12-19T08:40:32Z</time>
      </trkpt>
      <trkpt lat="49.25959" lon="1.85765">
        <ele>127</ele>
        <time>2016-12-19T08:40:42Z</time>
      </trkpt>
      <trkpt lat="49.25961" lon="1.85779">
        <ele>132</ele>
        <time>2016-12-19T08:40:46Z</time>
      </trkpt>
      <trkpt lat="49.2596" lon="1.85784">
        <ele>131</ele>
        <time>2016-12-19T08:40:48Z</time>
      </trkpt>
      <trkpt lat="49.25967" lon="1.85791">
        <ele>129</ele>
        <time>2016-12-19T08:40:58Z</time>
      </trkpt>
      <trkpt lat="49.25969" lon="1.85795">
        <ele>128</ele>
        <time>2016-12-19T08:41:01Z</time>
      </trkpt>
      <trkpt lat="49.25972" lon="1.85811">
        <ele>126</ele>
        <time>2016-12-19T08:41:08Z</time>
      </trkpt>
      <trkpt lat="49.25973" lon="1.85824">
        <ele>128</ele>
        <time>2016-12-19T08:41:14Z</time>
      </trkpt>
      <trkpt lat="49.25977" lon="1.85825">
        <ele>129</ele>
        <time>2016-12-19T08:41:18Z</time>
      </trkpt>
      <trkpt lat="49.25978" lon="1.85838">
        <ele>130</ele>
        <time>2016-12-19T08:41:24Z</time>
      </trkpt>
      <trkpt lat="49.25984" lon="1.85894">
        <ele>125</ele>
        <time>2016-12-19T08:41:56Z</time>
      </trkpt>
      <trkpt lat="49.25991" lon="1.85944">
        <ele>126</ele>
        <time>2016-12-19T08:42:26Z</time>
      </trkpt>
      <trkpt lat="49.25995" lon="1.85994">
        <ele>126</ele>
        <time>2016-12-19T08:42:56Z</time>
      </trkpt>
      <trkpt lat="49.25999" lon="1.86009">
        <ele>125</ele>
        <time>2016-12-19T08:43:06Z</time>
      </trkpt>
      <trkpt lat="49.26001" lon="1.86011">
        <ele>125</ele>
        <time>2016-12-19T08:43:09Z</time>
      </trkpt>
      <trkpt lat="49.26004" lon="1.8601">
        <ele>126</ele>
        <time>2016-12-19T08:43:12Z</time>
      </trkpt>
      <trkpt lat="49.26004" lon="1.86005">
        <ele>126</ele>
        <time>2016-12-19T08:43:15Z</time>
      </trkpt>
      <trkpt lat="49.26003" lon="1.85954">
        <ele>127</ele>
        <time>2016-12-19T08:43:45Z</time>
      </trkpt>
      <trkpt lat="49.26004" lon="1.85949">
        <ele>127</ele>
        <time>2016-12-19T08:43:49Z</time>
      </trkpt>
      <trkpt lat="49.26006" lon="1.85945">
        <ele>126</ele>
        <time>2016-12-19T08:43:53Z</time>
      </trkpt>
      <trkpt lat="49.26006" lon="1.85939">
        <ele>125</ele>
        <time>2016-12-19T08:43:57Z</time>
      </trkpt>
      <trkpt lat="49.26008" lon="1.85929">
        <ele>126</ele>
        <time>2016-12-19T08:44:01Z</time>
      </trkpt>
      <trkpt lat="49.26006" lon="1.85927">
        <ele>126</ele>
        <time>2016-12-19T08:44:03Z</time>
      </trkpt>
      <trkpt lat="49.26007" lon="1.85899">
        <ele>128</ele>
        <time>2016-12-19T08:44:13Z</time>
      </trkpt>
      <trkpt lat="49.26007" lon="1.85894">
        <ele>128</ele>
        <time>2016-12-19T08:44:17Z</time>
      </trkpt>
      <trkpt lat="49.26005" lon="1.8585">
        <ele>126</ele>
        <time>2016-12-19T08:44:41Z</time>
      </trkpt>
      <trkpt lat="49.26009" lon="1.8579">
        <ele>124</ele>
        <time>2016-12-19T08:45:13Z</time>
      </trkpt>
      <trkpt lat="49.26011" lon="1.85774">
        <ele>126</ele>
        <time>2016-12-19T08:45:20Z</time>
      </trkpt>
      <trkpt lat="49.26008" lon="1.85771">
        <ele>126</ele>
        <time>2016-12-19T08:45:23Z</time>
      </trkpt>
      <trkpt lat="49.26007" lon="1.85767">
        <ele>124</ele>
        <time>2016-12-19T08:45:26Z</time>
      </trkpt>
      <trkpt lat="49.26008" lon="1.85763">
        <ele>125</ele>
        <time>2016-12-19T08:45:29Z</time>
      </trkpt>
      <trkpt lat="49.26007" lon="1.85748">
        <ele>127</ele>
        <time>2016-12-19T08:45:38Z</time>
      </trkpt>
      <trkpt lat="49.26008" lon="1.85744">
        <ele>127</ele>
        <time>2016-12-19T08:45:41Z</time>
      </trkpt>
      <trkpt lat="49.2601" lon="1.85733">
        <ele>128</ele>
        <time>2016-12-19T08:45:47Z</time>
      </trkpt>
      <trkpt lat="49.26009" lon="1.85718">
        <ele>131</ele>
        <time>2016-12-19T08:45:55Z</time>
      </trkpt>
      <trkpt lat="49.26008" lon="1.85708">
        <ele>127</ele>
        <time>2016-12-19T08:46:01Z</time>
      </trkpt>
      <trkpt lat="49.26006" lon="1.85704">
        <ele>127</ele>
        <time>2016-12-19T08:46:02Z</time>
      </trkpt>
      <trkpt lat="49.26007" lon="1.85689">
        <ele>128</ele>
        <time>2016-12-19T08:46:12Z</time>
      </trkpt>
      <trkpt lat="49.26007" lon="1.8568">
        <ele>128</ele>
        <time>2016-12-19T08:46:18Z</time>
      </trkpt>
      <trkpt lat="49.26008" lon="1.85654">
        <ele>127</ele>
        <time>2016-12-19T08:46:33Z</time>
      </trkpt>
      <trkpt lat="49.26003" lon="1.856">
        <ele>128</ele>
        <time>2016-12-19T08:47:05Z</time>
      </trkpt>
      <trkpt lat="49.26004" lon="1.85591">
        <ele>128</ele>
        <time>2016-12-19T08:47:11Z</time>
      </trkpt>
      <trkpt lat="49.26002" lon="1.85587">
        <ele>129</ele>
        <time>2016-12-19T08:47:14Z</time>
      </trkpt>
      <trkpt lat="49.26001" lon="1.85571">
        <ele>129</ele>
        <time>2016-12-19T08:47:23Z</time>
      </trkpt>
      <trkpt lat="49.26001" lon="1.85561">
        <ele>129</ele>
        <time>2016-12-19T08:47:32Z</time>
      </trkpt>
      <trkpt lat="49.26" lon="1.85551">
        <ele>131</ele>
        <time>2016-12-19T08:47:37Z</time>
      </trkpt>
      <trkpt lat="49.25998" lon="1.85542">
        <ele>130</ele>
        <time>2016-12-19T08:47:43Z</time>
      </trkpt>
      <trkpt lat="49.25999" lon="1.85538">
        <ele>131</ele>
        <time>2016-12-19T08:47:46Z</time>
      </trkpt>
      <trkpt lat="49.25999" lon="1.85507">
        <ele>131</ele>
        <time>2016-12-19T08:48:04Z</time>
      </trkpt>
      <trkpt lat="49.25998" lon="1.85501">
        <ele>131</ele>
        <time>2016-12-19T08:48:05Z</time>
      </trkpt>
      <trkpt lat="49.25996" lon="1.85499">
        <ele>130</ele>
        <time>2016-12-19T08:48:06Z</time>
      </trkpt>
      <trkpt lat="49.25995" lon="1.85494">
        <ele>129</ele>
        <time>2016-12-19T08:48:10Z</time>
      </trkpt>
      <trkpt lat="49.25997" lon="1.85482">
        <ele>129</ele>
        <time>2016-12-19T08:48:16Z</time>
      </trkpt>
      <trkpt lat="49.25999" lon="1.85477">
        <ele>129</ele>
        <time>2016-12-19T08:48:20Z</time>
      </trkpt>
      <trkpt lat="49.25997" lon="1.85471">
        <ele>128</ele>
        <time>2016-12-19T08:48:24Z</time>
      </trkpt>
      <trkpt lat="49.25998" lon="1.85464">
        <ele>128</ele>
        <time>2016-12-19T08:48:27Z</time>
      </trkpt>
      <trkpt lat="49.25996" lon="1.85443">
        <ele>128</ele>
        <time>2016-12-19T08:48:37Z</time>
      </trkpt>
      <trkpt lat="49.25997" lon="1.85438">
        <ele>129</ele>
        <time>2016-12-19T08:48:41Z</time>
      </trkpt>
      <trkpt lat="49.25996" lon="1.85434">
        <ele>129</ele>
        <time>2016-12-19T08:48:44Z</time>
      </trkpt>
      <trkpt lat="49.25993" lon="1.85392">
        <ele>131</ele>
        <time>2016-12-19T08:49:06Z</time>
      </trkpt>
      <trkpt lat="49.25993" lon="1.85387">
        <ele>131</ele>
        <time>2016-12-19T08:49:08Z</time>
      </trkpt>
      <trkpt lat="49.25991" lon="1.85384">
        <ele>131</ele>
        <time>2016-12-19T08:49:10Z</time>
      </trkpt>
      <trkpt lat="49.2599" lon="1.85359">
        <ele>130</ele>
        <time>2016-12-19T08:49:25Z</time>
      </trkpt>
      <trkpt lat="49.2599" lon="1.85348">
        <ele>133</ele>
        <time>2016-12-19T08:49:31Z</time>
      </trkpt>
      <trkpt lat="49.25991" lon="1.85344">
        <ele>133</ele>
        <time>2016-12-19T08:49:33Z</time>
      </trkpt>
      <trkpt lat="49.2599" lon="1.85325">
        <ele>129</ele>
        <time>2016-12-19T08:49:44Z</time>
      </trkpt>
      <trkpt lat="49.25988" lon="1.85322">
        <ele>129</ele>
        <time>2016-12-19T08:49:46Z</time>
      </trkpt>
      <trkpt lat="49.25989" lon="1.85318">
        <ele>129</ele>
        <time>2016-12-19T08:49:50Z</time>
      </trkpt>
      <trkpt lat="49.25991" lon="1.8531">
        <ele>131</ele>
        <time>2016-12-19T08:49:54Z</time>
      </trkpt>
      <trkpt lat="49.25988" lon="1.85306">
        <ele>131</ele>
        <time>2016-12-19T08:49:56Z</time>
      </trkpt>
      <trkpt lat="49.25987" lon="1.85301">
        <ele>131</ele>
        <time>2016-12-19T08:49:58Z</time>
      </trkpt>
      <trkpt lat="49.25989" lon="1.85291">
        <ele>130</ele>
        <time>2016-12-19T08:50:03Z</time>
      </trkpt>
      <trkpt lat="49.25987" lon="1.85286">
        <ele>130</ele>
        <time>2016-12-19T08:50:05Z</time>
      </trkpt>
      <trkpt lat="49.25987" lon="1.85282">
        <ele>130</ele>
        <time>2016-12-19T08:50:08Z</time>
      </trkpt>
      <trkpt lat="49.25984" lon="1.85263">
        <ele>131</ele>
        <time>2016-12-19T08:50:22Z</time>
      </trkpt>
      <trkpt lat="49.25982" lon="1.85259">
        <ele>130</ele>
        <time>2016-12-19T08:50:24Z</time>
      </trkpt>
      <trkpt lat="49.25982" lon="1.85254">
        <ele>130</ele>
        <time>2016-12-19T08:50:26Z</time>
      </trkpt>
      <trkpt lat="49.2598" lon="1.85248">
        <ele>130</ele>
        <time>2016-12-19T08:50:29Z</time>
      </trkpt>
      <trkpt lat="49.2598" lon="1.85238">
        <ele>131</ele>
        <time>2016-12-19T08:50:35Z</time>
      </trkpt>
      <trkpt lat="49.2598" lon="1.85234">
        <ele>131</ele>
        <time>2016-12-19T08:50:38Z</time>
      </trkpt>
      <trkpt lat="49.25978" lon="1.85226">
        <ele>131</ele>
        <time>2016-12-19T08:50:44Z</time>
      </trkpt>
      <trkpt lat="49.25978" lon="1.85222">
        <ele>131</ele>
        <time>2016-12-19T08:50:46Z</time>
      </trkpt>
      <trkpt lat="49.25977" lon="1.85218">
        <ele>129</ele>
        <time>2016-12-19T08:50:50Z</time>
      </trkpt>
      <trkpt lat="49.25977" lon="1.85212">
        <ele>130</ele>
        <time>2016-12-19T08:50:51Z</time>
      </trkpt>
      <trkpt lat="49.25973" lon="1.85198">
        <ele>131</ele>
        <time>2016-12-19T08:50:59Z</time>
      </trkpt>
      <trkpt lat="49.25967" lon="1.85175">
        <ele>130</ele>
        <time>2016-12-19T08:51:14Z</time>
      </trkpt>
      <trkpt lat="49.25967" lon="1.85169">
        <ele>131</ele>
        <time>2016-12-19T08:51:17Z</time>
      </trkpt>
      <trkpt lat="49.25971" lon="1.8516">
        <ele>130</ele>
        <time>2016-12-19T08:51:24Z</time>
      </trkpt>
      <trkpt lat="49.25976" lon="1.85146">
        <ele>129</ele>
        <time>2016-12-19T08:51:33Z</time>
      </trkpt>
      <trkpt lat="49.25997" lon="1.85097">
        <ele>129</ele>
        <time>2016-12-19T08:52:05Z</time>
      </trkpt>
      <trkpt lat="49.26001" lon="1.8509">
        <ele>131</ele>
        <time>2016-12-19T08:52:10Z</time>
      </trkpt>
      <trkpt lat="49.26001" lon="1.85085">
        <ele>132</ele>
        <time>2016-12-19T08:52:13Z</time>
      </trkpt>
      <trkpt lat="49.26011" lon="1.85066">
        <ele>132</ele>
        <time>2016-12-19T08:52:28Z</time>
      </trkpt>
      <trkpt lat="49.26021" lon="1.85043">
        <ele>132</ele>
        <time>2016-12-19T08:52:43Z</time>
      </trkpt>
      <trkpt lat="49.26024" lon="1.85039">
        <ele>130</ele>
        <time>2016-12-19T08:52:47Z</time>
      </trkpt>
      <trkpt lat="49.26024" lon="1.85033">
        <ele>129</ele>
        <time>2016-12-19T08:52:51Z</time>
      </trkpt>
      <trkpt lat="49.26026" lon="1.85029">
        <ele>128</ele>
        <time>2016-12-19T08:52:54Z</time>
      </trkpt>
      <trkpt lat="49.26032" lon="1.85017">
        <ele>128</ele>
        <time>2016-12-19T08:53:02Z</time>
      </trkpt>
      <trkpt lat="49.26051" lon="1.84981">
        <ele>129</ele>
        <time>2016-12-19T08:53:26Z</time>
      </trkpt>
      <trkpt lat="49.26057" lon="1.84964">
        <ele>130</ele>
        <time>2016-12-19T08:53:38Z</time>
      </trkpt>
      <trkpt lat="49.26066" lon="1.84946">
        <ele>133</ele>
        <time>2016-12-19T08:53:51Z</time>
      </trkpt>
      <trkpt lat="49.26069" lon="1.84942">
        <ele>135</ele>
        <time>2016-12-19T08:53:54Z</time>
      </trkpt>
      <trkpt lat="49.26073" lon="1.84932">
        <ele>134</ele>
        <time>2016-12-19T08:54:01Z</time>
      </trkpt>
      <trkpt lat="49.2608" lon="1.8492">
        <ele>134</ele>
        <time>2016-12-19T08:54:08Z</time>
      </trkpt>
      <trkpt lat="49.26081" lon="1.84915">
        <ele>134</ele>
        <time>2016-12-19T08:54:12Z</time>
      </trkpt>
      <trkpt lat="49.26097" lon="1.84881">
        <ele>132</ele>
        <time>2016-12-19T08:54:36Z</time>
      </trkpt>
      <trkpt lat="49.26098" lon="1.84876">
        <ele>132</ele>
        <time>2016-12-19T08:54:39Z</time>
      </trkpt>
      <trkpt lat="49.26105" lon="1.84861">
        <ele>130</ele>
        <time>2016-12-19T08:54:49Z</time>
      </trkpt>
      <trkpt lat="49.26115" lon="1.84836">
        <ele>132</ele>
        <time>2016-12-19T08:55:08Z</time>
      </trkpt>
      <trkpt lat="49.26119" lon="1.84826">
        <ele>135</ele>
        <time>2016-12-19T08:55:15Z</time>
      </trkpt>
      <trkpt lat="49.26119" lon="1.8482">
        <ele>133</ele>
        <time>2016-12-19T08:55:20Z</time>
      </trkpt>
      <trkpt lat="49.2612" lon="1.84816">
        <ele>130</ele>
        <time>2016-12-19T08:55:23Z</time>
      </trkpt>
      <trkpt lat="49.2613" lon="1.84803">
        <ele>132</ele>
        <time>2016-12-19T08:55:33Z</time>
      </trkpt>
      <trkpt lat="49.26137" lon="1.848">
        <ele>131</ele>
        <time>2016-12-19T08:55:38Z</time>
      </trkpt>
      <trkpt lat="49.2614" lon="1.84801">
        <ele>131</ele>
        <time>2016-12-19T08:55:40Z</time>
      </trkpt>
      <trkpt lat="49.26145" lon="1.84809">
        <ele>132</ele>
        <time>2016-12-19T08:55:46Z</time>
      </trkpt>
      <trkpt lat="49.26149" lon="1.84818">
        <ele>132</ele>
        <time>2016-12-19T08:55:51Z</time>
      </trkpt>
      <trkpt lat="49.2616" lon="1.84822">
        <ele>133</ele>
        <time>2016-12-19T08:56:01Z</time>
      </trkpt>
      <trkpt lat="49.26165" lon="1.84832">
        <ele>130</ele>
        <time>2016-12-19T08:56:08Z</time>
      </trkpt>
      <trkpt lat="49.26169" lon="1.84842">
        <ele>132</ele>
        <time>2016-12-19T08:56:15Z</time>
      </trkpt>
      <trkpt lat="49.26175" lon="1.84847">
        <ele>133</ele>
        <time>2016-12-19T08:56:20Z</time>
      </trkpt>
      <trkpt lat="49.26181" lon="1.84849">
        <ele>131</ele>
        <time>2016-12-19T08:56:26Z</time>
      </trkpt>
      <trkpt lat="49.26183" lon="1.84852">
        <ele>131</ele>
        <time>2016-12-19T08:56:28Z</time>
      </trkpt>
      <trkpt lat="49.26186" lon="1.84851">
        <ele>131</ele>
        <time>2016-12-19T08:56:30Z</time>
      </trkpt>
      <trkpt lat="49.26188" lon="1.84855">
        <ele>130</ele>
        <time>2016-12-19T08:56:33Z</time>
      </trkpt>
      <trkpt lat="49.26195" lon="1.84856">
        <ele>131</ele>
        <time>2016-12-19T08:56:38Z</time>
      </trkpt>
      <trkpt lat="49.26201" lon="1.84863">
        <ele>131</ele>
        <time>2016-12-19T08:56:45Z</time>
      </trkpt>
      <trkpt lat="49.26207" lon="1.84869">
        <ele>133</ele>
        <time>2016-12-19T08:56:51Z</time>
      </trkpt>
      <trkpt lat="49.26232" lon="1.84888">
        <ele>133</ele>
        <time>2016-12-19T08:57:15Z</time>
      </trkpt>
      <trkpt lat="49.26259" lon="1.84892">
        <ele>134</ele>
        <time>2016-12-19T08:57:43Z</time>
      </trkpt>
      <trkpt lat="49.26265" lon="1.84883">
        <ele>134</ele>
        <time>2016-12-19T08:57:47Z</time>
      </trkpt>
      <trkpt lat="49.26269" lon="1.8489">
        <ele>131</ele>
        <time>2016-12-19T08:57:52Z</time>
      </trkpt>
      <trkpt lat="49.26264" lon="1.8491">
        <ele>130</ele>
        <time>2016-12-19T08:58:09Z</time>
      </trkpt>
      <trkpt lat="49.26267" lon="1.84903">
        <ele>127</ele>
        <time>2016-12-19T08:58:19Z</time>
      </trkpt>
      <trkpt lat="49.26273" lon="1.84905">
        <ele>125</ele>
        <time>2016-12-19T08:58:33Z</time>
      </trkpt>
      <trkpt lat="49.26279" lon="1.84904">
        <ele>124</ele>
        <time>2016-12-19T08:58:38Z</time>
      </trkpt>
      <trkpt lat="49.26287" lon="1.8489">
        <ele>125</ele>
        <time>2016-12-19T08:58:48Z</time>
      </trkpt>
      <trkpt lat="49.26287" lon="1.84883">
        <ele>126</ele>
        <time>2016-12-19T08:58:52Z</time>
      </trkpt>
      <trkpt lat="49.26298" lon="1.84884">
        <ele>126</ele>
        <time>2016-12-19T08:58:59Z</time>
      </trkpt>
      <trkpt lat="49.26301" lon="1.84881">
        <ele>126</ele>
        <time>2016-12-19T08:59:02Z</time>
      </trkpt>
      <trkpt lat="49.26308" lon="1.84873">
        <ele>125</ele>
        <time>2016-12-19T08:59:13Z</time>
      </trkpt>
      <trkpt lat="49.26318" lon="1.84871">
        <ele>125</ele>
        <time>2016-12-19T08:59:21Z</time>
      </trkpt>
      <trkpt lat="49.2632" lon="1.84876">
        <ele>125</ele>
        <time>2016-12-19T08:59:26Z</time>
      </trkpt>
      <trkpt lat="49.26325" lon="1.84872">
        <ele>125</ele>
        <time>2016-12-19T08:59:38Z</time>
      </trkpt>
      <trkpt lat="49.26349" lon="1.84868">
        <ele>123</ele>
        <time>2016-12-19T08:59:56Z</time>
      </trkpt>
      <trkpt lat="49.26364" lon="1.84872">
        <ele>123</ele>
        <time>2016-12-19T09:00:06Z</time>
      </trkpt>
      <trkpt lat="49.26367" lon="1.84866">
        <ele>122</ele>
        <time>2016-12-19T09:00:10Z</time>
      </trkpt>
      <trkpt lat="49.26378" lon="1.84863">
        <ele>118</ele>
        <time>2016-12-19T09:00:19Z</time>
      </trkpt>
      <trkpt lat="49.26383" lon="1.84861">
        <ele>117</ele>
        <time>2016-12-19T09:00:24Z</time>
      </trkpt>
      <trkpt lat="49.26388" lon="1.84865">
        <ele>118</ele>
        <time>2016-12-19T09:00:29Z</time>
      </trkpt>
      <trkpt lat="49.26391" lon="1.84855">
        <ele>117</ele>
        <time>2016-12-19T09:00:33Z</time>
      </trkpt>
      <trkpt lat="49.26398" lon="1.84858">
        <ele>113</ele>
        <time>2016-12-19T09:00:38Z</time>
      </trkpt>
      <trkpt lat="49.26403" lon="1.84853">
        <ele>111</ele>
        <time>2016-12-19T09:00:42Z</time>
      </trkpt>
      <trkpt lat="49.26413" lon="1.84851">
        <ele>111</ele>
        <time>2016-12-19T09:00:49Z</time>
      </trkpt>
      <trkpt lat="49.26417" lon="1.84846">
        <ele>108</ele>
        <time>2016-12-19T09:00:54Z</time>
      </trkpt>
      <trkpt lat="49.26423" lon="1.84845">
        <ele>108</ele>
        <time>2016-12-19T09:00:57Z</time>
      </trkpt>
      <trkpt lat="49.26431" lon="1.84857">
        <ele>113</ele>
        <time>2016-12-19T09:01:10Z</time>
      </trkpt>
      <trkpt lat="49.26436" lon="1.84859">
        <ele>112</ele>
        <time>2016-12-19T09:01:13Z</time>
      </trkpt>
      <trkpt lat="49.26441" lon="1.84858">
        <ele>110</ele>
        <time>2016-12-19T09:01:17Z</time>
      </trkpt>
      <trkpt lat="49.26451" lon="1.84858">
        <ele>109</ele>
        <time>2016-12-19T09:01:25Z</time>
      </trkpt>
      <trkpt lat="49.26455" lon="1.84849">
        <ele>109</ele>
        <time>2016-12-19T09:01:28Z</time>
      </trkpt>
      <trkpt lat="49.26461" lon="1.84853">
        <ele>111</ele>
        <time>2016-12-19T09:01:33Z</time>
      </trkpt>
      <trkpt lat="49.26468" lon="1.8485">
        <ele>110</ele>
        <time>2016-12-19T09:01:41Z</time>
      </trkpt>
      <trkpt lat="49.26477" lon="1.84848">
        <ele>108</ele>
        <time>2016-12-19T09:01:56Z</time>
      </trkpt>
      <trkpt lat="49.26484" lon="1.84857">
        <ele>107</ele>
        <time>2016-12-19T09:02:03Z</time>
      </trkpt>
      <trkpt lat="49.26493" lon="1.84853">
        <ele>105</ele>
        <time>2016-12-19T09:02:07Z</time>
      </trkpt>
      <trkpt lat="49.26498" lon="1.84859">
        <ele>104</ele>
        <time>2016-12-19T09:02:12Z</time>
      </trkpt>
      <trkpt lat="49.26504" lon="1.84855">
        <ele>102</ele>
        <time>2016-12-19T09:02:16Z</time>
      </trkpt>
      <trkpt lat="49.26525" lon="1.84864">
        <ele>97</ele>
        <time>2016-12-19T09:02:36Z</time>
      </trkpt>
      <trkpt lat="49.26534" lon="1.84868">
        <ele>100</ele>
        <time>2016-12-19T09:02:44Z</time>
      </trkpt>
      <trkpt lat="49.26552" lon="1.8487">
        <ele>103</ele>
        <time>2016-12-19T09:02:58Z</time>
      </trkpt>
      <trkpt lat="49.26559" lon="1.84877">
        <ele>104</ele>
        <time>2016-12-19T09:03:01Z</time>
      </trkpt>
      <trkpt lat="49.26566" lon="1.84878">
        <ele>105</ele>
        <time>2016-12-19T09:03:09Z</time>
      </trkpt>
      <trkpt lat="49.26574" lon="1.84877">
        <ele>105</ele>
        <time>2016-12-19T09:03:15Z</time>
      </trkpt>
      <trkpt lat="49.26581" lon="1.84875">
        <ele>97</ele>
        <time>2016-12-19T09:03:26Z</time>
      </trkpt>
      <trkpt lat="49.26582" lon="1.84869">
        <ele>93</ele>
        <time>2016-12-19T09:03:37Z</time>
      </trkpt>
      <trkpt lat="49.26589" lon="1.84872">
        <ele>92</ele>
        <time>2016-12-19T09:03:45Z</time>
      </trkpt>
      <trkpt lat="49.26595" lon="1.84875">
        <ele>92</ele>
        <time>2016-12-19T09:03:50Z</time>
      </trkpt>
      <trkpt lat="49.26601" lon="1.84871">
        <ele>94</ele>
        <time>2016-12-19T09:03:54Z</time>
      </trkpt>
      <trkpt lat="49.26608" lon="1.84867">
        <ele>95</ele>
        <time>2016-12-19T09:04:06Z</time>
      </trkpt>
      <trkpt lat="49.26635" lon="1.84876">
        <ele>93</ele>
        <time>2016-12-19T09:04:30Z</time>
      </trkpt>
      <trkpt lat="49.26638" lon="1.84872">
        <ele>94</ele>
        <time>2016-12-19T09:04:33Z</time>
      </trkpt>
      <trkpt lat="49.26642" lon="1.84872">
        <ele>94</ele>
        <time>2016-12-19T09:04:36Z</time>
      </trkpt>
      <trkpt lat="49.26646" lon="1.8487">
        <ele>93</ele>
        <time>2016-12-19T09:04:40Z</time>
      </trkpt>
      <trkpt lat="49.26646" lon="1.8487">
        <ele>91</ele>
        <time>2016-12-19T09:04:59Z</time>
      </trkpt>
      <trkpt lat="49.2665" lon="1.84871">
        <ele>88</ele>
        <time>2016-12-19T09:05:29Z</time>
      </trkpt>
      <trkpt lat="49.26657" lon="1.84862">
        <ele>90</ele>
        <time>2016-12-19T09:05:58Z</time>
      </trkpt>
      <trkpt lat="49.26666" lon="1.84861">
        <ele>94</ele>
        <time>2016-12-19T09:06:07Z</time>
      </trkpt>
      <trkpt lat="49.26671" lon="1.84861">
        <ele>94</ele>
        <time>2016-12-19T09:06:10Z</time>
      </trkpt>
      <trkpt lat="49.26674" lon="1.8486">
        <ele>94</ele>
        <time>2016-12-19T09:06:12Z</time>
      </trkpt>
      <trkpt lat="49.26677" lon="1.84862">
        <ele>94</ele>
        <time>2016-12-19T09:06:15Z</time>
      </trkpt>
      <trkpt lat="49.26711" lon="1.84859">
        <ele>97</ele>
        <time>2016-12-19T09:06:45Z</time>
      </trkpt>
      <trkpt lat="49.26719" lon="1.8486">
        <ele>98</ele>
        <time>2016-12-19T09:06:51Z</time>
      </trkpt>
      <trkpt lat="49.26727" lon="1.8486">
        <ele>98</ele>
        <time>2016-12-19T09:06:57Z</time>
      </trkpt>
      <trkpt lat="49.2673" lon="1.84854">
        <ele>94</ele>
        <time>2016-12-19T09:07:04Z</time>
      </trkpt>
      <trkpt lat="49.26738" lon="1.84859">
        <ele>94</ele>
        <time>2016-12-19T09:07:10Z</time>
      </trkpt>
      <trkpt lat="49.26743" lon="1.84855">
        <ele>95</ele>
        <time>2016-12-19T09:07:14Z</time>
      </trkpt>
      <trkpt lat="49.26764" lon="1.84863">
        <ele>94</ele>
        <time>2016-12-19T09:07:36Z</time>
      </trkpt>
      <trkpt lat="49.26768" lon="1.84858">
        <ele>93</ele>
        <time>2016-12-19T09:07:41Z</time>
      </trkpt>
      <trkpt lat="49.26776" lon="1.84852">
        <ele>89</ele>
        <time>2016-12-19T09:07:46Z</time>
      </trkpt>
      <trkpt lat="49.26782" lon="1.84849">
        <ele>87</ele>
        <time>2016-12-19T09:07:50Z</time>
      </trkpt>
      <trkpt lat="49.26789" lon="1.84848">
        <ele>87</ele>
        <time>2016-12-19T09:07:53Z</time>
      </trkpt>
      <trkpt lat="49.26794" lon="1.84843">
        <ele>85</ele>
        <time>2016-12-19T09:08:01Z</time>
      </trkpt>
      <trkpt lat="49.26797" lon="1.84834">
        <ele>85</ele>
        <time>2016-12-19T09:08:10Z</time>
      </trkpt>
      <trkpt lat="49.26803" lon="1.84838">
        <ele>84</ele>
        <time>2016-12-19T09:08:13Z</time>
      </trkpt>
      <trkpt lat="49.26809" lon="1.84833">
        <ele>83</ele>
        <time>2016-12-19T09:08:21Z</time>
      </trkpt>
      <trkpt lat="49.26815" lon="1.84823">
        <ele>82</ele>
        <time>2016-12-19T09:08:26Z</time>
      </trkpt>
      <trkpt lat="49.26825" lon="1.84822">
        <ele>75</ele>
        <time>2016-12-19T09:08:38Z</time>
      </trkpt>
      <trkpt lat="49.26831" lon="1.84824">
        <ele>79</ele>
        <time>2016-12-19T09:08:43Z</time>
      </trkpt>
      <trkpt lat="49.26855" lon="1.84817">
        <ele>83</ele>
        <time>2016-12-19T09:08:57Z</time>
      </trkpt>
      <trkpt lat="49.26861" lon="1.8481">
        <ele>86</ele>
        <time>2016-12-19T09:09:07Z</time>
      </trkpt>
      <trkpt lat="49.26861" lon="1.848">
        <ele>87</ele>
        <time>2016-12-19T09:09:15Z</time>
      </trkpt>
      <trkpt lat="49.26865" lon="1.84793">
        <ele>90</ele>
        <time>2016-12-19T09:09:20Z</time>
      </trkpt>
      <trkpt lat="49.26873" lon="1.84778">
        <ele>91</ele>
        <time>2016-12-19T09:09:35Z</time>
      </trkpt>
      <trkpt lat="49.26878" lon="1.84761">
        <ele>94</ele>
        <time>2016-12-19T09:09:47Z</time>
      </trkpt>
      <trkpt lat="49.2689" lon="1.84756">
        <ele>96</ele>
        <time>2016-12-19T09:09:56Z</time>
      </trkpt>
      <trkpt lat="49.26895" lon="1.8475">
        <ele>99</ele>
        <time>2016-12-19T09:10:01Z</time>
      </trkpt>
      <trkpt lat="49.26894" lon="1.84741">
        <ele>100</ele>
        <time>2016-12-19T09:10:07Z</time>
      </trkpt>
      <trkpt lat="49.26899" lon="1.84737">
        <ele>99</ele>
        <time>2016-12-19T09:10:15Z</time>
      </trkpt>
      <trkpt lat="49.26907" lon="1.8473">
        <ele>93</ele>
        <time>2016-12-19T09:10:22Z</time>
      </trkpt>
      <trkpt lat="49.26914" lon="1.84725">
        <ele>91</ele>
        <time>2016-12-19T09:10:29Z</time>
      </trkpt>
      <trkpt lat="49.26918" lon="1.84714">
        <ele>91</ele>
        <time>2016-12-19T09:10:43Z</time>
      </trkpt>
      <trkpt lat="49.26926" lon="1.84705">
        <ele>86</ele>
        <time>2016-12-19T09:10:52Z</time>
      </trkpt>
      <trkpt lat="49.26936" lon="1.84702">
        <ele>86</ele>
        <time>2016-12-19T09:10:57Z</time>
      </trkpt>
      <trkpt lat="49.26974" lon="1.84679">
        <ele>89</ele>
        <time>2016-12-19T09:11:33Z</time>
      </trkpt>
      <trkpt lat="49.26979" lon="1.84675">
        <ele>88</ele>
        <time>2016-12-19T09:11:38Z</time>
      </trkpt>
      <trkpt lat="49.26985" lon="1.84674">
        <ele>89</ele>
        <time>2016-12-19T09:11:42Z</time>
      </trkpt>
      <trkpt lat="49.2699" lon="1.84671">
        <ele>89</ele>
        <time>2016-12-19T09:11:50Z</time>
      </trkpt>
      <trkpt lat="49.27005" lon="1.84666">
        <ele>96</ele>
        <time>2016-12-19T09:12:05Z</time>
      </trkpt>
      <trkpt lat="49.27007" lon="1.84663">
        <ele>97</ele>
        <time>2016-12-19T09:12:11Z</time>
      </trkpt>
      <trkpt lat="49.27014" lon="1.8465">
        <ele>96</ele>
        <time>2016-12-19T09:12:21Z</time>
      </trkpt>
      <trkpt lat="49.27031" lon="1.84632">
        <ele>95</ele>
        <time>2016-12-19T09:12:39Z</time>
      </trkpt>
      <trkpt lat="49.27035" lon="1.84625">
        <ele>95</ele>
        <time>2016-12-19T09:12:45Z</time>
      </trkpt>
      <trkpt lat="49.27041" lon="1.84629">
        <ele>92</ele>
        <time>2016-12-19T09:12:48Z</time>
      </trkpt>
      <trkpt lat="49.27046" lon="1.84634">
        <ele>89</ele>
        <time>2016-12-19T09:12:49Z</time>
      </trkpt>
      <trkpt lat="49.27051" lon="1.84632">
        <ele>86</ele>
        <time>2016-12-19T09:12:54Z</time>
      </trkpt>
      <trkpt lat="49.27056" lon="1.84636">
        <ele>86</ele>
        <time>2016-12-19T09:12:58Z</time>
      </trkpt>
      <trkpt lat="49.27061" lon="1.84631">
        <ele>85</ele>
        <time>2016-12-19T09:13:06Z</time>
      </trkpt>
      <trkpt lat="49.27074" lon="1.84629">
        <ele>85</ele>
        <time>2016-12-19T09:13:16Z</time>
      </trkpt>
      <trkpt lat="49.27083" lon="1.84625">
        <ele>90</ele>
        <time>2016-12-19T09:13:22Z</time>
      </trkpt>
      <trkpt lat="49.27088" lon="1.84618">
        <ele>92</ele>
        <time>2016-12-19T09:13:28Z</time>
      </trkpt>
      <trkpt lat="49.27095" lon="1.84619">
        <ele>93</ele>
        <time>2016-12-19T09:13:33Z</time>
      </trkpt>
      <trkpt lat="49.27107" lon="1.84611">
        <ele>90</ele>
        <time>2016-12-19T09:13:47Z</time>
      </trkpt>
      <trkpt lat="49.27112" lon="1.84607">
        <ele>92</ele>
        <time>2016-12-19T09:13:53Z</time>
      </trkpt>
      <trkpt lat="49.27124" lon="1.84598">
        <ele>92</ele>
        <time>2016-12-19T09:14:07Z</time>
      </trkpt>
      <trkpt lat="49.2713" lon="1.84589">
        <ele>93</ele>
        <time>2016-12-19T09:14:12Z</time>
      </trkpt>
      <trkpt lat="49.27132" lon="1.8458">
        <ele>97</ele>
        <time>2016-12-19T09:14:21Z</time>
      </trkpt>
      <trkpt lat="49.27138" lon="1.84575">
        <ele>98</ele>
        <time>2016-12-19T09:14:27Z</time>
      </trkpt>
      <trkpt lat="49.27142" lon="1.84567">
        <ele>97</ele>
        <time>2016-12-19T09:14:34Z</time>
      </trkpt>
      <trkpt lat="49.27147" lon="1.84562">
        <ele>96</ele>
        <time>2016-12-19T09:14:44Z</time>
      </trkpt>
      <trkpt lat="49.2715" lon="1.84551">
        <ele>94</ele>
        <time>2016-12-19T09:14:51Z</time>
      </trkpt>
      <trkpt lat="49.27156" lon="1.84552">
        <ele>94</ele>
        <time>2016-12-19T09:14:52Z</time>
      </trkpt>
      <trkpt lat="49.27161" lon="1.84555">
        <ele>95</ele>
        <time>2016-12-19T09:14:55Z</time>
      </trkpt>
      <trkpt lat="49.27176" lon="1.84553">
        <ele>94</ele>
        <time>2016-12-19T09:15:11Z</time>
      </trkpt>
      <trkpt lat="49.2718" lon="1.84554">
        <ele>98</ele>
        <time>2016-12-19T09:15:16Z</time>
      </trkpt>
      <trkpt lat="49.27187" lon="1.84549">
        <ele>102</ele>
        <time>2016-12-19T09:15:30Z</time>
      </trkpt>
      <trkpt lat="49.27194" lon="1.84548">
        <ele>103</ele>
        <time>2016-12-19T09:15:42Z</time>
      </trkpt>
      <trkpt lat="49.27201" lon="1.84546">
        <ele>103</ele>
        <time>2016-12-19T09:15:52Z</time>
      </trkpt>
      <trkpt lat="49.27206" lon="1.84543">
        <ele>105</ele>
        <time>2016-12-19T09:15:56Z</time>
      </trkpt>
      <trkpt lat="49.27217" lon="1.84535">
        <ele>104</ele>
        <time>2016-12-19T09:16:03Z</time>
      </trkpt>
      <trkpt lat="49.27223" lon="1.8453">
        <ele>102</ele>
        <time>2016-12-19T09:16:14Z</time>
      </trkpt>
      <trkpt lat="49.2723" lon="1.84526">
        <ele>100</ele>
        <time>2016-12-19T09:16:26Z</time>
      </trkpt>
      <trkpt lat="49.27234" lon="1.84518">
        <ele>100</ele>
        <time>2016-12-19T09:16:28Z</time>
      </trkpt>
      <trkpt lat="49.27243" lon="1.84517">
        <ele>100</ele>
        <time>2016-12-19T09:16:34Z</time>
      </trkpt>
      <trkpt lat="49.27249" lon="1.84516">
        <ele>102</ele>
        <time>2016-12-19T09:16:39Z</time>
      </trkpt>
      <trkpt lat="49.27266" lon="1.84503">
        <ele>109</ele>
        <time>2016-12-19T09:16:57Z</time>
      </trkpt>
      <trkpt lat="49.27268" lon="1.84495">
        <ele>112</ele>
        <time>2016-12-19T09:17:03Z</time>
      </trkpt>
      <trkpt lat="49.2727" lon="1.84482">
        <ele>112</ele>
        <time>2016-12-19T09:17:19Z</time>
      </trkpt>
      <trkpt lat="49.27276" lon="1.84481">
        <ele>113</ele>
        <time>2016-12-19T09:17:48Z</time>
      </trkpt>
      <trkpt lat="49.27277" lon="1.8447">
        <ele>121</ele>
        <time>2016-12-19T09:18:52Z</time>
      </trkpt>
      <trkpt lat="49.27282" lon="1.84469">
        <ele>114</ele>
        <time>2016-12-19T09:19:02Z</time>
      </trkpt>
      <trkpt lat="49.27282" lon="1.84465">
        <ele>114</ele>
        <time>2016-12-19T09:19:05Z</time>
      </trkpt>
      <trkpt lat="49.27284" lon="1.8446">
        <ele>113</ele>
        <time>2016-12-19T09:19:08Z</time>
      </trkpt>
      <trkpt lat="49.27287" lon="1.84457">
        <ele>112</ele>
        <time>2016-12-19T09:19:10Z</time>
      </trkpt>
      <trkpt lat="49.27282" lon="1.84453">
        <ele>112</ele>
        <time>2016-12-19T09:19:17Z</time>
      </trkpt>
      <trkpt lat="49.27288" lon="1.84445">
        <ele>111</ele>
        <time>2016-12-19T09:19:25Z</time>
      </trkpt>
      <trkpt lat="49.27296" lon="1.84439">
        <ele>116</ele>
        <time>2016-12-19T09:19:30Z</time>
      </trkpt>
      <trkpt lat="49.27302" lon="1.84435">
        <ele>118</ele>
        <time>2016-12-19T09:19:35Z</time>
      </trkpt>
      <trkpt lat="49.27301" lon="1.84426">
        <ele>118</ele>
        <time>2016-12-19T09:19:40Z</time>
      </trkpt>
      <trkpt lat="49.27299" lon="1.84406">
        <ele>108</ele>
        <time>2016-12-19T09:20:03Z</time>
      </trkpt>
      <trkpt lat="49.27306" lon="1.84404">
        <ele>107</ele>
        <time>2016-12-19T09:20:05Z</time>
      </trkpt>
      <trkpt lat="49.2731" lon="1.84397">
        <ele>102</ele>
        <time>2016-12-19T09:20:12Z</time>
      </trkpt>
      <trkpt lat="49.27318" lon="1.84395">
        <ele>102</ele>
        <time>2016-12-19T09:20:14Z</time>
      </trkpt>
      <trkpt lat="49.2732" lon="1.84387">
        <ele>101</ele>
        <time>2016-12-19T09:20:19Z</time>
      </trkpt>
      <trkpt lat="49.27326" lon="1.84386">
        <ele>100</ele>
        <time>2016-12-19T09:20:21Z</time>
      </trkpt>
      <trkpt lat="49.27324" lon="1.84377">
        <ele>98</ele>
        <time>2016-12-19T09:20:27Z</time>
      </trkpt>
      <trkpt lat="49.27322" lon="1.84363">
        <ele>96</ele>
        <time>2016-12-19T09:20:36Z</time>
      </trkpt>
      <trkpt lat="49.27327" lon="1.84355">
        <ele>95</ele>
        <time>2016-12-19T09:20:43Z</time>
      </trkpt>
      <trkpt lat="49.27334" lon="1.84344">
        <ele>94</ele>
        <time>2016-12-19T09:20:51Z</time>
      </trkpt>
      <trkpt lat="49.27339" lon="1.84329">
        <ele>97</ele>
        <time>2016-12-19T09:21:01Z</time>
      </trkpt>
      <trkpt lat="49.27341" lon="1.84319">
        <ele>97</ele>
        <time>2016-12-19T09:21:07Z</time>
      </trkpt>
      <trkpt lat="49.27344" lon="1.84313">
        <ele>97</ele>
        <time>2016-12-19T09:21:10Z</time>
      </trkpt>
      <trkpt lat="49.27349" lon="1.84288">
        <ele>97</ele>
        <time>2016-12-19T09:21:40Z</time>
      </trkpt>
      <trkpt lat="49.27346" lon="1.84286">
        <ele>96</ele>
        <time>2016-12-19T09:21:44Z</time>
      </trkpt>
      <trkpt lat="49.27345" lon="1.84282">
        <ele>94</ele>
        <time>2016-12-19T09:21:58Z</time>
      </trkpt>
      <trkpt lat="49.27343" lon="1.84271">
        <ele>94</ele>
        <time>2016-12-19T09:22:27Z</time>
      </trkpt>
      <trkpt lat="49.27339" lon="1.84269">
        <ele>94</ele>
        <time>2016-12-19T09:22:31Z</time>
      </trkpt>
      <trkpt lat="49.27337" lon="1.8426">
        <ele>94</ele>
        <time>2016-12-19T09:22:35Z</time>
      </trkpt>
      <trkpt lat="49.27335" lon="1.84255">
        <ele>94</ele>
        <time>2016-12-19T09:22:38Z</time>
      </trkpt>
      <trkpt lat="49.27332" lon="1.84251">
        <ele>95</ele>
        <time>2016-12-19T09:22:41Z</time>
      </trkpt>
      <trkpt lat="49.27322" lon="1.84228">
        <ele>101</ele>
        <time>2016-12-19T09:23:04Z</time>
      </trkpt>
      <trkpt lat="49.27319" lon="1.84227">
        <ele>101</ele>
        <time>2016-12-19T09:23:08Z</time>
      </trkpt>
      <trkpt lat="49.27318" lon="1.8422">
        <ele>99</ele>
        <time>2016-12-19T09:23:15Z</time>
      </trkpt>
      <trkpt lat="49.27316" lon="1.84213">
        <ele>97</ele>
        <time>2016-12-19T09:23:20Z</time>
      </trkpt>
      <trkpt lat="49.2731" lon="1.84203">
        <ele>96</ele>
        <time>2016-12-19T09:23:28Z</time>
      </trkpt>
      <trkpt lat="49.27306" lon="1.84197">
        <ele>99</ele>
        <time>2016-12-19T09:23:33Z</time>
      </trkpt>
      <trkpt lat="49.27301" lon="1.84182">
        <ele>99</ele>
        <time>2016-12-19T09:23:43Z</time>
      </trkpt>
      <trkpt lat="49.27298" lon="1.84175">
        <ele>99</ele>
        <time>2016-12-19T09:23:46Z</time>
      </trkpt>
      <trkpt lat="49.27288" lon="1.84161">
        <ele>95</ele>
        <time>2016-12-19T09:23:59Z</time>
      </trkpt>
      <trkpt lat="49.27285" lon="1.84149">
        <ele>96</ele>
        <time>2016-12-19T09:24:12Z</time>
      </trkpt>
      <trkpt lat="49.2728" lon="1.84147">
        <ele>97</ele>
        <time>2016-12-19T09:24:19Z</time>
      </trkpt>
      <trkpt lat="49.27275" lon="1.84132">
        <ele>100</ele>
        <time>2016-12-19T09:24:31Z</time>
      </trkpt>
      <trkpt lat="49.27271" lon="1.84128">
        <ele>100</ele>
        <time>2016-12-19T09:24:44Z</time>
      </trkpt>
      <trkpt lat="49.27269" lon="1.84121">
        <ele>99</ele>
        <time>2016-12-19T09:24:49Z</time>
      </trkpt>
      <trkpt lat="49.27267" lon="1.84111">
        <ele>97</ele>
        <time>2016-12-19T09:24:57Z</time>
      </trkpt>
      <trkpt lat="49.27254" lon="1.84072">
        <ele>99</ele>
        <time>2016-12-19T09:25:17Z</time>
      </trkpt>
      <trkpt lat="49.27247" lon="1.84021">
        <ele>111</ele>
        <time>2016-12-19T09:25:47Z</time>
      </trkpt>
      <trkpt lat="49.27244" lon="1.84013">
        <ele>111</ele>
        <time>2016-12-19T09:25:51Z</time>
      </trkpt>
      <trkpt lat="49.27237" lon="1.83998">
        <ele>109</ele>
        <time>2016-12-19T09:26:00Z</time>
      </trkpt>
      <trkpt lat="49.27236" lon="1.83985">
        <ele>107</ele>
        <time>2016-12-19T09:26:06Z</time>
      </trkpt>
      <trkpt lat="49.27233" lon="1.83981">
        <ele>107</ele>
        <time>2016-12-19T09:26:10Z</time>
      </trkpt>
      <trkpt lat="49.27235" lon="1.83974">
        <ele>104</ele>
        <time>2016-12-19T09:26:17Z</time>
      </trkpt>
      <trkpt lat="49.27238" lon="1.83971">
        <ele>98</ele>
        <time>2016-12-19T09:26:21Z</time>
      </trkpt>
      <trkpt lat="49.27237" lon="1.83964">
        <ele>97</ele>
        <time>2016-12-19T09:26:26Z</time>
      </trkpt>
      <trkpt lat="49.27238" lon="1.83948">
        <ele>99</ele>
        <time>2016-12-19T09:26:35Z</time>
      </trkpt>
      <trkpt lat="49.27237" lon="1.83941">
        <ele>104</ele>
        <time>2016-12-19T09:26:38Z</time>
      </trkpt>
      <trkpt lat="49.27235" lon="1.83935">
        <ele>106</ele>
        <time>2016-12-19T09:26:41Z</time>
      </trkpt>
      <trkpt lat="49.27235" lon="1.83928">
        <ele>106</ele>
        <time>2016-12-19T09:26:47Z</time>
      </trkpt>
      <trkpt lat="49.27235" lon="1.83921">
        <ele>105</ele>
        <time>2016-12-19T09:26:52Z</time>
      </trkpt>
      <trkpt lat="49.27235" lon="1.83913">
        <ele>104</ele>
        <time>2016-12-19T09:26:57Z</time>
      </trkpt>
      <trkpt lat="49.27233" lon="1.83885">
        <ele>102</ele>
        <time>2016-12-19T09:27:16Z</time>
      </trkpt>
      <trkpt lat="49.27229" lon="1.8388">
        <ele>102</ele>
        <time>2016-12-19T09:27:21Z</time>
      </trkpt>
      <trkpt lat="49.27224" lon="1.83869">
        <ele>100</ele>
        <time>2016-12-19T09:27:26Z</time>
      </trkpt>
      <trkpt lat="49.27225" lon="1.83864">
        <ele>99</ele>
        <time>2016-12-19T09:27:31Z</time>
      </trkpt>
      <trkpt lat="49.27222" lon="1.83859">
        <ele>99</ele>
        <time>2016-12-19T09:27:34Z</time>
      </trkpt>
      <trkpt lat="49.27224" lon="1.83845">
        <ele>100</ele>
        <time>2016-12-19T09:27:40Z</time>
      </trkpt>
      <trkpt lat="49.27229" lon="1.83846">
        <ele>97</ele>
        <time>2016-12-19T09:27:45Z</time>
      </trkpt>
      <trkpt lat="49.27239" lon="1.83846">
        <ele>95</ele>
        <time>2016-12-19T09:27:52Z</time>
      </trkpt>
      <trkpt lat="49.27244" lon="1.83841">
        <ele>90</ele>
        <time>2016-12-19T09:27:59Z</time>
      </trkpt>
      <trkpt lat="49.27247" lon="1.83834">
        <ele>92</ele>
        <time>2016-12-19T09:28:08Z</time>
      </trkpt>
      <trkpt lat="49.27252" lon="1.83833">
        <ele>95</ele>
        <time>2016-12-19T09:28:13Z</time>
      </trkpt>
      <trkpt lat="49.27256" lon="1.83831">
        <ele>100</ele>
        <time>2016-12-19T09:28:27Z</time>
      </trkpt>
      <trkpt lat="49.2726" lon="1.83832">
        <ele>87</ele>
        <time>2016-12-19T09:28:53Z</time>
      </trkpt>
      <trkpt lat="49.27267" lon="1.83837">
        <ele>87</ele>
        <time>2016-12-19T09:29:01Z</time>
      </trkpt>
      <trkpt lat="49.27263" lon="1.83837">
        <ele>103</ele>
        <time>2016-12-19T09:29:35Z</time>
      </trkpt>
      <trkpt lat="49.27261" lon="1.83842">
        <ele>103</ele>
        <time>2016-12-19T09:29:43Z</time>
      </trkpt>
      <trkpt lat="49.27266" lon="1.83846">
        <ele>103</ele>
        <time>2016-12-19T09:30:39Z</time>
      </trkpt>
      <trkpt lat="49.27264" lon="1.83836">
        <ele>103</ele>
        <time>2016-12-19T09:30:44Z</time>
      </trkpt>
      <trkpt lat="49.27264" lon="1.8383">
        <ele>110</ele>
        <time>2016-12-19T09:30:55Z</time>
      </trkpt>
      <trkpt lat="49.27259" lon="1.83828">
        <ele>113</ele>
        <time>2016-12-19T09:31:11Z</time>
      </trkpt>
      <trkpt lat="49.27259" lon="1.83834">
        <ele>104</ele>
        <time>2016-12-19T09:31:36Z</time>
      </trkpt>
      <trkpt lat="49.27259" lon="1.83838">
        <ele>90</ele>
        <time>2016-12-19T09:32:34Z</time>
      </trkpt>
      <trkpt lat="49.27262" lon="1.83842">
        <ele>95</ele>
        <time>2016-12-19T09:32:38Z</time>
      </trkpt>
      <trkpt lat="49.27262" lon="1.83839">
        <ele>98</ele>
        <time>2016-12-19T09:33:18Z</time>
      </trkpt>
      <trkpt lat="49.27261" lon="1.83832">
        <ele>103</ele>
        <time>2016-12-19T09:33:29Z</time>
      </trkpt>
      <trkpt lat="49.27261" lon="1.83835">
        <ele>103</ele>
        <time>2016-12-19T09:33:54Z</time>
      </trkpt>
      <trkpt lat="49.27261" lon="1.83839">
        <ele>98</ele>
        <time>2016-12-19T09:34:16Z</time>
      </trkpt>
      <trkpt lat="49.27262" lon="1.83836">
        <ele>98</ele>
        <time>2016-12-19T09:34:49Z</time>
      </trkpt>
      <trkpt lat="49.27255" lon="1.83832">
        <ele>99</ele>
        <time>2016-12-19T09:35:13Z</time>
      </trkpt>
      <trkpt lat="49.27249" lon="1.83832">
        <ele>98</ele>
        <time>2016-12-19T09:35:30Z</time>
      </trkpt>
      <trkpt lat="49.27242" lon="1.8384">
        <ele>95</ele>
        <time>2016-12-19T09:35:39Z</time>
      </trkpt>
      <trkpt lat="49.27235" lon="1.83841">
        <ele>97</ele>
        <time>2016-12-19T09:35:45Z</time>
      </trkpt>
      <trkpt lat="49.27227" lon="1.83837">
        <ele>97</ele>
        <time>2016-12-19T09:35:53Z</time>
      </trkpt>
      <trkpt lat="49.27222" lon="1.83833">
        <ele>104</ele>
        <time>2016-12-19T09:36:02Z</time>
      </trkpt>
      <trkpt lat="49.27222" lon="1.83825">
        <ele>106</ele>
        <time>2016-12-19T09:36:10Z</time>
      </trkpt>
      <trkpt lat="49.27223" lon="1.83806">
        <ele>104</ele>
        <time>2016-12-19T09:36:25Z</time>
      </trkpt>
      <trkpt lat="49.27224" lon="1.83797">
        <ele>101</ele>
        <time>2016-12-19T09:36:30Z</time>
      </trkpt>
      <trkpt lat="49.27222" lon="1.83783">
        <ele>100</ele>
        <time>2016-12-19T09:36:42Z</time>
      </trkpt>
      <trkpt lat="49.27221" lon="1.83774">
        <ele>98</ele>
        <time>2016-12-19T09:36:44Z</time>
      </trkpt>
      <trkpt lat="49.27216" lon="1.83765">
        <ele>96</ele>
        <time>2016-12-19T09:36:49Z</time>
      </trkpt>
      <trkpt lat="49.27223" lon="1.8376">
        <ele>92</ele>
        <time>2016-12-19T09:36:56Z</time>
      </trkpt>
      <trkpt lat="49.27221" lon="1.8375">
        <ele>85</ele>
        <time>2016-12-19T09:37:01Z</time>
      </trkpt>
      <trkpt lat="49.27222" lon="1.83738">
        <ele>88</ele>
        <time>2016-12-19T09:37:13Z</time>
      </trkpt>
      <trkpt lat="49.27226" lon="1.8373">
        <ele>86</ele>
        <time>2016-12-19T09:37:20Z</time>
      </trkpt>
      <trkpt lat="49.27223" lon="1.8368">
        <ele>87</ele>
        <time>2016-12-19T09:37:51Z</time>
      </trkpt>
      <trkpt lat="49.27227" lon="1.83668">
        <ele>88</ele>
        <time>2016-12-19T09:38:00Z</time>
      </trkpt>
      <trkpt lat="49.27229" lon="1.83634">
        <ele>90</ele>
        <time>2016-12-19T09:38:20Z</time>
      </trkpt>
      <trkpt lat="49.27231" lon="1.83622">
        <ele>93</ele>
        <time>2016-12-19T09:38:25Z</time>
      </trkpt>
      <trkpt lat="49.27228" lon="1.83587">
        <ele>94</ele>
        <time>2016-12-19T09:38:44Z</time>
      </trkpt>
      <trkpt lat="49.27235" lon="1.8355">
        <ele>89</ele>
        <time>2016-12-19T09:39:08Z</time>
      </trkpt>
      <trkpt lat="49.27247" lon="1.83533">
        <ele>90</ele>
        <time>2016-12-19T09:39:27Z</time>
      </trkpt>
      <trkpt lat="49.2725" lon="1.83523">
        <ele>93</ele>
        <time>2016-12-19T09:39:34Z</time>
      </trkpt>
      <trkpt lat="49.27248" lon="1.83515">
        <ele>94</ele>
        <time>2016-12-19T09:39:38Z</time>
      </trkpt>
      <trkpt lat="49.27247" lon="1.83495">
        <ele>100</ele>
        <time>2016-12-19T09:39:48Z</time>
      </trkpt>
      <trkpt lat="49.2725" lon="1.83484">
        <ele>100</ele>
        <time>2016-12-19T09:39:56Z</time>
      </trkpt>
      <trkpt lat="49.27252" lon="1.83473">
        <ele>102</ele>
        <time>2016-12-19T09:40:01Z</time>
      </trkpt>
      <trkpt lat="49.27253" lon="1.83466">
        <ele>103</ele>
        <time>2016-12-19T09:40:06Z</time>
      </trkpt>
      <trkpt lat="49.27253" lon="1.83462">
        <ele>104</ele>
        <time>2016-12-19T09:40:10Z</time>
      </trkpt>
      <trkpt lat="49.27254" lon="1.83456">
        <ele>103</ele>
        <time>2016-12-19T09:40:14Z</time>
      </trkpt>
      <trkpt lat="49.27254" lon="1.83442">
        <ele>102</ele>
        <time>2016-12-19T09:40:20Z</time>
      </trkpt>
      <trkpt lat="49.27256" lon="1.83439">
        <ele>102</ele>
        <time>2016-12-19T09:40:22Z</time>
      </trkpt>
      <trkpt lat="49.27256" lon="1.83431">
        <ele>102</ele>
        <time>2016-12-19T09:40:28Z</time>
      </trkpt>
      <trkpt lat="49.27262" lon="1.83425">
        <ele>99</ele>
        <time>2016-12-19T09:40:31Z</time>
      </trkpt>
      <trkpt lat="49.27265" lon="1.83405">
        <ele>100</ele>
        <time>2016-12-19T09:40:43Z</time>
      </trkpt>
      <trkpt lat="49.27264" lon="1.83397">
        <ele>101</ele>
        <time>2016-12-19T09:40:50Z</time>
      </trkpt>
      <trkpt lat="49.27263" lon="1.83389">
        <ele>102</ele>
        <time>2016-12-19T09:40:54Z</time>
      </trkpt>
      <trkpt lat="49.27265" lon="1.83384">
        <ele>105</ele>
        <time>2016-12-19T09:40:58Z</time>
      </trkpt>
      <trkpt lat="49.27263" lon="1.83378">
        <ele>105</ele>
        <time>2016-12-19T09:41:02Z</time>
      </trkpt>
      <trkpt lat="49.27262" lon="1.83363">
        <ele>106</ele>
        <time>2016-12-19T09:41:16Z</time>
      </trkpt>
      <trkpt lat="49.27258" lon="1.8335">
        <ele>107</ele>
        <time>2016-12-19T09:41:20Z</time>
      </trkpt>
      <trkpt lat="49.27255" lon="1.83328">
        <ele>107</ele>
        <time>2016-12-19T09:41:40Z</time>
      </trkpt>
      <trkpt lat="49.27253" lon="1.83316">
        <ele>106</ele>
        <time>2016-12-19T09:41:46Z</time>
      </trkpt>
      <trkpt lat="49.27257" lon="1.83309">
        <ele>106</ele>
        <time>2016-12-19T09:41:50Z</time>
      </trkpt>
      <trkpt lat="49.27256" lon="1.83303">
        <ele>107</ele>
        <time>2016-12-19T09:41:56Z</time>
      </trkpt>
      <trkpt lat="49.27258" lon="1.83296">
        <ele>108</ele>
        <time>2016-12-19T09:42:00Z</time>
      </trkpt>
      <trkpt lat="49.27256" lon="1.83289">
        <ele>108</ele>
        <time>2016-12-19T09:42:05Z</time>
      </trkpt>
      <trkpt lat="49.27256" lon="1.83253">
        <ele>110</ele>
        <time>2016-12-19T09:42:36Z</time>
      </trkpt>
      <trkpt lat="49.27257" lon="1.83249">
        <ele>110</ele>
        <time>2016-12-19T09:42:38Z</time>
      </trkpt>
      <trkpt lat="49.2726" lon="1.8323">
        <ele>109</ele>
        <time>2016-12-19T09:42:52Z</time>
      </trkpt>
      <trkpt lat="49.27264" lon="1.83224">
        <ele>110</ele>
        <time>2016-12-19T09:42:57Z</time>
      </trkpt>
      <trkpt lat="49.27266" lon="1.83218">
        <ele>111</ele>
        <time>2016-12-19T09:43:01Z</time>
      </trkpt>
      <trkpt lat="49.27265" lon="1.83207">
        <ele>110</ele>
        <time>2016-12-19T09:43:08Z</time>
      </trkpt>
      <trkpt lat="49.27265" lon="1.83201">
        <ele>111</ele>
        <time>2016-12-19T09:43:13Z</time>
      </trkpt>
      <trkpt lat="49.27263" lon="1.83195">
        <ele>111</ele>
        <time>2016-12-19T09:43:17Z</time>
      </trkpt>
      <trkpt lat="49.27265" lon="1.83189">
        <ele>110</ele>
        <time>2016-12-19T09:43:21Z</time>
      </trkpt>
      <trkpt lat="49.27268" lon="1.83175">
        <ele>111</ele>
        <time>2016-12-19T09:43:31Z</time>
      </trkpt>
      <trkpt lat="49.27271" lon="1.8317">
        <ele>111</ele>
        <time>2016-12-19T09:43:34Z</time>
      </trkpt>
      <trkpt lat="49.2727" lon="1.83162">
        <ele>115</ele>
        <time>2016-12-19T09:43:41Z</time>
      </trkpt>
      <trkpt lat="49.27274" lon="1.83149">
        <ele>118</ele>
        <time>2016-12-19T09:43:51Z</time>
      </trkpt>
      <trkpt lat="49.27274" lon="1.83144">
        <ele>118</ele>
        <time>2016-12-19T09:43:54Z</time>
      </trkpt>
      <trkpt lat="49.27281" lon="1.83135">
        <ele>118</ele>
        <time>2016-12-19T09:44:03Z</time>
      </trkpt>
      <trkpt lat="49.27286" lon="1.83126">
        <ele>116</ele>
        <time>2016-12-19T09:44:13Z</time>
      </trkpt>
      <trkpt lat="49.27289" lon="1.83119">
        <ele>116</ele>
        <time>2016-12-19T09:44:23Z</time>
      </trkpt>
      <trkpt lat="49.27291" lon="1.8311">
        <ele>117</ele>
        <time>2016-12-19T09:44:30Z</time>
      </trkpt>
      <trkpt lat="49.27296" lon="1.83095">
        <ele>118</ele>
        <time>2016-12-19T09:44:42Z</time>
      </trkpt>
      <trkpt lat="49.27301" lon="1.83091">
        <ele>119</ele>
        <time>2016-12-19T09:44:47Z</time>
      </trkpt>
      <trkpt lat="49.27302" lon="1.83082">
        <ele>121</ele>
        <time>2016-12-19T09:44:55Z</time>
      </trkpt>
      <trkpt lat="49.27306" lon="1.83076">
        <ele>124</ele>
        <time>2016-12-19T09:44:59Z</time>
      </trkpt>
      <trkpt lat="49.27313" lon="1.83055">
        <ele>132</ele>
        <time>2016-12-19T09:45:15Z</time>
      </trkpt>
      <trkpt lat="49.27314" lon="1.83035">
        <ele>128</ele>
        <time>2016-12-19T09:45:30Z</time>
      </trkpt>
      <trkpt lat="49.2731" lon="1.83026">
        <ele>129</ele>
        <time>2016-12-19T09:45:38Z</time>
      </trkpt>
      <trkpt lat="49.27299" lon="1.83019">
        <ele>130</ele>
        <time>2016-12-19T09:45:47Z</time>
      </trkpt>
      <trkpt lat="49.27293" lon="1.83022">
        <ele>128</ele>
        <time>2016-12-19T09:45:55Z</time>
      </trkpt>
      <trkpt lat="49.27286" lon="1.8302">
        <ele>127</ele>
        <time>2016-12-19T09:45:59Z</time>
      </trkpt>
      <trkpt lat="49.27275" lon="1.83024">
        <ele>129</ele>
        <time>2016-12-19T09:46:10Z</time>
      </trkpt>
      <trkpt lat="49.27269" lon="1.83032">
        <ele>129</ele>
        <time>2016-12-19T09:46:17Z</time>
      </trkpt>
      <trkpt lat="49.27262" lon="1.8303">
        <ele>130</ele>
        <time>2016-12-19T09:46:24Z</time>
      </trkpt>
      <trkpt lat="49.27252" lon="1.83036">
        <ele>134</ele>
        <time>2016-12-19T09:46:39Z</time>
      </trkpt>
      <trkpt lat="49.27232" lon="1.83021">
        <ele>135</ele>
        <time>2016-12-19T09:46:59Z</time>
      </trkpt>
      <trkpt lat="49.2722" lon="1.83011">
        <ele>135</ele>
        <time>2016-12-19T09:47:09Z</time>
      </trkpt>
      <trkpt lat="49.27216" lon="1.83006">
        <ele>137</ele>
        <time>2016-12-19T09:47:22Z</time>
      </trkpt>
      <trkpt lat="49.27212" lon="1.83002">
        <ele>140</ele>
        <time>2016-12-19T09:47:25Z</time>
      </trkpt>
      <trkpt lat="49.27206" lon="1.82997">
        <ele>140</ele>
        <time>2016-12-19T09:47:32Z</time>
      </trkpt>
      <trkpt lat="49.27201" lon="1.82991">
        <ele>140</ele>
        <time>2016-12-19T09:47:36Z</time>
      </trkpt>
      <trkpt lat="49.27194" lon="1.82989">
        <ele>139</ele>
        <time>2016-12-19T09:47:43Z</time>
      </trkpt>
      <trkpt lat="49.27186" lon="1.82985">
        <ele>140</ele>
        <time>2016-12-19T09:47:47Z</time>
      </trkpt>
      <trkpt lat="49.27182" lon="1.82984">
        <ele>142</ele>
        <time>2016-12-19T09:47:52Z</time>
      </trkpt>
      <trkpt lat="49.27178" lon="1.82979">
        <ele>145</ele>
        <time>2016-12-19T09:47:57Z</time>
      </trkpt>
      <trkpt lat="49.27177" lon="1.82972">
        <ele>148</ele>
        <time>2016-12-19T09:48:02Z</time>
      </trkpt>
      <trkpt lat="49.27173" lon="1.82965">
        <ele>148</ele>
        <time>2016-12-19T09:48:07Z</time>
      </trkpt>
      <trkpt lat="49.27143" lon="1.82945">
        <ele>148</ele>
        <time>2016-12-19T09:48:33Z</time>
      </trkpt>
      <trkpt lat="49.27138" lon="1.8294">
        <ele>151</ele>
        <time>2016-12-19T09:48:38Z</time>
      </trkpt>
      <trkpt lat="49.27131" lon="1.82937">
        <ele>151</ele>
        <time>2016-12-19T09:48:44Z</time>
      </trkpt>
      <trkpt lat="49.27121" lon="1.82933">
        <ele>147</ele>
        <time>2016-12-19T09:48:53Z</time>
      </trkpt>
      <trkpt lat="49.27115" lon="1.82919">
        <ele>144</ele>
        <time>2016-12-19T09:49:00Z</time>
      </trkpt>
      <trkpt lat="49.27101" lon="1.82905">
        <ele>141</ele>
        <time>2016-12-19T09:49:16Z</time>
      </trkpt>
      <trkpt lat="49.27097" lon="1.82902">
        <ele>141</ele>
        <time>2016-12-19T09:49:20Z</time>
      </trkpt>
      <trkpt lat="49.27088" lon="1.82905">
        <ele>143</ele>
        <time>2016-12-19T09:49:28Z</time>
      </trkpt>
      <trkpt lat="49.27082" lon="1.829">
        <ele>141</ele>
        <time>2016-12-19T09:49:31Z</time>
      </trkpt>
      <trkpt lat="49.27074" lon="1.82892">
        <ele>140</ele>
        <time>2016-12-19T09:49:42Z</time>
      </trkpt>
      <trkpt lat="49.2707" lon="1.82881">
        <ele>150</ele>
        <time>2016-12-19T09:49:46Z</time>
      </trkpt>
      <trkpt lat="49.27066" lon="1.82875">
        <ele>153</ele>
        <time>2016-12-19T09:49:58Z</time>
      </trkpt>
      <trkpt lat="49.27061" lon="1.82868">
        <ele>151</ele>
        <time>2016-12-19T09:50:07Z</time>
      </trkpt>
      <trkpt lat="49.27053" lon="1.82864">
        <ele>150</ele>
        <time>2016-12-19T09:50:13Z</time>
      </trkpt>
      <trkpt lat="49.27049" lon="1.82854">
        <ele>144</ele>
        <time>2016-12-19T09:50:17Z</time>
      </trkpt>
      <trkpt lat="49.27042" lon="1.82852">
        <ele>144</ele>
        <time>2016-12-19T09:50:25Z</time>
      </trkpt>
      <trkpt lat="49.27035" lon="1.82849">
        <ele>141</ele>
        <time>2016-12-19T09:50:34Z</time>
      </trkpt>
      <trkpt lat="49.27025" lon="1.82832">
        <ele>141</ele>
        <time>2016-12-19T09:50:45Z</time>
      </trkpt>
      <trkpt lat="49.27011" lon="1.82826">
        <ele>144</ele>
        <time>2016-12-19T09:50:51Z</time>
      </trkpt>
      <trkpt lat="49.27008" lon="1.82821">
        <ele>147</ele>
        <time>2016-12-19T09:50:54Z</time>
      </trkpt>
      <trkpt lat="49.27002" lon="1.82818">
        <ele>147</ele>
        <time>2016-12-19T09:50:59Z</time>
      </trkpt>
      <trkpt lat="49.27005" lon="1.82809">
        <ele>152</ele>
        <time>2016-12-19T09:51:08Z</time>
      </trkpt>
      <trkpt lat="49.27007" lon="1.82801">
        <ele>153</ele>
        <time>2016-12-19T09:51:11Z</time>
      </trkpt>
      <trkpt lat="49.27013" lon="1.82785">
        <ele>150</ele>
        <time>2016-12-19T09:51:29Z</time>
      </trkpt>
      <trkpt lat="49.27015" lon="1.82777">
        <ele>146</ele>
        <time>2016-12-19T09:51:32Z</time>
      </trkpt>
      <trkpt lat="49.27018" lon="1.82758">
        <ele>146</ele>
        <time>2016-12-19T09:51:44Z</time>
      </trkpt>
      <trkpt lat="49.27023" lon="1.8275">
        <ele>147</ele>
        <time>2016-12-19T09:51:48Z</time>
      </trkpt>
      <trkpt lat="49.27029" lon="1.82753">
        <ele>147</ele>
        <time>2016-12-19T09:51:49Z</time>
      </trkpt>
      <trkpt lat="49.27031" lon="1.82746">
        <ele>146</ele>
        <time>2016-12-19T09:51:54Z</time>
      </trkpt>
      <trkpt lat="49.2703" lon="1.82732">
        <ele>144</ele>
        <time>2016-12-19T09:52:04Z</time>
      </trkpt>
      <trkpt lat="49.27032" lon="1.8272">
        <ele>142</ele>
        <time>2016-12-19T09:52:07Z</time>
      </trkpt>
      <trkpt lat="49.27037" lon="1.82716">
        <ele>142</ele>
        <time>2016-12-19T09:52:10Z</time>
      </trkpt>
      <trkpt lat="49.27042" lon="1.82714">
        <ele>141</ele>
        <time>2016-12-19T09:52:19Z</time>
      </trkpt>
      <trkpt lat="49.27038" lon="1.82705">
        <ele>142</ele>
        <time>2016-12-19T09:52:21Z</time>
      </trkpt>
      <trkpt lat="49.27042" lon="1.8268">
        <ele>143</ele>
        <time>2016-12-19T09:52:27Z</time>
      </trkpt>
      <trkpt lat="49.27045" lon="1.82676">
        <ele>143</ele>
        <time>2016-12-19T09:52:30Z</time>
      </trkpt>
      <trkpt lat="49.27048" lon="1.82673">
        <ele>140</ele>
        <time>2016-12-19T09:52:36Z</time>
      </trkpt>
      <trkpt lat="49.27054" lon="1.82672">
        <ele>141</ele>
        <time>2016-12-19T09:52:45Z</time>
      </trkpt>
      <trkpt lat="49.27059" lon="1.82665">
        <ele>141</ele>
        <time>2016-12-19T09:52:54Z</time>
      </trkpt>
      <trkpt lat="49.27067" lon="1.82663">
        <ele>144</ele>
        <time>2016-12-19T09:52:59Z</time>
      </trkpt>
      <trkpt lat="49.2707" lon="1.82655">
        <ele>144</ele>
        <time>2016-12-19T09:53:03Z</time>
      </trkpt>
      <trkpt lat="49.2707" lon="1.82645">
        <ele>143</ele>
        <time>2016-12-19T09:53:07Z</time>
      </trkpt>
      <trkpt lat="49.27075" lon="1.82639">
        <ele>142</ele>
        <time>2016-12-19T09:53:13Z</time>
      </trkpt>
      <trkpt lat="49.27079" lon="1.82622">
        <ele>141</ele>
        <time>2016-12-19T09:53:23Z</time>
      </trkpt>
      <trkpt lat="49.27082" lon="1.82615">
        <ele>143</ele>
        <time>2016-12-19T09:53:27Z</time>
      </trkpt>
      <trkpt lat="49.27083" lon="1.82604">
        <ele>144</ele>
        <time>2016-12-19T09:53:31Z</time>
      </trkpt>
      <trkpt lat="49.2709" lon="1.82597">
        <ele>148</ele>
        <time>2016-12-19T09:53:38Z</time>
      </trkpt>
      <trkpt lat="49.27096" lon="1.82581">
        <ele>148</ele>
        <time>2016-12-19T09:53:53Z</time>
      </trkpt>
      <trkpt lat="49.27115" lon="1.82552">
        <ele>147</ele>
        <time>2016-12-19T09:54:08Z</time>
      </trkpt>
      <trkpt lat="49.27129" lon="1.82539">
        <ele>145</ele>
        <time>2016-12-19T09:54:21Z</time>
      </trkpt>
      <trkpt lat="49.27135" lon="1.8252">
        <ele>153</ele>
        <time>2016-12-19T09:54:32Z</time>
      </trkpt>
      <trkpt lat="49.27139" lon="1.82517">
        <ele>152</ele>
        <time>2016-12-19T09:54:35Z</time>
      </trkpt>
      <trkpt lat="49.27143" lon="1.82502">
        <ele>151</ele>
        <time>2016-12-19T09:54:46Z</time>
      </trkpt>
      <trkpt lat="49.27147" lon="1.82498">
        <ele>148</ele>
        <time>2016-12-19T09:54:51Z</time>
      </trkpt>
      <trkpt lat="49.27148" lon="1.8249">
        <ele>146</ele>
        <time>2016-12-19T09:54:57Z</time>
      </trkpt>
      <trkpt lat="49.27152" lon="1.82487">
        <ele>145</ele>
        <time>2016-12-19T09:55:00Z</time>
      </trkpt>
      <trkpt lat="49.27153" lon="1.8248">
        <ele>146</ele>
        <time>2016-12-19T09:55:03Z</time>
      </trkpt>
      <trkpt lat="49.27154" lon="1.82463">
        <ele>145</ele>
        <time>2016-12-19T09:55:12Z</time>
      </trkpt>
      <trkpt lat="49.27158" lon="1.82457">
        <ele>145</ele>
        <time>2016-12-19T09:55:16Z</time>
      </trkpt>
      <trkpt lat="49.27166" lon="1.82455">
        <ele>147</ele>
        <time>2016-12-19T09:55:20Z</time>
      </trkpt>
      <trkpt lat="49.27169" lon="1.82447">
        <ele>145</ele>
        <time>2016-12-19T09:55:25Z</time>
      </trkpt>
      <trkpt lat="49.27168" lon="1.8244">
        <ele>143</ele>
        <time>2016-12-19T09:55:53Z</time>
      </trkpt>
      <trkpt lat="49.27161" lon="1.82438">
        <ele>142</ele>
        <time>2016-12-19T09:55:59Z</time>
      </trkpt>
      <trkpt lat="49.27153" lon="1.82419">
        <ele>141</ele>
        <time>2016-12-19T09:56:16Z</time>
      </trkpt>
      <trkpt lat="49.27151" lon="1.82411">
        <ele>141</ele>
        <time>2016-12-19T09:56:19Z</time>
      </trkpt>
      <trkpt lat="49.27146" lon="1.82407">
        <ele>138</ele>
        <time>2016-12-19T09:56:29Z</time>
      </trkpt>
      <trkpt lat="49.27141" lon="1.82405">
        <ele>137</ele>
        <time>2016-12-19T09:56:36Z</time>
      </trkpt>
      <trkpt lat="49.27136" lon="1.82395">
        <ele>137</ele>
        <time>2016-12-19T09:56:47Z</time>
      </trkpt>
      <trkpt lat="49.27135" lon="1.82387">
        <ele>137</ele>
        <time>2016-12-19T09:56:52Z</time>
      </trkpt>
      <trkpt lat="49.2713" lon="1.82385">
        <ele>137</ele>
        <time>2016-12-19T09:56:59Z</time>
      </trkpt>
      <trkpt lat="49.27126" lon="1.82389">
        <ele>135</ele>
        <time>2016-12-19T09:57:06Z</time>
      </trkpt>
      <trkpt lat="49.27123" lon="1.82392">
        <ele>134</ele>
        <time>2016-12-19T09:57:17Z</time>
      </trkpt>
      <trkpt lat="49.27119" lon="1.82389">
        <ele>135</ele>
        <time>2016-12-19T09:57:22Z</time>
      </trkpt>
      <trkpt lat="49.2712" lon="1.82384">
        <ele>135</ele>
        <time>2016-12-19T09:58:01Z</time>
      </trkpt>
      <trkpt lat="49.27123" lon="1.82377">
        <ele>135</ele>
        <time>2016-12-19T09:58:07Z</time>
      </trkpt>
      <trkpt lat="49.27139" lon="1.82365">
        <ele>134</ele>
        <time>2016-12-19T09:58:19Z</time>
      </trkpt>
      <trkpt lat="49.27133" lon="1.82355">
        <ele>136</ele>
        <time>2016-12-19T09:58:24Z</time>
      </trkpt>
      <trkpt lat="49.27137" lon="1.8235">
        <ele>134</ele>
        <time>2016-12-19T09:58:32Z</time>
      </trkpt>
      <trkpt lat="49.27146" lon="1.82301">
        <ele>127</ele>
        <time>2016-12-19T09:59:01Z</time>
      </trkpt>
      <trkpt lat="49.27144" lon="1.82294">
        <ele>127</ele>
        <time>2016-12-19T09:59:06Z</time>
      </trkpt>
      <trkpt lat="49.27151" lon="1.82279">
        <ele>128</ele>
        <time>2016-12-19T09:59:14Z</time>
      </trkpt>
      <trkpt lat="49.2715" lon="1.82273">
        <ele>127</ele>
        <time>2016-12-19T09:59:18Z</time>
      </trkpt>
      <trkpt lat="49.27153" lon="1.82265">
        <ele>126</ele>
        <time>2016-12-19T09:59:24Z</time>
      </trkpt>
      <trkpt lat="49.27159" lon="1.82254">
        <ele>129</ele>
        <time>2016-12-19T09:59:27Z</time>
      </trkpt>
      <trkpt lat="49.2716" lon="1.82248">
        <ele>130</ele>
        <time>2016-12-19T09:59:29Z</time>
      </trkpt>
      <trkpt lat="49.27164" lon="1.82239">
        <ele>131</ele>
        <time>2016-12-19T09:59:32Z</time>
      </trkpt>
      <trkpt lat="49.27163" lon="1.82234">
        <ele>131</ele>
        <time>2016-12-19T09:59:34Z</time>
      </trkpt>
      <trkpt lat="49.27159" lon="1.82228">
        <ele>129</ele>
        <time>2016-12-19T09:59:43Z</time>
      </trkpt>
      <trkpt lat="49.27164" lon="1.8222">
        <ele>130</ele>
        <time>2016-12-19T09:59:48Z</time>
      </trkpt>
      <trkpt lat="49.27163" lon="1.82209">
        <ele>129</ele>
        <time>2016-12-19T09:59:54Z</time>
      </trkpt>
      <trkpt lat="49.27165" lon="1.8219">
        <ele>130</ele>
        <time>2016-12-19T10:00:03Z</time>
      </trkpt>
      <trkpt lat="49.27163" lon="1.82181">
        <ele>131</ele>
        <time>2016-12-19T10:00:10Z</time>
      </trkpt>
      <trkpt lat="49.27161" lon="1.82165">
        <ele>133</ele>
        <time>2016-12-19T10:00:18Z</time>
      </trkpt>
      <trkpt lat="49.27162" lon="1.8216">
        <ele>134</ele>
        <time>2016-12-19T10:00:22Z</time>
      </trkpt>
      <trkpt lat="49.27167" lon="1.82159">
        <ele>133</ele>
        <time>2016-12-19T10:00:24Z</time>
      </trkpt>
      <trkpt lat="49.27165" lon="1.82155">
        <ele>133</ele>
        <time>2016-12-19T10:00:26Z</time>
      </trkpt>
      <trkpt lat="49.27161" lon="1.82147">
        <ele>134</ele>
        <time>2016-12-19T10:00:30Z</time>
      </trkpt>
      <trkpt lat="49.27162" lon="1.82128">
        <ele>134</ele>
        <time>2016-12-19T10:00:42Z</time>
      </trkpt>
      <trkpt lat="49.27161" lon="1.82123">
        <ele>131</ele>
        <time>2016-12-19T10:00:45Z</time>
      </trkpt>
      <trkpt lat="49.27163" lon="1.82119">
        <ele>131</ele>
        <time>2016-12-19T10:00:48Z</time>
      </trkpt>
      <trkpt lat="49.27162" lon="1.82114">
        <ele>131</ele>
        <time>2016-12-19T10:00:50Z</time>
      </trkpt>
      <trkpt lat="49.27163" lon="1.82111">
        <ele>132</ele>
        <time>2016-12-19T10:00:52Z</time>
      </trkpt>
      <trkpt lat="49.27166" lon="1.82085">
        <ele>132</ele>
        <time>2016-12-19T10:01:06Z</time>
      </trkpt>
      <trkpt lat="49.27164" lon="1.82076">
        <ele>131</ele>
        <time>2016-12-19T10:01:10Z</time>
      </trkpt>
      <trkpt lat="49.27166" lon="1.82072">
        <ele>131</ele>
        <time>2016-12-19T10:01:13Z</time>
      </trkpt>
      <trkpt lat="49.27165" lon="1.8206">
        <ele>132</ele>
        <time>2016-12-19T10:01:19Z</time>
      </trkpt>
      <trkpt lat="49.27168" lon="1.82048">
        <ele>134</ele>
        <time>2016-12-19T10:01:27Z</time>
      </trkpt>
      <trkpt lat="49.27172" lon="1.82038">
        <ele>134</ele>
        <time>2016-12-19T10:01:31Z</time>
      </trkpt>
      <trkpt lat="49.2717" lon="1.82035">
        <ele>134</ele>
        <time>2016-12-19T10:01:34Z</time>
      </trkpt>
      <trkpt lat="49.2717" lon="1.8203">
        <ele>133</ele>
        <time>2016-12-19T10:01:36Z</time>
      </trkpt>
      <trkpt lat="49.27171" lon="1.82024">
        <ele>132</ele>
        <time>2016-12-19T10:01:39Z</time>
      </trkpt>
      <trkpt lat="49.27173" lon="1.82021">
        <ele>130</ele>
        <time>2016-12-19T10:01:41Z</time>
      </trkpt>
      <trkpt lat="49.27174" lon="1.82016">
        <ele>131</ele>
        <time>2016-12-19T10:01:44Z</time>
      </trkpt>
      <trkpt lat="49.27173" lon="1.82004">
        <ele>134</ele>
        <time>2016-12-19T10:01:50Z</time>
      </trkpt>
      <trkpt lat="49.27171" lon="1.82">
        <ele>132</ele>
        <time>2016-12-19T10:01:53Z</time>
      </trkpt>
      <trkpt lat="49.27173" lon="1.81998">
        <ele>133</ele>
        <time>2016-12-19T10:01:54Z</time>
      </trkpt>
      <trkpt lat="49.27176" lon="1.81986">
        <ele>134</ele>
        <time>2016-12-19T10:02:00Z</time>
      </trkpt>
      <trkpt lat="49.27174" lon="1.8198">
        <ele>133</ele>
        <time>2016-12-19T10:02:04Z</time>
      </trkpt>
      <trkpt lat="49.27173" lon="1.81965">
        <ele>131</ele>
        <time>2016-12-19T10:02:12Z</time>
      </trkpt>
      <trkpt lat="49.27177" lon="1.81953">
        <ele>130</ele>
        <time>2016-12-19T10:02:17Z</time>
      </trkpt>
      <trkpt lat="49.27174" lon="1.81951">
        <ele>129</ele>
        <time>2016-12-19T10:02:20Z</time>
      </trkpt>
      <trkpt lat="49.27173" lon="1.81942">
        <ele>127</ele>
        <time>2016-12-19T10:02:24Z</time>
      </trkpt>
      <trkpt lat="49.27175" lon="1.81936">
        <ele>128</ele>
        <time>2016-12-19T10:02:28Z</time>
      </trkpt>
      <trkpt lat="49.27175" lon="1.81932">
        <ele>128</ele>
        <time>2016-12-19T10:02:30Z</time>
      </trkpt>
      <trkpt lat="49.27176" lon="1.81926">
        <ele>130</ele>
        <time>2016-12-19T10:02:34Z</time>
      </trkpt>
      <trkpt lat="49.27174" lon="1.81923">
        <ele>130</ele>
        <time>2016-12-19T10:02:37Z</time>
      </trkpt>
      <trkpt lat="49.27175" lon="1.81918">
        <ele>131</ele>
        <time>2016-12-19T10:02:38Z</time>
      </trkpt>
      <trkpt lat="49.27178" lon="1.81909">
        <ele>131</ele>
        <time>2016-12-19T10:02:44Z</time>
      </trkpt>
      <trkpt lat="49.27178" lon="1.81897">
        <ele>133</ele>
        <time>2016-12-19T10:02:50Z</time>
      </trkpt>
      <trkpt lat="49.27176" lon="1.81893">
        <ele>133</ele>
        <time>2016-12-19T10:02:53Z</time>
      </trkpt>
      <trkpt lat="49.27179" lon="1.81881">
        <ele>135</ele>
        <time>2016-12-19T10:02:57Z</time>
      </trkpt>
      <trkpt lat="49.2718" lon="1.81873">
        <ele>134</ele>
        <time>2016-12-19T10:02:58Z</time>
      </trkpt>
      <trkpt lat="49.2718" lon="1.81869">
        <ele>134</ele>
        <time>2016-12-19T10:03:02Z</time>
      </trkpt>
      <trkpt lat="49.27178" lon="1.81865">
        <ele>135</ele>
        <time>2016-12-19T10:03:05Z</time>
      </trkpt>
      <trkpt lat="49.27176" lon="1.81865">
        <ele>133</ele>
        <time>2016-12-19T10:03:10Z</time>
      </trkpt>
      <trkpt lat="49.27175" lon="1.81861">
        <ele>133</ele>
        <time>2016-12-19T10:03:11Z</time>
      </trkpt>
      <trkpt lat="49.27177" lon="1.81858">
        <ele>133</ele>
        <time>2016-12-19T10:03:15Z</time>
      </trkpt>
      <trkpt lat="49.27182" lon="1.81852">
        <ele>134</ele>
        <time>2016-12-19T10:03:18Z</time>
      </trkpt>
      <trkpt lat="49.27182" lon="1.81846">
        <ele>134</ele>
        <time>2016-12-19T10:03:20Z</time>
      </trkpt>
      <trkpt lat="49.27184" lon="1.81843">
        <ele>134</ele>
        <time>2016-12-19T10:03:21Z</time>
      </trkpt>
      <trkpt lat="49.27181" lon="1.8184">
        <ele>133</ele>
        <time>2016-12-19T10:03:25Z</time>
      </trkpt>
      <trkpt lat="49.27183" lon="1.81829">
        <ele>131</ele>
        <time>2016-12-19T10:03:32Z</time>
      </trkpt>
      <trkpt lat="49.27185" lon="1.81824">
        <ele>131</ele>
        <time>2016-12-19T10:03:33Z</time>
      </trkpt>
      <trkpt lat="49.27184" lon="1.81812">
        <ele>133</ele>
        <time>2016-12-19T10:03:37Z</time>
      </trkpt>
      <trkpt lat="49.27186" lon="1.81801">
        <ele>133</ele>
        <time>2016-12-19T10:03:46Z</time>
      </trkpt>
      <trkpt lat="49.2719" lon="1.81791">
        <ele>133</ele>
        <time>2016-12-19T10:03:51Z</time>
      </trkpt>
      <trkpt lat="49.27189" lon="1.81781">
        <ele>134</ele>
        <time>2016-12-19T10:03:56Z</time>
      </trkpt>
      <trkpt lat="49.27192" lon="1.8177">
        <ele>132</ele>
        <time>2016-12-19T10:04:03Z</time>
      </trkpt>
      <trkpt lat="49.27189" lon="1.81764">
        <ele>131</ele>
        <time>2016-12-19T10:04:06Z</time>
      </trkpt>
      <trkpt lat="49.27185" lon="1.81761">
        <ele>131</ele>
        <time>2016-12-19T10:04:09Z</time>
      </trkpt>
      <trkpt lat="49.27183" lon="1.81766">
        <ele>131</ele>
        <time>2016-12-19T10:04:10Z</time>
      </trkpt>
      <trkpt lat="49.27182" lon="1.8176">
        <ele>132</ele>
        <time>2016-12-19T10:04:18Z</time>
      </trkpt>
      <trkpt lat="49.27182" lon="1.81755">
        <ele>131</ele>
        <time>2016-12-19T10:04:23Z</time>
      </trkpt>
      <trkpt lat="49.2717" lon="1.81735">
        <ele>136</ele>
        <time>2016-12-19T10:04:35Z</time>
      </trkpt>
      <trkpt lat="49.27163" lon="1.81731">
        <ele>136</ele>
        <time>2016-12-19T10:04:43Z</time>
      </trkpt>
      <trkpt lat="49.2716" lon="1.81729">
        <ele>136</ele>
        <time>2016-12-19T10:04:45Z</time>
      </trkpt>
      <trkpt lat="49.27155" lon="1.81722">
        <ele>135</ele>
        <time>2016-12-19T10:04:50Z</time>
      </trkpt>
      <trkpt lat="49.27151" lon="1.81722">
        <ele>136</ele>
        <time>2016-12-19T10:04:54Z</time>
      </trkpt>
      <trkpt lat="49.27148" lon="1.81716">
        <ele>136</ele>
        <time>2016-12-19T10:04:55Z</time>
      </trkpt>
      <trkpt lat="49.27139" lon="1.8171">
        <ele>139</ele>
        <time>2016-12-19T10:05:00Z</time>
      </trkpt>
      <trkpt lat="49.27135" lon="1.8171">
        <ele>139</ele>
        <time>2016-12-19T10:05:03Z</time>
      </trkpt>
      <trkpt lat="49.27132" lon="1.81706">
        <ele>139</ele>
        <time>2016-12-19T10:05:05Z</time>
      </trkpt>
      <trkpt lat="49.27131" lon="1.81702">
        <ele>138</ele>
        <time>2016-12-19T10:05:09Z</time>
      </trkpt>
      <trkpt lat="49.27128" lon="1.817">
        <ele>137</ele>
        <time>2016-12-19T10:05:12Z</time>
      </trkpt>
      <trkpt lat="49.27126" lon="1.81697">
        <ele>134</ele>
        <time>2016-12-19T10:05:15Z</time>
      </trkpt>
      <trkpt lat="49.27115" lon="1.81694">
        <ele>132</ele>
        <time>2016-12-19T10:05:27Z</time>
      </trkpt>
      <trkpt lat="49.27112" lon="1.8169">
        <ele>132</ele>
        <time>2016-12-19T10:05:32Z</time>
      </trkpt>
      <trkpt lat="49.2711" lon="1.81693">
        <ele>132</ele>
        <time>2016-12-19T10:05:33Z</time>
      </trkpt>
      <trkpt lat="49.27108" lon="1.81689">
        <ele>132</ele>
        <time>2016-12-19T10:05:35Z</time>
      </trkpt>
      <trkpt lat="49.27105" lon="1.81688">
        <ele>132</ele>
        <time>2016-12-19T10:05:38Z</time>
      </trkpt>
      <trkpt lat="49.27103" lon="1.81685">
        <ele>134</ele>
        <time>2016-12-19T10:05:42Z</time>
      </trkpt>
      <trkpt lat="49.27101" lon="1.8168">
        <ele>135</ele>
        <time>2016-12-19T10:05:45Z</time>
      </trkpt>
      <trkpt lat="49.27097" lon="1.81681">
        <ele>135</ele>
        <time>2016-12-19T10:05:47Z</time>
      </trkpt>
      <trkpt lat="49.27094" lon="1.81681">
        <ele>135</ele>
        <time>2016-12-19T10:05:50Z</time>
      </trkpt>
      <trkpt lat="49.27088" lon="1.81677">
        <ele>134</ele>
        <time>2016-12-19T10:05:57Z</time>
      </trkpt>
      <trkpt lat="49.27085" lon="1.81674">
        <ele>135</ele>
        <time>2016-12-19T10:06:00Z</time>
      </trkpt>
      <trkpt lat="49.27082" lon="1.81675">
        <ele>135</ele>
        <time>2016-12-19T10:06:01Z</time>
      </trkpt>
      <trkpt lat="49.27073" lon="1.81672">
        <ele>134</ele>
        <time>2016-12-19T10:06:10Z</time>
      </trkpt>
      <trkpt lat="49.27071" lon="1.81669">
        <ele>133</ele>
        <time>2016-12-19T10:06:11Z</time>
      </trkpt>
      <trkpt lat="49.27071" lon="1.81664">
        <ele>134</ele>
        <time>2016-12-19T10:06:12Z</time>
      </trkpt>
      <trkpt lat="49.27067" lon="1.81661">
        <ele>135</ele>
        <time>2016-12-19T10:06:15Z</time>
      </trkpt>
      <trkpt lat="49.27065" lon="1.81661">
        <ele>134</ele>
        <time>2016-12-19T10:06:18Z</time>
      </trkpt>
      <trkpt lat="49.27062" lon="1.81657">
        <ele>135</ele>
        <time>2016-12-19T10:06:23Z</time>
      </trkpt>
      <trkpt lat="49.27056" lon="1.81654">
        <ele>134</ele>
        <time>2016-12-19T10:06:29Z</time>
      </trkpt>
      <trkpt lat="49.27053" lon="1.81654">
        <ele>133</ele>
        <time>2016-12-19T10:06:32Z</time>
      </trkpt>
      <trkpt lat="49.27048" lon="1.81651">
        <ele>132</ele>
        <time>2016-12-19T10:06:38Z</time>
      </trkpt>
      <trkpt lat="49.27045" lon="1.81653">
        <ele>132</ele>
        <time>2016-12-19T10:06:40Z</time>
      </trkpt>
      <trkpt lat="49.27042" lon="1.8165">
        <ele>132</ele>
        <time>2016-12-19T10:06:43Z</time>
      </trkpt>
      <trkpt lat="49.2704" lon="1.81646">
        <ele>132</ele>
        <time>2016-12-19T10:06:45Z</time>
      </trkpt>
      <trkpt lat="49.27036" lon="1.81644">
        <ele>132</ele>
        <time>2016-12-19T10:06:47Z</time>
      </trkpt>
      <trkpt lat="49.27034" lon="1.81642">
        <ele>134</ele>
        <time>2016-12-19T10:06:49Z</time>
      </trkpt>
      <trkpt lat="49.27031" lon="1.81646">
        <ele>134</ele>
        <time>2016-12-19T10:06:52Z</time>
      </trkpt>
      <trkpt lat="49.27026" lon="1.81642">
        <ele>133</ele>
        <time>2016-12-19T10:06:55Z</time>
      </trkpt>
      <trkpt lat="49.2702" lon="1.8163">
        <ele>127</ele>
        <time>2016-12-19T10:07:02Z</time>
      </trkpt>
      <trkpt lat="49.27016" lon="1.81627">
        <ele>127</ele>
        <time>2016-12-19T10:07:05Z</time>
      </trkpt>
      <trkpt lat="49.27012" lon="1.81625">
        <ele>127</ele>
        <time>2016-12-19T10:07:11Z</time>
      </trkpt>
      <trkpt lat="49.27014" lon="1.81618">
        <ele>130</ele>
        <time>2016-12-19T10:07:39Z</time>
      </trkpt>
      <trkpt lat="49.27013" lon="1.81622">
        <ele>128</ele>
        <time>2016-12-19T10:07:55Z</time>
      </trkpt>
      <trkpt lat="49.27009" lon="1.81623">
        <ele>128</ele>
        <time>2016-12-19T10:08:16Z</time>
      </trkpt>
      <trkpt lat="49.27002" lon="1.81621">
        <ele>127</ele>
        <time>2016-12-19T10:08:25Z</time>
      </trkpt>
      <trkpt lat="49.26988" lon="1.81619">
        <ele>126</ele>
        <time>2016-12-19T10:08:37Z</time>
      </trkpt>
      <trkpt lat="49.26977" lon="1.81621">
        <ele>125</ele>
        <time>2016-12-19T10:08:45Z</time>
      </trkpt>
      <trkpt lat="49.26972" lon="1.81617">
        <ele>125</ele>
        <time>2016-12-19T10:08:50Z</time>
      </trkpt>
      <trkpt lat="49.26967" lon="1.81618">
        <ele>125</ele>
        <time>2016-12-19T10:08:52Z</time>
      </trkpt>
      <trkpt lat="49.2696" lon="1.81622">
        <ele>128</ele>
        <time>2016-12-19T10:08:54Z</time>
      </trkpt>
      <trkpt lat="49.26957" lon="1.81615">
        <ele>130</ele>
        <time>2016-12-19T10:08:57Z</time>
      </trkpt>
      <trkpt lat="49.26951" lon="1.81615">
        <ele>129</ele>
        <time>2016-12-19T10:09:00Z</time>
      </trkpt>
      <trkpt lat="49.2693" lon="1.81613">
        <ele>128</ele>
        <time>2016-12-19T10:09:16Z</time>
      </trkpt>
      <trkpt lat="49.26881" lon="1.81626">
        <ele>125</ele>
        <time>2016-12-19T10:09:46Z</time>
      </trkpt>
      <trkpt lat="49.26838" lon="1.81626">
        <ele>121</ele>
        <time>2016-12-19T10:10:11Z</time>
      </trkpt>
      <trkpt lat="49.26834" lon="1.81623">
        <ele>121</ele>
        <time>2016-12-19T10:10:14Z</time>
      </trkpt>
      <trkpt lat="49.26833" lon="1.8162">
        <ele>120</ele>
        <time>2016-12-19T10:10:16Z</time>
      </trkpt>
      <trkpt lat="49.26807" lon="1.81594">
        <ele>119</ele>
        <time>2016-12-19T10:10:39Z</time>
      </trkpt>
      <trkpt lat="49.26803" lon="1.81595">
        <ele>117</ele>
        <time>2016-12-19T10:10:43Z</time>
      </trkpt>
      <trkpt lat="49.26798" lon="1.81589">
        <ele>116</ele>
        <time>2016-12-19T10:10:48Z</time>
      </trkpt>
      <trkpt lat="49.26794" lon="1.81581">
        <ele>117</ele>
        <time>2016-12-19T10:10:52Z</time>
      </trkpt>
      <trkpt lat="49.26789" lon="1.81576">
        <ele>117</ele>
        <time>2016-12-19T10:10:56Z</time>
      </trkpt>
      <trkpt lat="49.26784" lon="1.81576">
        <ele>117</ele>
        <time>2016-12-19T10:10:58Z</time>
      </trkpt>
      <trkpt lat="49.2678" lon="1.81578">
        <ele>117</ele>
        <time>2016-12-19T10:11:01Z</time>
      </trkpt>
      <trkpt lat="49.26763" lon="1.81566">
        <ele>116</ele>
        <time>2016-12-19T10:11:13Z</time>
      </trkpt>
      <trkpt lat="49.26758" lon="1.81562">
        <ele>115</ele>
        <time>2016-12-19T10:11:19Z</time>
      </trkpt>
      <trkpt lat="49.26749" lon="1.81559">
        <ele>111</ele>
        <time>2016-12-19T10:11:28Z</time>
      </trkpt>
      <trkpt lat="49.26743" lon="1.81561">
        <ele>109</ele>
        <time>2016-12-19T10:11:31Z</time>
      </trkpt>
      <trkpt lat="49.2674" lon="1.81567">
        <ele>108</ele>
        <time>2016-12-19T10:11:34Z</time>
      </trkpt>
      <trkpt lat="49.26735" lon="1.81563">
        <ele>108</ele>
        <time>2016-12-19T10:11:39Z</time>
      </trkpt>
      <trkpt lat="49.26734" lon="1.81557">
        <ele>108</ele>
        <time>2016-12-19T10:11:43Z</time>
      </trkpt>
      <trkpt lat="49.26735" lon="1.81551">
        <ele>107</ele>
        <time>2016-12-19T10:11:46Z</time>
      </trkpt>
      <trkpt lat="49.26731" lon="1.81548">
        <ele>107</ele>
        <time>2016-12-19T10:11:49Z</time>
      </trkpt>
      <trkpt lat="49.26725" lon="1.81546">
        <ele>107</ele>
        <time>2016-12-19T10:11:53Z</time>
      </trkpt>
      <trkpt lat="49.26718" lon="1.81547">
        <ele>106</ele>
        <time>2016-12-19T10:11:57Z</time>
      </trkpt>
      <trkpt lat="49.26714" lon="1.81544">
        <ele>105</ele>
        <time>2016-12-19T10:12:01Z</time>
      </trkpt>
      <trkpt lat="49.26709" lon="1.81546">
        <ele>105</ele>
        <time>2016-12-19T10:12:03Z</time>
      </trkpt>
      <trkpt lat="49.26706" lon="1.81543">
        <ele>105</ele>
        <time>2016-12-19T10:12:06Z</time>
      </trkpt>
      <trkpt lat="49.26703" lon="1.81541">
        <ele>106</ele>
        <time>2016-12-19T10:12:10Z</time>
      </trkpt>
      <trkpt lat="49.267" lon="1.81536">
        <ele>104</ele>
        <time>2016-12-19T10:12:15Z</time>
      </trkpt>
      <trkpt lat="49.26695" lon="1.81539">
        <ele>104</ele>
        <time>2016-12-19T10:12:17Z</time>
      </trkpt>
      <trkpt lat="49.26688" lon="1.81534">
        <ele>100</ele>
        <time>2016-12-19T10:12:23Z</time>
      </trkpt>
      <trkpt lat="49.26688" lon="1.81539">
        <ele>99</ele>
        <time>2016-12-19T10:12:28Z</time>
      </trkpt>
      <trkpt lat="49.26684" lon="1.81541">
        <ele>98</ele>
        <time>2016-12-19T10:12:30Z</time>
      </trkpt>
      <trkpt lat="49.2668" lon="1.81538">
        <ele>98</ele>
        <time>2016-12-19T10:12:32Z</time>
      </trkpt>
      <trkpt lat="49.26678" lon="1.81543">
        <ele>98</ele>
        <time>2016-12-19T10:12:34Z</time>
      </trkpt>
      <trkpt lat="49.26674" lon="1.81542">
        <ele>98</ele>
        <time>2016-12-19T10:12:36Z</time>
      </trkpt>
      <trkpt lat="49.26663" lon="1.81547">
        <ele>95</ele>
        <time>2016-12-19T10:12:46Z</time>
      </trkpt>
      <trkpt lat="49.2666" lon="1.81546">
        <ele>95</ele>
        <time>2016-12-19T10:12:47Z</time>
      </trkpt>
      <trkpt lat="49.26659" lon="1.8155">
        <ele>95</ele>
        <time>2016-12-19T10:12:52Z</time>
      </trkpt>
      <trkpt lat="49.26645" lon="1.81547">
        <ele>96</ele>
        <time>2016-12-19T10:13:03Z</time>
      </trkpt>
      <trkpt lat="49.26641" lon="1.81544">
        <ele>94</ele>
        <time>2016-12-19T10:13:07Z</time>
      </trkpt>
      <trkpt lat="49.26632" lon="1.81543">
        <ele>94</ele>
        <time>2016-12-19T10:13:14Z</time>
      </trkpt>
      <trkpt lat="49.26629" lon="1.81544">
        <ele>94</ele>
        <time>2016-12-19T10:13:16Z</time>
      </trkpt>
      <trkpt lat="49.26627" lon="1.81543">
        <ele>94</ele>
        <time>2016-12-19T10:13:18Z</time>
      </trkpt>
      <trkpt lat="49.26623" lon="1.81545">
        <ele>92</ele>
        <time>2016-12-19T10:13:21Z</time>
      </trkpt>
      <trkpt lat="49.26621" lon="1.81546">
        <ele>92</ele>
        <time>2016-12-19T10:13:23Z</time>
      </trkpt>
      <trkpt lat="49.26616" lon="1.8154">
        <ele>92</ele>
        <time>2016-12-19T10:13:26Z</time>
      </trkpt>
      <trkpt lat="49.26612" lon="1.8154">
        <ele>91</ele>
        <time>2016-12-19T10:13:30Z</time>
      </trkpt>
      <trkpt lat="49.2661" lon="1.81536">
        <ele>90</ele>
        <time>2016-12-19T10:13:32Z</time>
      </trkpt>
      <trkpt lat="49.26598" lon="1.81532">
        <ele>89</ele>
        <time>2016-12-19T10:13:40Z</time>
      </trkpt>
      <trkpt lat="49.26585" lon="1.81523">
        <ele>86</ele>
        <time>2016-12-19T10:13:51Z</time>
      </trkpt>
      <trkpt lat="49.26569" lon="1.81516">
        <ele>84</ele>
        <time>2016-12-19T10:14:05Z</time>
      </trkpt>
      <trkpt lat="49.26566" lon="1.81511">
        <ele>84</ele>
        <time>2016-12-19T10:14:07Z</time>
      </trkpt>
      <trkpt lat="49.26563" lon="1.81511">
        <ele>84</ele>
        <time>2016-12-19T10:14:10Z</time>
      </trkpt>
      <trkpt lat="49.26552" lon="1.81504">
        <ele>85</ele>
        <time>2016-12-19T10:14:18Z</time>
      </trkpt>
      <trkpt lat="49.26545" lon="1.81504">
        <ele>83</ele>
        <time>2016-12-19T10:14:25Z</time>
      </trkpt>
      <trkpt lat="49.26532" lon="1.815">
        <ele>82</ele>
        <time>2016-12-19T10:14:35Z</time>
      </trkpt>
      <trkpt lat="49.26523" lon="1.81493">
        <ele>83</ele>
        <time>2016-12-19T10:14:41Z</time>
      </trkpt>
      <trkpt lat="49.26514" lon="1.81493">
        <ele>84</ele>
        <time>2016-12-19T10:14:49Z</time>
      </trkpt>
      <trkpt lat="49.26504" lon="1.81486">
        <ele>84</ele>
        <time>2016-12-19T10:14:59Z</time>
      </trkpt>
      <trkpt lat="49.26497" lon="1.81485">
        <ele>84</ele>
        <time>2016-12-19T10:15:04Z</time>
      </trkpt>
      <trkpt lat="49.26493" lon="1.81481">
        <ele>85</ele>
        <time>2016-12-19T10:15:06Z</time>
      </trkpt>
      <trkpt lat="49.26489" lon="1.81483">
        <ele>87</ele>
        <time>2016-12-19T10:15:09Z</time>
      </trkpt>
      <trkpt lat="49.26485" lon="1.8148">
        <ele>88</ele>
        <time>2016-12-19T10:15:12Z</time>
      </trkpt>
      <trkpt lat="49.26484" lon="1.81486">
        <ele>88</ele>
        <time>2016-12-19T10:15:15Z</time>
      </trkpt>
      <trkpt lat="49.26481" lon="1.81484">
        <ele>88</ele>
        <time>2016-12-19T10:15:17Z</time>
      </trkpt>
      <trkpt lat="49.26477" lon="1.81484">
        <ele>86</ele>
        <time>2016-12-19T10:15:21Z</time>
      </trkpt>
      <trkpt lat="49.26473" lon="1.81481">
        <ele>85</ele>
        <time>2016-12-19T10:15:24Z</time>
      </trkpt>
      <trkpt lat="49.26457" lon="1.81481">
        <ele>81</ele>
        <time>2016-12-19T10:15:37Z</time>
      </trkpt>
      <trkpt lat="49.26454" lon="1.81485">
        <ele>80</ele>
        <time>2016-12-19T10:15:43Z</time>
      </trkpt>
      <trkpt lat="49.26448" lon="1.81486">
        <ele>77</ele>
        <time>2016-12-19T10:15:49Z</time>
      </trkpt>
      <trkpt lat="49.26445" lon="1.81491">
        <ele>77</ele>
        <time>2016-12-19T10:15:52Z</time>
      </trkpt>
      <trkpt lat="49.26439" lon="1.81493">
        <ele>77</ele>
        <time>2016-12-19T10:15:56Z</time>
      </trkpt>
      <trkpt lat="49.26416" lon="1.81489">
        <ele>74</ele>
        <time>2016-12-19T10:16:13Z</time>
      </trkpt>
      <trkpt lat="49.26413" lon="1.81489">
        <ele>75</ele>
        <time>2016-12-19T10:16:19Z</time>
      </trkpt>
      <trkpt lat="49.2641" lon="1.81488">
        <ele>75</ele>
        <time>2016-12-19T10:16:31Z</time>
      </trkpt>
      <trkpt lat="49.26407" lon="1.8149">
        <ele>75</ele>
        <time>2016-12-19T10:16:34Z</time>
      </trkpt>
      <trkpt lat="49.26404" lon="1.8149">
        <ele>74</ele>
        <time>2016-12-19T10:16:37Z</time>
      </trkpt>
      <trkpt lat="49.26396" lon="1.81487">
        <ele>75</ele>
        <time>2016-12-19T10:16:43Z</time>
      </trkpt>
      <trkpt lat="49.26375" lon="1.81483">
        <ele>79</ele>
        <time>2016-12-19T10:16:59Z</time>
      </trkpt>
      <trkpt lat="49.2637" lon="1.81487">
        <ele>77</ele>
        <time>2016-12-19T10:17:05Z</time>
      </trkpt>
      <trkpt lat="49.26368" lon="1.8149">
        <ele>77</ele>
        <time>2016-12-19T10:17:09Z</time>
      </trkpt>
      <trkpt lat="49.26367" lon="1.81486">
        <ele>76</ele>
        <time>2016-12-19T10:17:19Z</time>
      </trkpt>
      <trkpt lat="49.26364" lon="1.81485">
        <ele>76</ele>
        <time>2016-12-19T10:17:26Z</time>
      </trkpt>
      <trkpt lat="49.26362" lon="1.8149">
        <ele>76</ele>
        <time>2016-12-19T10:17:29Z</time>
      </trkpt>
      <trkpt lat="49.26359" lon="1.81488">
        <ele>77</ele>
        <time>2016-12-19T10:17:33Z</time>
      </trkpt>
      <trkpt lat="49.26356" lon="1.81485">
        <ele>77</ele>
        <time>2016-12-19T10:17:40Z</time>
      </trkpt>
      <trkpt lat="49.26354" lon="1.81484">
        <ele>79</ele>
        <time>2016-12-19T10:18:28Z</time>
      </trkpt>
      <trkpt lat="49.26351" lon="1.81483">
        <ele>79</ele>
        <time>2016-12-19T10:18:31Z</time>
      </trkpt>
      <trkpt lat="49.26346" lon="1.81479">
        <ele>76</ele>
        <time>2016-12-19T10:18:35Z</time>
      </trkpt>
      <trkpt lat="49.26343" lon="1.8148">
        <ele>76</ele>
        <time>2016-12-19T10:18:39Z</time>
      </trkpt>
      <trkpt lat="49.26339" lon="1.81478">
        <ele>77</ele>
        <time>2016-12-19T10:18:43Z</time>
      </trkpt>
      <trkpt lat="49.26336" lon="1.8148">
        <ele>77</ele>
        <time>2016-12-19T10:18:45Z</time>
      </trkpt>
      <trkpt lat="49.2633" lon="1.81476">
        <ele>77</ele>
        <time>2016-12-19T10:18:50Z</time>
      </trkpt>
      <trkpt lat="49.26328" lon="1.81481">
        <ele>76</ele>
        <time>2016-12-19T10:18:55Z</time>
      </trkpt>
      <trkpt lat="49.26324" lon="1.81483">
        <ele>77</ele>
        <time>2016-12-19T10:18:59Z</time>
      </trkpt>
      <trkpt lat="49.26321" lon="1.81481">
        <ele>78</ele>
        <time>2016-12-19T10:19:01Z</time>
      </trkpt>
      <trkpt lat="49.26307" lon="1.81486">
        <ele>78</ele>
        <time>2016-12-19T10:19:11Z</time>
      </trkpt>
      <trkpt lat="49.26303" lon="1.81488">
        <ele>77</ele>
        <time>2016-12-19T10:19:14Z</time>
      </trkpt>
      <trkpt lat="49.263" lon="1.81496">
        <ele>76</ele>
        <time>2016-12-19T10:19:18Z</time>
      </trkpt>
      <trkpt lat="49.26291" lon="1.81505">
        <ele>76</ele>
        <time>2016-12-19T10:19:26Z</time>
      </trkpt>
      <trkpt lat="49.26285" lon="1.81511">
        <ele>73</ele>
        <time>2016-12-19T10:19:32Z</time>
      </trkpt>
      <trkpt lat="49.26282" lon="1.8152">
        <ele>74</ele>
        <time>2016-12-19T10:19:37Z</time>
      </trkpt>
      <trkpt lat="49.26276" lon="1.81524">
        <ele>76</ele>
        <time>2016-12-19T10:19:43Z</time>
      </trkpt>
      <trkpt lat="49.26273" lon="1.81527">
        <ele>76</ele>
        <time>2016-12-19T10:19:45Z</time>
      </trkpt>
      <trkpt lat="49.26272" lon="1.81531">
        <ele>77</ele>
        <time>2016-12-19T10:19:47Z</time>
      </trkpt>
      <trkpt lat="49.26259" lon="1.81549">
        <ele>78</ele>
        <time>2016-12-19T10:20:00Z</time>
      </trkpt>
      <trkpt lat="49.26256" lon="1.81549">
        <ele>78</ele>
        <time>2016-12-19T10:20:03Z</time>
      </trkpt>
      <trkpt lat="49.26226" lon="1.8158">
        <ele>71</ele>
        <time>2016-12-19T10:20:33Z</time>
      </trkpt>
      <trkpt lat="49.26223" lon="1.81583">
        <ele>72</ele>
        <time>2016-12-19T10:20:37Z</time>
      </trkpt>
      <trkpt lat="49.26221" lon="1.81579">
        <ele>72</ele>
        <time>2016-12-19T10:20:39Z</time>
      </trkpt>
      <trkpt lat="49.26216" lon="1.81582">
        <ele>72</ele>
        <time>2016-12-19T10:20:41Z</time>
      </trkpt>
      <trkpt lat="49.26213" lon="1.81588">
        <ele>72</ele>
        <time>2016-12-19T10:20:43Z</time>
      </trkpt>
      <trkpt lat="49.26211" lon="1.81588">
        <ele>72</ele>
        <time>2016-12-19T10:20:45Z</time>
      </trkpt>
      <trkpt lat="49.26196" lon="1.81598">
        <ele>73</ele>
        <time>2016-12-19T10:20:55Z</time>
      </trkpt>
      <trkpt lat="49.26191" lon="1.81603">
        <ele>79</ele>
        <time>2016-12-19T10:20:57Z</time>
      </trkpt>
      <trkpt lat="49.26188" lon="1.81601">
        <ele>75</ele>
        <time>2016-12-19T10:21:00Z</time>
      </trkpt>
      <trkpt lat="49.26183" lon="1.81606">
        <ele>72</ele>
        <time>2016-12-19T10:21:03Z</time>
      </trkpt>
      <trkpt lat="49.26187" lon="1.81608">
        <ele>70</ele>
        <time>2016-12-19T10:21:07Z</time>
      </trkpt>
      <trkpt lat="49.26185" lon="1.8161">
        <ele>70</ele>
        <time>2016-12-19T10:21:10Z</time>
      </trkpt>
      <trkpt lat="49.26185" lon="1.81608">
        <ele>68</ele>
        <time>2016-12-19T10:21:17Z</time>
      </trkpt>
      <trkpt lat="49.26177" lon="1.81609">
        <ele>65</ele>
        <time>2016-12-19T10:21:27Z</time>
      </trkpt>
      <trkpt lat="49.26168" lon="1.8161">
        <ele>62</ele>
        <time>2016-12-19T10:21:30Z</time>
      </trkpt>
      <trkpt lat="49.26163" lon="1.81615">
        <ele>62</ele>
        <time>2016-12-19T10:21:33Z</time>
      </trkpt>
      <trkpt lat="49.26145" lon="1.81625">
        <ele>61</ele>
        <time>2016-12-19T10:21:41Z</time>
      </trkpt>
      <trkpt lat="49.26143" lon="1.81635">
        <ele>63</ele>
        <time>2016-12-19T10:21:44Z</time>
      </trkpt>
      <trkpt lat="49.26139" lon="1.81637">
        <ele>64</ele>
        <time>2016-12-19T10:21:46Z</time>
      </trkpt>
      <trkpt lat="49.26138" lon="1.8164">
        <ele>65</ele>
        <time>2016-12-19T10:21:48Z</time>
      </trkpt>
      <trkpt lat="49.26137" lon="1.81645">
        <ele>65</ele>
        <time>2016-12-19T10:21:54Z</time>
      </trkpt>
      <trkpt lat="49.26128" lon="1.81649">
        <ele>64</ele>
        <time>2016-12-19T10:22:03Z</time>
      </trkpt>
      <trkpt lat="49.26109" lon="1.81663">
        <ele>64</ele>
        <time>2016-12-19T10:22:22Z</time>
      </trkpt>
      <trkpt lat="49.26105" lon="1.81677">
        <ele>64</ele>
        <time>2016-12-19T10:22:31Z</time>
      </trkpt>
      <trkpt lat="49.26106" lon="1.81686">
        <ele>64</ele>
        <time>2016-12-19T10:22:35Z</time>
      </trkpt>
      <trkpt lat="49.26104" lon="1.8169">
        <ele>64</ele>
        <time>2016-12-19T10:22:38Z</time>
      </trkpt>
      <trkpt lat="49.26101" lon="1.81695">
        <ele>64</ele>
        <time>2016-12-19T10:22:42Z</time>
      </trkpt>
      <trkpt lat="49.261" lon="1.81699">
        <ele>64</ele>
        <time>2016-12-19T10:22:44Z</time>
      </trkpt>
      <trkpt lat="49.26098" lon="1.81703">
        <ele>64</ele>
        <time>2016-12-19T10:22:48Z</time>
      </trkpt>
      <trkpt lat="49.26092" lon="1.81726">
        <ele>66</ele>
        <time>2016-12-19T10:23:03Z</time>
      </trkpt>
      <trkpt lat="49.26089" lon="1.8175">
        <ele>66</ele>
        <time>2016-12-19T10:23:18Z</time>
      </trkpt>
      <trkpt lat="49.26084" lon="1.81776">
        <ele>66</ele>
        <time>2016-12-19T10:23:34Z</time>
      </trkpt>
      <trkpt lat="49.26085" lon="1.81781">
        <ele>66</ele>
        <time>2016-12-19T10:23:37Z</time>
      </trkpt>
      <trkpt lat="49.26082" lon="1.81799">
        <ele>64</ele>
        <time>2016-12-19T10:23:46Z</time>
      </trkpt>
      <trkpt lat="49.26083" lon="1.81803">
        <ele>63</ele>
        <time>2016-12-19T10:23:49Z</time>
      </trkpt>
      <trkpt lat="49.26082" lon="1.81819">
        <ele>62</ele>
        <time>2016-12-19T10:23:59Z</time>
      </trkpt>
      <trkpt lat="49.26081" lon="1.81825">
        <ele>61</ele>
        <time>2016-12-19T10:24:01Z</time>
      </trkpt>
      <trkpt lat="49.26077" lon="1.8184">
        <ele>62</ele>
        <time>2016-12-19T10:24:08Z</time>
      </trkpt>
      <trkpt lat="49.26076" lon="1.81856">
        <ele>62</ele>
        <time>2016-12-19T10:24:15Z</time>
      </trkpt>
      <trkpt lat="49.26074" lon="1.81859">
        <ele>61</ele>
        <time>2016-12-19T10:24:21Z</time>
      </trkpt>
      <trkpt lat="49.26073" lon="1.81872">
        <ele>59</ele>
        <time>2016-12-19T10:24:29Z</time>
      </trkpt>
      <trkpt lat="49.26063" lon="1.81886">
        <ele>61</ele>
        <time>2016-12-19T10:24:44Z</time>
      </trkpt>
      <trkpt lat="49.2606" lon="1.81901">
        <ele>60</ele>
        <time>2016-12-19T10:24:52Z</time>
      </trkpt>
      <trkpt lat="49.2606" lon="1.81906">
        <ele>61</ele>
        <time>2016-12-19T10:24:54Z</time>
      </trkpt>
      <trkpt lat="49.26066" lon="1.81926">
        <ele>61</ele>
        <time>2016-12-19T10:25:10Z</time>
      </trkpt>
      <trkpt lat="49.26065" lon="1.81933">
        <ele>62</ele>
        <time>2016-12-19T10:25:12Z</time>
      </trkpt>
      <trkpt lat="49.26068" lon="1.8194">
        <ele>64</ele>
        <time>2016-12-19T10:25:15Z</time>
      </trkpt>
      <trkpt lat="49.26065" lon="1.81958">
        <ele>66</ele>
        <time>2016-12-19T10:25:23Z</time>
      </trkpt>
      <trkpt lat="49.26063" lon="1.81963">
        <ele>66</ele>
        <time>2016-12-19T10:25:26Z</time>
      </trkpt>
      <trkpt lat="49.26064" lon="1.81971">
        <ele>68</ele>
        <time>2016-12-19T10:25:31Z</time>
      </trkpt>
      <trkpt lat="49.26063" lon="1.81978">
        <ele>72</ele>
        <time>2016-12-19T10:25:34Z</time>
      </trkpt>
      <trkpt lat="49.26066" lon="1.81983">
        <ele>72</ele>
        <time>2016-12-19T10:25:38Z</time>
      </trkpt>
      <trkpt lat="49.26066" lon="1.81987">
        <ele>71</ele>
        <time>2016-12-19T10:25:40Z</time>
      </trkpt>
      <trkpt lat="49.26075" lon="1.81997">
        <ele>69</ele>
        <time>2016-12-19T10:25:50Z</time>
      </trkpt>
      <trkpt lat="49.26075" lon="1.82004">
        <ele>70</ele>
        <time>2016-12-19T10:25:53Z</time>
      </trkpt>
      <trkpt lat="49.2608" lon="1.82002">
        <ele>70</ele>
        <time>2016-12-19T10:25:55Z</time>
      </trkpt>
      <trkpt lat="49.26084" lon="1.81999">
        <ele>71</ele>
        <time>2016-12-19T10:25:57Z</time>
      </trkpt>
      <trkpt lat="49.26086" lon="1.82009">
        <ele>71</ele>
        <time>2016-12-19T10:26:01Z</time>
      </trkpt>
      <trkpt lat="49.26083" lon="1.8202">
        <ele>70</ele>
        <time>2016-12-19T10:26:06Z</time>
      </trkpt>
      <trkpt lat="49.26087" lon="1.82032">
        <ele>71</ele>
        <time>2016-12-19T10:26:11Z</time>
      </trkpt>
      <trkpt lat="49.26093" lon="1.82042">
        <ele>73</ele>
        <time>2016-12-19T10:26:17Z</time>
      </trkpt>
      <trkpt lat="49.26093" lon="1.82048">
        <ele>74</ele>
        <time>2016-12-19T10:26:19Z</time>
      </trkpt>
      <trkpt lat="49.26107" lon="1.82074">
        <ele>77</ele>
        <time>2016-12-19T10:26:40Z</time>
      </trkpt>
      <trkpt lat="49.2611" lon="1.8208">
        <ele>76</ele>
        <time>2016-12-19T10:26:43Z</time>
      </trkpt>
      <trkpt lat="49.26114" lon="1.82082">
        <ele>75</ele>
        <time>2016-12-19T10:26:51Z</time>
      </trkpt>
      <trkpt lat="49.26118" lon="1.82093">
        <ele>75</ele>
        <time>2016-12-19T10:26:57Z</time>
      </trkpt>
      <trkpt lat="49.26134" lon="1.82118">
        <ele>76</ele>
        <time>2016-12-19T10:27:14Z</time>
      </trkpt>
      <trkpt lat="49.26138" lon="1.82119">
        <ele>75</ele>
        <time>2016-12-19T10:27:17Z</time>
      </trkpt>
      <trkpt lat="49.26139" lon="1.82124">
        <ele>75</ele>
        <time>2016-12-19T10:27:19Z</time>
      </trkpt>
      <trkpt lat="49.26142" lon="1.82133">
        <ele>76</ele>
        <time>2016-12-19T10:27:24Z</time>
      </trkpt>
      <trkpt lat="49.26153" lon="1.82157">
        <ele>80</ele>
        <time>2016-12-19T10:27:41Z</time>
      </trkpt>
      <trkpt lat="49.26155" lon="1.8216">
        <ele>80</ele>
        <time>2016-12-19T10:27:45Z</time>
      </trkpt>
      <trkpt lat="49.26155" lon="1.82165">
        <ele>80</ele>
        <time>2016-12-19T10:27:48Z</time>
      </trkpt>
      <trkpt lat="49.2616" lon="1.82183">
        <ele>78</ele>
        <time>2016-12-19T10:28:01Z</time>
      </trkpt>
      <trkpt lat="49.26173" lon="1.82204">
        <ele>78</ele>
        <time>2016-12-19T10:28:25Z</time>
      </trkpt>
      <trkpt lat="49.26178" lon="1.82224">
        <ele>81</ele>
        <time>2016-12-19T10:28:48Z</time>
      </trkpt>
      <trkpt lat="49.26181" lon="1.82223">
        <ele>79</ele>
        <time>2016-12-19T10:28:52Z</time>
      </trkpt>
      <trkpt lat="49.26187" lon="1.82233">
        <ele>77</ele>
        <time>2016-12-19T10:28:58Z</time>
      </trkpt>
      <trkpt lat="49.26188" lon="1.82239">
        <ele>77</ele>
        <time>2016-12-19T10:29:01Z</time>
      </trkpt>
      <trkpt lat="49.26192" lon="1.82241">
        <ele>77</ele>
        <time>2016-12-19T10:29:05Z</time>
      </trkpt>
      <trkpt lat="49.26195" lon="1.82247">
        <ele>78</ele>
        <time>2016-12-19T10:29:11Z</time>
      </trkpt>
      <trkpt lat="49.26193" lon="1.82253">
        <ele>78</ele>
        <time>2016-12-19T10:29:15Z</time>
      </trkpt>
      <trkpt lat="49.26195" lon="1.82261">
        <ele>81</ele>
        <time>2016-12-19T10:29:24Z</time>
      </trkpt>
      <trkpt lat="49.26205" lon="1.8228">
        <ele>83</ele>
        <time>2016-12-19T10:29:35Z</time>
      </trkpt>
      <trkpt lat="49.26217" lon="1.82292">
        <ele>82</ele>
        <time>2016-12-19T10:29:46Z</time>
      </trkpt>
      <trkpt lat="49.26219" lon="1.823">
        <ele>81</ele>
        <time>2016-12-19T10:29:51Z</time>
      </trkpt>
      <trkpt lat="49.26219" lon="1.82308">
        <ele>84</ele>
        <time>2016-12-19T10:29:54Z</time>
      </trkpt>
      <trkpt lat="49.26226" lon="1.82316">
        <ele>82</ele>
        <time>2016-12-19T10:30:00Z</time>
      </trkpt>
      <trkpt lat="49.26227" lon="1.82326">
        <ele>82</ele>
        <time>2016-12-19T10:30:05Z</time>
      </trkpt>
      <trkpt lat="49.26232" lon="1.82335">
        <ele>81</ele>
        <time>2016-12-19T10:30:13Z</time>
      </trkpt>
      <trkpt lat="49.26246" lon="1.8237">
        <ele>78</ele>
        <time>2016-12-19T10:30:37Z</time>
      </trkpt>
      <trkpt lat="49.26244" lon="1.8238">
        <ele>80</ele>
        <time>2016-12-19T10:30:43Z</time>
      </trkpt>
      <trkpt lat="49.26248" lon="1.82386">
        <ele>80</ele>
        <time>2016-12-19T10:30:47Z</time>
      </trkpt>
      <trkpt lat="49.26252" lon="1.82391">
        <ele>79</ele>
        <time>2016-12-19T10:30:51Z</time>
      </trkpt>
      <trkpt lat="49.26253" lon="1.82398">
        <ele>80</ele>
        <time>2016-12-19T10:30:55Z</time>
      </trkpt>
      <trkpt lat="49.26249" lon="1.82413">
        <ele>80</ele>
        <time>2016-12-19T10:31:01Z</time>
      </trkpt>
      <trkpt lat="49.26251" lon="1.82439">
        <ele>77</ele>
        <time>2016-12-19T10:31:13Z</time>
      </trkpt>
      <trkpt lat="49.26249" lon="1.82446">
        <ele>78</ele>
        <time>2016-12-19T10:31:18Z</time>
      </trkpt>
      <trkpt lat="49.2625" lon="1.82475">
        <ele>85</ele>
        <time>2016-12-19T10:31:36Z</time>
      </trkpt>
      <trkpt lat="49.2625" lon="1.82484">
        <ele>85</ele>
        <time>2016-12-19T10:31:46Z</time>
      </trkpt>
      <trkpt lat="49.26249" lon="1.82495">
        <ele>80</ele>
        <time>2016-12-19T10:31:53Z</time>
      </trkpt>
      <trkpt lat="49.26247" lon="1.82507">
        <ele>79</ele>
        <time>2016-12-19T10:31:58Z</time>
      </trkpt>
      <trkpt lat="49.26245" lon="1.82519">
        <ele>78</ele>
        <time>2016-12-19T10:32:05Z</time>
      </trkpt>
      <trkpt lat="49.26243" lon="1.82528">
        <ele>81</ele>
        <time>2016-12-19T10:32:20Z</time>
      </trkpt>
      <trkpt lat="49.26245" lon="1.82539">
        <ele>81</ele>
        <time>2016-12-19T10:32:26Z</time>
      </trkpt>
      <trkpt lat="49.26242" lon="1.8255">
        <ele>76</ele>
        <time>2016-12-19T10:32:33Z</time>
      </trkpt>
      <trkpt lat="49.26238" lon="1.8258">
        <ele>75</ele>
        <time>2016-12-19T10:32:48Z</time>
      </trkpt>
      <trkpt lat="49.26238" lon="1.82588">
        <ele>79</ele>
        <time>2016-12-19T10:32:50Z</time>
      </trkpt>
      <trkpt lat="49.26239" lon="1.82599">
        <ele>83</ele>
        <time>2016-12-19T10:33:01Z</time>
      </trkpt>
      <trkpt lat="49.26236" lon="1.82608">
        <ele>83</ele>
        <time>2016-12-19T10:33:09Z</time>
      </trkpt>
      <trkpt lat="49.26234" lon="1.82627">
        <ele>85</ele>
        <time>2016-12-19T10:33:16Z</time>
      </trkpt>
      <trkpt lat="49.26234" lon="1.82635">
        <ele>84</ele>
        <time>2016-12-19T10:33:20Z</time>
      </trkpt>
      <trkpt lat="49.26228" lon="1.82647">
        <ele>84</ele>
        <time>2016-12-19T10:33:27Z</time>
      </trkpt>
      <trkpt lat="49.26229" lon="1.82654">
        <ele>85</ele>
        <time>2016-12-19T10:33:34Z</time>
      </trkpt>
      <trkpt lat="49.26225" lon="1.82672">
        <ele>87</ele>
        <time>2016-12-19T10:33:42Z</time>
      </trkpt>
      <trkpt lat="49.26225" lon="1.8268">
        <ele>88</ele>
        <time>2016-12-19T10:33:50Z</time>
      </trkpt>
      <trkpt lat="49.26221" lon="1.82686">
        <ele>90</ele>
        <time>2016-12-19T10:33:54Z</time>
      </trkpt>
      <trkpt lat="49.26218" lon="1.82697">
        <ele>89</ele>
        <time>2016-12-19T10:33:59Z</time>
      </trkpt>
      <trkpt lat="49.2622" lon="1.82706">
        <ele>87</ele>
        <time>2016-12-19T10:34:03Z</time>
      </trkpt>
      <trkpt lat="49.2622" lon="1.82715">
        <ele>85</ele>
        <time>2016-12-19T10:34:08Z</time>
      </trkpt>
      <trkpt lat="49.26216" lon="1.82723">
        <ele>81</ele>
        <time>2016-12-19T10:34:13Z</time>
      </trkpt>
      <trkpt lat="49.26215" lon="1.82731">
        <ele>80</ele>
        <time>2016-12-19T10:34:18Z</time>
      </trkpt>
      <trkpt lat="49.2621" lon="1.82748">
        <ele>82</ele>
        <time>2016-12-19T10:34:37Z</time>
      </trkpt>
      <trkpt lat="49.26202" lon="1.8279">
        <ele>76</ele>
        <time>2016-12-19T10:35:01Z</time>
      </trkpt>
      <trkpt lat="49.26201" lon="1.82798">
        <ele>79</ele>
        <time>2016-12-19T10:35:05Z</time>
      </trkpt>
      <trkpt lat="49.262" lon="1.82804">
        <ele>79</ele>
        <time>2016-12-19T10:35:09Z</time>
      </trkpt>
      <trkpt lat="49.262" lon="1.82811">
        <ele>80</ele>
        <time>2016-12-19T10:35:12Z</time>
      </trkpt>
      <trkpt lat="49.26199" lon="1.82817">
        <ele>83</ele>
        <time>2016-12-19T10:35:16Z</time>
      </trkpt>
      <trkpt lat="49.26196" lon="1.82827">
        <ele>84</ele>
        <time>2016-12-19T10:35:22Z</time>
      </trkpt>
      <trkpt lat="49.26197" lon="1.82849">
        <ele>82</ele>
        <time>2016-12-19T10:35:36Z</time>
      </trkpt>
      <trkpt lat="49.26196" lon="1.82861">
        <ele>79</ele>
        <time>2016-12-19T10:35:41Z</time>
      </trkpt>
      <trkpt lat="49.26199" lon="1.82871">
        <ele>78</ele>
        <time>2016-12-19T10:35:46Z</time>
      </trkpt>
      <trkpt lat="49.26204" lon="1.82883">
        <ele>77</ele>
        <time>2016-12-19T10:35:53Z</time>
      </trkpt>
      <trkpt lat="49.26206" lon="1.82898">
        <ele>79</ele>
        <time>2016-12-19T10:36:01Z</time>
      </trkpt>
      <trkpt lat="49.26203" lon="1.82912">
        <ele>80</ele>
        <time>2016-12-19T10:36:07Z</time>
      </trkpt>
      <trkpt lat="49.26206" lon="1.82937">
        <ele>82</ele>
        <time>2016-12-19T10:36:24Z</time>
      </trkpt>
      <trkpt lat="49.26206" lon="1.82949">
        <ele>82</ele>
        <time>2016-12-19T10:36:28Z</time>
      </trkpt>
      <trkpt lat="49.26216" lon="1.83002">
        <ele>90</ele>
        <time>2016-12-19T10:36:53Z</time>
      </trkpt>
      <trkpt lat="49.26213" lon="1.83012">
        <ele>89</ele>
        <time>2016-12-19T10:36:59Z</time>
      </trkpt>
      <trkpt lat="49.26211" lon="1.83038">
        <ele>90</ele>
        <time>2016-12-19T10:37:13Z</time>
      </trkpt>
      <trkpt lat="49.26207" lon="1.83049">
        <ele>91</ele>
        <time>2016-12-19T10:37:20Z</time>
      </trkpt>
      <trkpt lat="49.26206" lon="1.83059">
        <ele>95</ele>
        <time>2016-12-19T10:37:27Z</time>
      </trkpt>
      <trkpt lat="49.26205" lon="1.83085">
        <ele>95</ele>
        <time>2016-12-19T10:37:40Z</time>
      </trkpt>
      <trkpt lat="49.26205" lon="1.83093">
        <ele>94</ele>
        <time>2016-12-19T10:37:44Z</time>
      </trkpt>
      <trkpt lat="49.26205" lon="1.83129">
        <ele>98</ele>
        <time>2016-12-19T10:38:07Z</time>
      </trkpt>
      <trkpt lat="49.26208" lon="1.83159">
        <ele>103</ele>
        <time>2016-12-19T10:38:22Z</time>
      </trkpt>
      <trkpt lat="49.2621" lon="1.83168">
        <ele>105</ele>
        <time>2016-12-19T10:38:28Z</time>
      </trkpt>
      <trkpt lat="49.26215" lon="1.83191">
        <ele>104</ele>
        <time>2016-12-19T10:38:41Z</time>
      </trkpt>
      <trkpt lat="49.26217" lon="1.83197">
        <ele>104</ele>
        <time>2016-12-19T10:38:45Z</time>
      </trkpt>
      <trkpt lat="49.26218" lon="1.83205">
        <ele>106</ele>
        <time>2016-12-19T10:38:50Z</time>
      </trkpt>
      <trkpt lat="49.26217" lon="1.83212">
        <ele>107</ele>
        <time>2016-12-19T10:38:55Z</time>
      </trkpt>
      <trkpt lat="49.26218" lon="1.83224">
        <ele>102</ele>
        <time>2016-12-19T10:39:03Z</time>
      </trkpt>
      <trkpt lat="49.2622" lon="1.83232">
        <ele>103</ele>
        <time>2016-12-19T10:39:12Z</time>
      </trkpt>
      <trkpt lat="49.26222" lon="1.83238">
        <ele>106</ele>
        <time>2016-12-19T10:39:19Z</time>
      </trkpt>
      <trkpt lat="49.2624" lon="1.83272">
        <ele>106</ele>
        <time>2016-12-19T10:39:52Z</time>
      </trkpt>
      <trkpt lat="49.26248" lon="1.83285">
        <ele>104</ele>
        <time>2016-12-19T10:40:01Z</time>
      </trkpt>
      <trkpt lat="49.2626" lon="1.83313">
        <ele>99</ele>
        <time>2016-12-19T10:40:19Z</time>
      </trkpt>
      <trkpt lat="49.26281" lon="1.83338">
        <ele>96</ele>
        <time>2016-12-19T10:40:45Z</time>
      </trkpt>
      <trkpt lat="49.26291" lon="1.8338">
        <ele>95</ele>
        <time>2016-12-19T10:41:03Z</time>
      </trkpt>
      <trkpt lat="49.26293" lon="1.83397">
        <ele>102</ele>
        <time>2016-12-19T10:41:08Z</time>
      </trkpt>
      <trkpt lat="49.26299" lon="1.83406">
        <ele>108</ele>
        <time>2016-12-19T10:41:14Z</time>
      </trkpt>
      <trkpt lat="49.26299" lon="1.83414">
        <ele>108</ele>
        <time>2016-12-19T10:41:19Z</time>
      </trkpt>
      <trkpt lat="49.263" lon="1.83428">
        <ele>106</ele>
        <time>2016-12-19T10:41:26Z</time>
      </trkpt>
      <trkpt lat="49.26304" lon="1.83435">
        <ele>114</ele>
        <time>2016-12-19T10:41:31Z</time>
      </trkpt>
      <trkpt lat="49.26311" lon="1.83435">
        <ele>116</ele>
        <time>2016-12-19T10:41:35Z</time>
      </trkpt>
      <trkpt lat="49.26316" lon="1.83434">
        <ele>118</ele>
        <time>2016-12-19T10:41:37Z</time>
      </trkpt>
      <trkpt lat="49.26327" lon="1.83445">
        <ele>121</ele>
        <time>2016-12-19T10:41:50Z</time>
      </trkpt>
      <trkpt lat="49.26335" lon="1.8346">
        <ele>119</ele>
        <time>2016-12-19T10:42:00Z</time>
      </trkpt>
      <trkpt lat="49.26334" lon="1.83469">
        <ele>120</ele>
        <time>2016-12-19T10:42:05Z</time>
      </trkpt>
      <trkpt lat="49.26345" lon="1.83503">
        <ele>118</ele>
        <time>2016-12-19T10:42:23Z</time>
      </trkpt>
      <trkpt lat="49.26349" lon="1.83508">
        <ele>116</ele>
        <time>2016-12-19T10:42:28Z</time>
      </trkpt>
      <trkpt lat="49.26347" lon="1.83516">
        <ele>117</ele>
        <time>2016-12-19T10:42:33Z</time>
      </trkpt>
      <trkpt lat="49.2635" lon="1.83521">
        <ele>117</ele>
        <time>2016-12-19T10:42:38Z</time>
      </trkpt>
      <trkpt lat="49.26353" lon="1.83528">
        <ele>118</ele>
        <time>2016-12-19T10:42:42Z</time>
      </trkpt>
      <trkpt lat="49.26355" lon="1.83541">
        <ele>121</ele>
        <time>2016-12-19T10:42:52Z</time>
      </trkpt>
      <trkpt lat="49.26361" lon="1.83553">
        <ele>123</ele>
        <time>2016-12-19T10:42:58Z</time>
      </trkpt>
      <trkpt lat="49.26357" lon="1.83561">
        <ele>122</ele>
        <time>2016-12-19T10:43:04Z</time>
      </trkpt>
      <trkpt lat="49.26351" lon="1.83558">
        <ele>120</ele>
        <time>2016-12-19T10:43:10Z</time>
      </trkpt>
      <trkpt lat="49.26342" lon="1.83556">
        <ele>122</ele>
        <time>2016-12-19T10:43:17Z</time>
      </trkpt>
      <trkpt lat="49.26337" lon="1.83554">
        <ele>124</ele>
        <time>2016-12-19T10:43:20Z</time>
      </trkpt>
      <trkpt lat="49.26334" lon="1.83549">
        <ele>125</ele>
        <time>2016-12-19T10:43:23Z</time>
      </trkpt>
      <trkpt lat="49.2633" lon="1.83551">
        <ele>123</ele>
        <time>2016-12-19T10:43:31Z</time>
      </trkpt>
      <trkpt lat="49.26325" lon="1.83547">
        <ele>122</ele>
        <time>2016-12-19T10:43:33Z</time>
      </trkpt>
      <trkpt lat="49.26321" lon="1.83546">
        <ele>122</ele>
        <time>2016-12-19T10:43:37Z</time>
      </trkpt>
      <trkpt lat="49.26318" lon="1.83543">
        <ele>122</ele>
        <time>2016-12-19T10:43:42Z</time>
      </trkpt>
      <trkpt lat="49.26316" lon="1.83537">
        <ele>124</ele>
        <time>2016-12-19T10:43:50Z</time>
      </trkpt>
      <trkpt lat="49.26312" lon="1.83533">
        <ele>126</ele>
        <time>2016-12-19T10:43:53Z</time>
      </trkpt>
      <trkpt lat="49.26309" lon="1.83529">
        <ele>126</ele>
        <time>2016-12-19T10:43:55Z</time>
      </trkpt>
      <trkpt lat="49.26296" lon="1.83509">
        <ele>130</ele>
        <time>2016-12-19T10:44:13Z</time>
      </trkpt>
      <trkpt lat="49.26287" lon="1.83501">
        <ele>130</ele>
        <time>2016-12-19T10:44:19Z</time>
      </trkpt>
      <trkpt lat="49.26285" lon="1.83494">
        <ele>130</ele>
        <time>2016-12-19T10:44:22Z</time>
      </trkpt>
      <trkpt lat="49.26281" lon="1.83489">
        <ele>131</ele>
        <time>2016-12-19T10:44:25Z</time>
      </trkpt>
      <trkpt lat="49.26278" lon="1.83483">
        <ele>132</ele>
        <time>2016-12-19T10:44:27Z</time>
      </trkpt>
      <trkpt lat="49.26265" lon="1.83466">
        <ele>132</ele>
        <time>2016-12-19T10:44:40Z</time>
      </trkpt>
      <trkpt lat="49.26262" lon="1.83455">
        <ele>135</ele>
        <time>2016-12-19T10:44:42Z</time>
      </trkpt>
      <trkpt lat="49.26258" lon="1.83452">
        <ele>137</ele>
        <time>2016-12-19T10:44:47Z</time>
      </trkpt>
      <trkpt lat="49.26255" lon="1.83448">
        <ele>137</ele>
        <time>2016-12-19T10:44:50Z</time>
      </trkpt>
      <trkpt lat="49.26252" lon="1.83445">
        <ele>139</ele>
        <time>2016-12-19T10:44:56Z</time>
      </trkpt>
      <trkpt lat="49.26248" lon="1.83437">
        <ele>143</ele>
        <time>2016-12-19T10:45:00Z</time>
      </trkpt>
      <trkpt lat="49.26241" lon="1.83424">
        <ele>146</ele>
        <time>2016-12-19T10:45:04Z</time>
      </trkpt>
      <trkpt lat="49.26236" lon="1.83427">
        <ele>146</ele>
        <time>2016-12-19T10:45:07Z</time>
      </trkpt>
      <trkpt lat="49.26234" lon="1.8342">
        <ele>144</ele>
        <time>2016-12-19T10:45:11Z</time>
      </trkpt>
      <trkpt lat="49.26233" lon="1.83413">
        <ele>144</ele>
        <time>2016-12-19T10:45:14Z</time>
      </trkpt>
      <trkpt lat="49.26229" lon="1.83412">
        <ele>142</ele>
        <time>2016-12-19T10:45:17Z</time>
      </trkpt>
      <trkpt lat="49.26225" lon="1.83412">
        <ele>141</ele>
        <time>2016-12-19T10:45:24Z</time>
      </trkpt>
      <trkpt lat="49.26212" lon="1.83402">
        <ele>143</ele>
        <time>2016-12-19T10:45:34Z</time>
      </trkpt>
      <trkpt lat="49.26208" lon="1.834">
        <ele>142</ele>
        <time>2016-12-19T10:45:38Z</time>
      </trkpt>
      <trkpt lat="49.26199" lon="1.83388">
        <ele>140</ele>
        <time>2016-12-19T10:45:43Z</time>
      </trkpt>
      <trkpt lat="49.26198" lon="1.8338">
        <ele>138</ele>
        <time>2016-12-19T10:45:50Z</time>
      </trkpt>
      <trkpt lat="49.26194" lon="1.83382">
        <ele>137</ele>
        <time>2016-12-19T10:45:53Z</time>
      </trkpt>
      <trkpt lat="49.26189" lon="1.83381">
        <ele>137</ele>
        <time>2016-12-19T10:45:56Z</time>
      </trkpt>
      <trkpt lat="49.26179" lon="1.83364">
        <ele>130</ele>
        <time>2016-12-19T10:46:11Z</time>
      </trkpt>
      <trkpt lat="49.26173" lon="1.83364">
        <ele>129</ele>
        <time>2016-12-19T10:46:15Z</time>
      </trkpt>
      <trkpt lat="49.26166" lon="1.83351">
        <ele>128</ele>
        <time>2016-12-19T10:46:18Z</time>
      </trkpt>
      <trkpt lat="49.26165" lon="1.83345">
        <ele>124</ele>
        <time>2016-12-19T10:46:27Z</time>
      </trkpt>
      <trkpt lat="49.26161" lon="1.83342">
        <ele>125</ele>
        <time>2016-12-19T10:46:30Z</time>
      </trkpt>
      <trkpt lat="49.26154" lon="1.83333">
        <ele>128</ele>
        <time>2016-12-19T10:46:38Z</time>
      </trkpt>
      <trkpt lat="49.26138" lon="1.83316">
        <ele>131</ele>
        <time>2016-12-19T10:46:58Z</time>
      </trkpt>
      <trkpt lat="49.26132" lon="1.83308">
        <ele>131</ele>
        <time>2016-12-19T10:47:04Z</time>
      </trkpt>
      <trkpt lat="49.26131" lon="1.83303">
        <ele>131</ele>
        <time>2016-12-19T10:47:06Z</time>
      </trkpt>
      <trkpt lat="49.26116" lon="1.83286">
        <ele>132</ele>
        <time>2016-12-19T10:47:17Z</time>
      </trkpt>
      <trkpt lat="49.26113" lon="1.83289">
        <ele>130</ele>
        <time>2016-12-19T10:47:20Z</time>
      </trkpt>
      <trkpt lat="49.26109" lon="1.83287">
        <ele>129</ele>
        <time>2016-12-19T10:47:25Z</time>
      </trkpt>
      <trkpt lat="49.26106" lon="1.83282">
        <ele>127</ele>
        <time>2016-12-19T10:47:29Z</time>
      </trkpt>
      <trkpt lat="49.26101" lon="1.83281">
        <ele>129</ele>
        <time>2016-12-19T10:47:32Z</time>
      </trkpt>
      <trkpt lat="49.26099" lon="1.83278">
        <ele>129</ele>
        <time>2016-12-19T10:47:36Z</time>
      </trkpt>
      <trkpt lat="49.26096" lon="1.83276">
        <ele>130</ele>
        <time>2016-12-19T10:47:38Z</time>
      </trkpt>
      <trkpt lat="49.26091" lon="1.83268">
        <ele>129</ele>
        <time>2016-12-19T10:47:44Z</time>
      </trkpt>
      <trkpt lat="49.26081" lon="1.83264">
        <ele>132</ele>
        <time>2016-12-19T10:47:52Z</time>
      </trkpt>
      <trkpt lat="49.26062" lon="1.83255">
        <ele>132</ele>
        <time>2016-12-19T10:48:06Z</time>
      </trkpt>
      <trkpt lat="49.26051" lon="1.83254">
        <ele>133</ele>
        <time>2016-12-19T10:48:12Z</time>
      </trkpt>
      <trkpt lat="49.26042" lon="1.8325">
        <ele>132</ele>
        <time>2016-12-19T10:48:20Z</time>
      </trkpt>
      <trkpt lat="49.26029" lon="1.83248">
        <ele>128</ele>
        <time>2016-12-19T10:48:37Z</time>
      </trkpt>
      <trkpt lat="49.26017" lon="1.83243">
        <ele>127</ele>
        <time>2016-12-19T10:48:49Z</time>
      </trkpt>
      <trkpt lat="49.25988" lon="1.83235">
        <ele>127</ele>
        <time>2016-12-19T10:49:12Z</time>
      </trkpt>
      <trkpt lat="49.25984" lon="1.83233">
        <ele>126</ele>
        <time>2016-12-19T10:49:17Z</time>
      </trkpt>
      <trkpt lat="49.2598" lon="1.83229">
        <ele>127</ele>
        <time>2016-12-19T10:49:19Z</time>
      </trkpt>
      <trkpt lat="49.2597" lon="1.83227">
        <ele>128</ele>
        <time>2016-12-19T10:49:28Z</time>
      </trkpt>
      <trkpt lat="49.25959" lon="1.83224">
        <ele>129</ele>
        <time>2016-12-19T10:49:33Z</time>
      </trkpt>
      <trkpt lat="49.25956" lon="1.83221">
        <ele>129</ele>
        <time>2016-12-19T10:49:35Z</time>
      </trkpt>
      <trkpt lat="49.25952" lon="1.83218">
        <ele>129</ele>
        <time>2016-12-19T10:49:38Z</time>
      </trkpt>
      <trkpt lat="49.25948" lon="1.83218">
        <ele>130</ele>
        <time>2016-12-19T10:49:41Z</time>
      </trkpt>
      <trkpt lat="49.25944" lon="1.83219">
        <ele>131</ele>
        <time>2016-12-19T10:49:44Z</time>
      </trkpt>
      <trkpt lat="49.25935" lon="1.83213">
        <ele>133</ele>
        <time>2016-12-19T10:49:52Z</time>
      </trkpt>
      <trkpt lat="49.25922" lon="1.83214">
        <ele>134</ele>
        <time>2016-12-19T10:50:01Z</time>
      </trkpt>
      <trkpt lat="49.25918" lon="1.83213">
        <ele>133</ele>
        <time>2016-12-19T10:50:07Z</time>
      </trkpt>
      <trkpt lat="49.25915" lon="1.83208">
        <ele>133</ele>
        <time>2016-12-19T10:50:11Z</time>
      </trkpt>
      <trkpt lat="49.25912" lon="1.83211">
        <ele>133</ele>
        <time>2016-12-19T10:50:15Z</time>
      </trkpt>
      <trkpt lat="49.25897" lon="1.83214">
        <ele>130</ele>
        <time>2016-12-19T10:50:27Z</time>
      </trkpt>
      <trkpt lat="49.25892" lon="1.83209">
        <ele>130</ele>
        <time>2016-12-19T10:50:31Z</time>
      </trkpt>
      <trkpt lat="49.25883" lon="1.83213">
        <ele>129</ele>
        <time>2016-12-19T10:50:37Z</time>
      </trkpt>
      <trkpt lat="49.25878" lon="1.8321">
        <ele>128</ele>
        <time>2016-12-19T10:50:42Z</time>
      </trkpt>
      <trkpt lat="49.25872" lon="1.83212">
        <ele>129</ele>
        <time>2016-12-19T10:50:46Z</time>
      </trkpt>
      <trkpt lat="49.25844" lon="1.83211">
        <ele>129</ele>
        <time>2016-12-19T10:51:08Z</time>
      </trkpt>
      <trkpt lat="49.2584" lon="1.83211">
        <ele>131</ele>
        <time>2016-12-19T10:51:11Z</time>
      </trkpt>
      <trkpt lat="49.25835" lon="1.83205">
        <ele>132</ele>
        <time>2016-12-19T10:51:14Z</time>
      </trkpt>
      <trkpt lat="49.25829" lon="1.83203">
        <ele>132</ele>
        <time>2016-12-19T10:51:19Z</time>
      </trkpt>
      <trkpt lat="49.25824" lon="1.83205">
        <ele>132</ele>
        <time>2016-12-19T10:51:28Z</time>
      </trkpt>
      <trkpt lat="49.25814" lon="1.83211">
        <ele>132</ele>
        <time>2016-12-19T10:51:37Z</time>
      </trkpt>
      <trkpt lat="49.25803" lon="1.83216">
        <ele>133</ele>
        <time>2016-12-19T10:51:44Z</time>
      </trkpt>
      <trkpt lat="49.25797" lon="1.83216">
        <ele>129</ele>
        <time>2016-12-19T10:51:46Z</time>
      </trkpt>
      <trkpt lat="49.25793" lon="1.83218">
        <ele>126</ele>
        <time>2016-12-19T10:51:49Z</time>
      </trkpt>
      <trkpt lat="49.2579" lon="1.83223">
        <ele>125</ele>
        <time>2016-12-19T10:51:53Z</time>
      </trkpt>
      <trkpt lat="49.25779" lon="1.83222">
        <ele>126</ele>
        <time>2016-12-19T10:51:58Z</time>
      </trkpt>
      <trkpt lat="49.25772" lon="1.83223">
        <ele>127</ele>
        <time>2016-12-19T10:52:08Z</time>
      </trkpt>
      <trkpt lat="49.25763" lon="1.83218">
        <ele>130</ele>
        <time>2016-12-19T10:52:15Z</time>
      </trkpt>
      <trkpt lat="49.25759" lon="1.83216">
        <ele>130</ele>
        <time>2016-12-19T10:52:18Z</time>
      </trkpt>
      <trkpt lat="49.25757" lon="1.8322">
        <ele>129</ele>
        <time>2016-12-19T10:52:21Z</time>
      </trkpt>
      <trkpt lat="49.25755" lon="1.83218">
        <ele>128</ele>
        <time>2016-12-19T10:52:26Z</time>
      </trkpt>
      <trkpt lat="49.25747" lon="1.83219">
        <ele>127</ele>
        <time>2016-12-19T10:52:34Z</time>
      </trkpt>
      <trkpt lat="49.25736" lon="1.83213">
        <ele>127</ele>
        <time>2016-12-19T10:52:44Z</time>
      </trkpt>
      <trkpt lat="49.25721" lon="1.83211">
        <ele>130</ele>
        <time>2016-12-19T10:52:55Z</time>
      </trkpt>
      <trkpt lat="49.25703" lon="1.83208">
        <ele>126</ele>
        <time>2016-12-19T10:53:11Z</time>
      </trkpt>
      <trkpt lat="49.25694" lon="1.83205">
        <ele>128</ele>
        <time>2016-12-19T10:53:20Z</time>
      </trkpt>
      <trkpt lat="49.25691" lon="1.83204">
        <ele>128</ele>
        <time>2016-12-19T10:53:24Z</time>
      </trkpt>
      <trkpt lat="49.25682" lon="1.83198">
        <ele>126</ele>
        <time>2016-12-19T10:53:31Z</time>
      </trkpt>
      <trkpt lat="49.25672" lon="1.83197">
        <ele>126</ele>
        <time>2016-12-19T10:53:39Z</time>
      </trkpt>
      <trkpt lat="49.25667" lon="1.83192">
        <ele>125</ele>
        <time>2016-12-19T10:53:44Z</time>
      </trkpt>
      <trkpt lat="49.25664" lon="1.83192">
        <ele>125</ele>
        <time>2016-12-19T10:53:46Z</time>
      </trkpt>
      <trkpt lat="49.25661" lon="1.83188">
        <ele>127</ele>
        <time>2016-12-19T10:53:49Z</time>
      </trkpt>
      <trkpt lat="49.25658" lon="1.83187">
        <ele>128</ele>
        <time>2016-12-19T10:53:51Z</time>
      </trkpt>
      <trkpt lat="49.25655" lon="1.83184">
        <ele>128</ele>
        <time>2016-12-19T10:53:53Z</time>
      </trkpt>
      <trkpt lat="49.2563" lon="1.83172">
        <ele>125</ele>
        <time>2016-12-19T10:54:18Z</time>
      </trkpt>
      <trkpt lat="49.25615" lon="1.83162">
        <ele>129</ele>
        <time>2016-12-19T10:54:30Z</time>
      </trkpt>
      <trkpt lat="49.25612" lon="1.83161">
        <ele>129</ele>
        <time>2016-12-19T10:54:32Z</time>
      </trkpt>
      <trkpt lat="49.25609" lon="1.8316">
        <ele>130</ele>
        <time>2016-12-19T10:54:34Z</time>
      </trkpt>
      <trkpt lat="49.25606" lon="1.83159">
        <ele>130</ele>
        <time>2016-12-19T10:54:37Z</time>
      </trkpt>
      <trkpt lat="49.25603" lon="1.83154">
        <ele>129</ele>
        <time>2016-12-19T10:54:40Z</time>
      </trkpt>
      <trkpt lat="49.25595" lon="1.83149">
        <ele>129</ele>
        <time>2016-12-19T10:54:46Z</time>
      </trkpt>
      <trkpt lat="49.25588" lon="1.8315">
        <ele>128</ele>
        <time>2016-12-19T10:54:52Z</time>
      </trkpt>
      <trkpt lat="49.25585" lon="1.83151">
        <ele>128</ele>
        <time>2016-12-19T10:54:54Z</time>
      </trkpt>
      <trkpt lat="49.25583" lon="1.83149">
        <ele>129</ele>
        <time>2016-12-19T10:54:56Z</time>
      </trkpt>
      <trkpt lat="49.25561" lon="1.83131">
        <ele>130</ele>
        <time>2016-12-19T10:55:16Z</time>
      </trkpt>
      <trkpt lat="49.25541" lon="1.83114">
        <ele>132</ele>
        <time>2016-12-19T10:55:33Z</time>
      </trkpt>
      <trkpt lat="49.25529" lon="1.83112">
        <ele>128</ele>
        <time>2016-12-19T10:55:46Z</time>
      </trkpt>
      <trkpt lat="49.25526" lon="1.83113">
        <ele>128</ele>
        <time>2016-12-19T10:55:49Z</time>
      </trkpt>
      <trkpt lat="49.25524" lon="1.8311">
        <ele>127</ele>
        <time>2016-12-19T10:55:51Z</time>
      </trkpt>
      <trkpt lat="49.2552" lon="1.83108">
        <ele>128</ele>
        <time>2016-12-19T10:55:54Z</time>
      </trkpt>
      <trkpt lat="49.25517" lon="1.83103">
        <ele>130</ele>
        <time>2016-12-19T10:55:57Z</time>
      </trkpt>
      <trkpt lat="49.25504" lon="1.83097">
        <ele>131</ele>
        <time>2016-12-19T10:56:06Z</time>
      </trkpt>
      <trkpt lat="49.25501" lon="1.83094">
        <ele>130</ele>
        <time>2016-12-19T10:56:08Z</time>
      </trkpt>
      <trkpt lat="49.25466" lon="1.83083">
        <ele>124</ele>
        <time>2016-12-19T10:56:37Z</time>
      </trkpt>
      <trkpt lat="49.2546" lon="1.83085">
        <ele>125</ele>
        <time>2016-12-19T10:56:41Z</time>
      </trkpt>
      <trkpt lat="49.25454" lon="1.83082">
        <ele>128</ele>
        <time>2016-12-19T10:56:47Z</time>
      </trkpt>
      <trkpt lat="49.2544" lon="1.83084">
        <ele>130</ele>
        <time>2016-12-19T10:56:57Z</time>
      </trkpt>
      <trkpt lat="49.25434" lon="1.83079">
        <ele>129</ele>
        <time>2016-12-19T10:57:01Z</time>
      </trkpt>
      <trkpt lat="49.25428" lon="1.83081">
        <ele>129</ele>
        <time>2016-12-19T10:57:07Z</time>
      </trkpt>
      <trkpt lat="49.25424" lon="1.83084">
        <ele>129</ele>
        <time>2016-12-19T10:57:10Z</time>
      </trkpt>
      <trkpt lat="49.25421" lon="1.83082">
        <ele>129</ele>
        <time>2016-12-19T10:57:13Z</time>
      </trkpt>
      <trkpt lat="49.25411" lon="1.83085">
        <ele>134</ele>
        <time>2016-12-19T10:57:21Z</time>
      </trkpt>
      <trkpt lat="49.25408" lon="1.83083">
        <ele>134</ele>
        <time>2016-12-19T10:57:23Z</time>
      </trkpt>
      <trkpt lat="49.25405" lon="1.83085">
        <ele>133</ele>
        <time>2016-12-19T10:57:25Z</time>
      </trkpt>
      <trkpt lat="49.25381" lon="1.83079">
        <ele>130</ele>
        <time>2016-12-19T10:57:42Z</time>
      </trkpt>
      <trkpt lat="49.25378" lon="1.83073">
        <ele>130</ele>
        <time>2016-12-19T10:57:45Z</time>
      </trkpt>
      <trkpt lat="49.25349" lon="1.83076">
        <ele>123</ele>
        <time>2016-12-19T10:58:15Z</time>
      </trkpt>
      <trkpt lat="49.25336" lon="1.83072">
        <ele>123</ele>
        <time>2016-12-19T10:58:25Z</time>
      </trkpt>
      <trkpt lat="49.25333" lon="1.83069">
        <ele>121</ele>
        <time>2016-12-19T10:58:28Z</time>
      </trkpt>
      <trkpt lat="49.25324" lon="1.83067">
        <ele>116</ele>
        <time>2016-12-19T10:58:34Z</time>
      </trkpt>
      <trkpt lat="49.25322" lon="1.83064">
        <ele>116</ele>
        <time>2016-12-19T10:58:37Z</time>
      </trkpt>
      <trkpt lat="49.25315" lon="1.83063">
        <ele>116</ele>
        <time>2016-12-19T10:58:44Z</time>
      </trkpt>
      <trkpt lat="49.25312" lon="1.83059">
        <ele>115</ele>
        <time>2016-12-19T10:58:48Z</time>
      </trkpt>
      <trkpt lat="49.25303" lon="1.83055">
        <ele>113</ele>
        <time>2016-12-19T10:58:57Z</time>
      </trkpt>
      <trkpt lat="49.25301" lon="1.83052">
        <ele>113</ele>
        <time>2016-12-19T10:58:59Z</time>
      </trkpt>
      <trkpt lat="49.25289" lon="1.83045">
        <ele>114</ele>
        <time>2016-12-19T10:59:10Z</time>
      </trkpt>
      <trkpt lat="49.25281" lon="1.83045">
        <ele>116</ele>
        <time>2016-12-19T10:59:18Z</time>
      </trkpt>
      <trkpt lat="49.25279" lon="1.83042">
        <ele>116</ele>
        <time>2016-12-19T10:59:20Z</time>
      </trkpt>
      <trkpt lat="49.25275" lon="1.83041">
        <ele>119</ele>
        <time>2016-12-19T10:59:22Z</time>
      </trkpt>
      <trkpt lat="49.25265" lon="1.83032">
        <ele>117</ele>
        <time>2016-12-19T10:59:32Z</time>
      </trkpt>
      <trkpt lat="49.25261" lon="1.83031">
        <ele>117</ele>
        <time>2016-12-19T10:59:34Z</time>
      </trkpt>
      <trkpt lat="49.2525" lon="1.83017">
        <ele>117</ele>
        <time>2016-12-19T10:59:42Z</time>
      </trkpt>
      <trkpt lat="49.25247" lon="1.83018">
        <ele>116</ele>
        <time>2016-12-19T10:59:47Z</time>
      </trkpt>
      <trkpt lat="49.25245" lon="1.83013">
        <ele>114</ele>
        <time>2016-12-19T10:59:50Z</time>
      </trkpt>
      <trkpt lat="49.2524" lon="1.83011">
        <ele>114</ele>
        <time>2016-12-19T11:00:00Z</time>
      </trkpt>
      <trkpt lat="49.25234" lon="1.83011">
        <ele>115</ele>
        <time>2016-12-19T11:00:05Z</time>
      </trkpt>
      <trkpt lat="49.25231" lon="1.83007">
        <ele>114</ele>
        <time>2016-12-19T11:00:07Z</time>
      </trkpt>
      <trkpt lat="49.25227" lon="1.83005">
        <ele>113</ele>
        <time>2016-12-19T11:00:10Z</time>
      </trkpt>
      <trkpt lat="49.25222" lon="1.83006">
        <ele>114</ele>
        <time>2016-12-19T11:00:13Z</time>
      </trkpt>
      <trkpt lat="49.25217" lon="1.83003">
        <ele>114</ele>
        <time>2016-12-19T11:00:15Z</time>
      </trkpt>
      <trkpt lat="49.25209" lon="1.82999">
        <ele>115</ele>
        <time>2016-12-19T11:00:20Z</time>
      </trkpt>
      <trkpt lat="49.25206" lon="1.82995">
        <ele>113</ele>
        <time>2016-12-19T11:00:26Z</time>
      </trkpt>
      <trkpt lat="49.25183" lon="1.82995">
        <ele>117</ele>
        <time>2016-12-19T11:00:41Z</time>
      </trkpt>
      <trkpt lat="49.25178" lon="1.82993">
        <ele>115</ele>
        <time>2016-12-19T11:00:46Z</time>
      </trkpt>
      <trkpt lat="49.25174" lon="1.82987">
        <ele>115</ele>
        <time>2016-12-19T11:00:50Z</time>
      </trkpt>
      <trkpt lat="49.25168" lon="1.82987">
        <ele>114</ele>
        <time>2016-12-19T11:00:53Z</time>
      </trkpt>
      <trkpt lat="49.25164" lon="1.82988">
        <ele>114</ele>
        <time>2016-12-19T11:00:56Z</time>
      </trkpt>
      <trkpt lat="49.25157" lon="1.82991">
        <ele>111</ele>
        <time>2016-12-19T11:01:02Z</time>
      </trkpt>
      <trkpt lat="49.25154" lon="1.82987">
        <ele>111</ele>
        <time>2016-12-19T11:01:04Z</time>
      </trkpt>
      <trkpt lat="49.25148" lon="1.82986">
        <ele>110</ele>
        <time>2016-12-19T11:01:08Z</time>
      </trkpt>
      <trkpt lat="49.25127" lon="1.82993">
        <ele>109</ele>
        <time>2016-12-19T11:01:28Z</time>
      </trkpt>
      <trkpt lat="49.25124" lon="1.82989">
        <ele>109</ele>
        <time>2016-12-19T11:01:31Z</time>
      </trkpt>
      <trkpt lat="49.25121" lon="1.8299">
        <ele>109</ele>
        <time>2016-12-19T11:01:33Z</time>
      </trkpt>
      <trkpt lat="49.25116" lon="1.82986">
        <ele>104</ele>
        <time>2016-12-19T11:01:41Z</time>
      </trkpt>
      <trkpt lat="49.25099" lon="1.82983">
        <ele>96</ele>
        <time>2016-12-19T11:01:53Z</time>
      </trkpt>
      <trkpt lat="49.25095" lon="1.82981">
        <ele>97</ele>
        <time>2016-12-19T11:01:55Z</time>
      </trkpt>
      <trkpt lat="49.25092" lon="1.82983">
        <ele>99</ele>
        <time>2016-12-19T11:02:01Z</time>
      </trkpt>
      <trkpt lat="49.2509" lon="1.82986">
        <ele>99</ele>
        <time>2016-12-19T11:02:03Z</time>
      </trkpt>
      <trkpt lat="49.25087" lon="1.82988">
        <ele>99</ele>
        <time>2016-12-19T11:02:05Z</time>
      </trkpt>
      <trkpt lat="49.25083" lon="1.82986">
        <ele>98</ele>
        <time>2016-12-19T11:02:08Z</time>
      </trkpt>
      <trkpt lat="49.25076" lon="1.82985">
        <ele>95</ele>
        <time>2016-12-19T11:02:11Z</time>
      </trkpt>
      <trkpt lat="49.25073" lon="1.82984">
        <ele>103</ele>
        <time>2016-12-19T11:02:13Z</time>
      </trkpt>
      <trkpt lat="49.2507" lon="1.82983">
        <ele>102</ele>
        <time>2016-12-19T11:02:15Z</time>
      </trkpt>
      <trkpt lat="49.2506" lon="1.82973">
        <ele>96</ele>
        <time>2016-12-19T11:02:22Z</time>
      </trkpt>
      <trkpt lat="49.2505" lon="1.82967">
        <ele>98</ele>
        <time>2016-12-19T11:02:30Z</time>
      </trkpt>
      <trkpt lat="49.25048" lon="1.8297">
        <ele>100</ele>
        <time>2016-12-19T11:02:32Z</time>
      </trkpt>
      <trkpt lat="49.25046" lon="1.82975">
        <ele>100</ele>
        <time>2016-12-19T11:02:34Z</time>
      </trkpt>
      <trkpt lat="49.25043" lon="1.82972">
        <ele>98</ele>
        <time>2016-12-19T11:02:37Z</time>
      </trkpt>
      <trkpt lat="49.25039" lon="1.8297">
        <ele>98</ele>
        <time>2016-12-19T11:02:41Z</time>
      </trkpt>
      <trkpt lat="49.25027" lon="1.82956">
        <ele>95</ele>
        <time>2016-12-19T11:02:54Z</time>
      </trkpt>
      <trkpt lat="49.25024" lon="1.82956">
        <ele>96</ele>
        <time>2016-12-19T11:02:57Z</time>
      </trkpt>
      <trkpt lat="49.25021" lon="1.82953">
        <ele>98</ele>
        <time>2016-12-19T11:02:59Z</time>
      </trkpt>
      <trkpt lat="49.25017" lon="1.82955">
        <ele>98</ele>
        <time>2016-12-19T11:03:03Z</time>
      </trkpt>
      <trkpt lat="49.25012" lon="1.82955">
        <ele>96</ele>
        <time>2016-12-19T11:03:05Z</time>
      </trkpt>
      <trkpt lat="49.2501" lon="1.82952">
        <ele>95</ele>
        <time>2016-12-19T11:03:07Z</time>
      </trkpt>
      <trkpt lat="49.25008" lon="1.82956">
        <ele>94</ele>
        <time>2016-12-19T11:03:09Z</time>
      </trkpt>
      <trkpt lat="49.25004" lon="1.82953">
        <ele>93</ele>
        <time>2016-12-19T11:03:11Z</time>
      </trkpt>
      <trkpt lat="49.24997" lon="1.82953">
        <ele>91</ele>
        <time>2016-12-19T11:03:17Z</time>
      </trkpt>
      <trkpt lat="49.24994" lon="1.82956">
        <ele>89</ele>
        <time>2016-12-19T11:03:20Z</time>
      </trkpt>
      <trkpt lat="49.24987" lon="1.82956">
        <ele>86</ele>
        <time>2016-12-19T11:03:25Z</time>
      </trkpt>
      <trkpt lat="49.24984" lon="1.82953">
        <ele>85</ele>
        <time>2016-12-19T11:03:29Z</time>
      </trkpt>
      <trkpt lat="49.24981" lon="1.82951">
        <ele>84</ele>
        <time>2016-12-19T11:03:31Z</time>
      </trkpt>
      <trkpt lat="49.24967" lon="1.82946">
        <ele>86</ele>
        <time>2016-12-19T11:03:40Z</time>
      </trkpt>
      <trkpt lat="49.24964" lon="1.82948">
        <ele>85</ele>
        <time>2016-12-19T11:03:42Z</time>
      </trkpt>
      <trkpt lat="49.24964" lon="1.82954">
        <ele>89</ele>
        <time>2016-12-19T11:03:57Z</time>
      </trkpt>
      <trkpt lat="49.24961" lon="1.82951">
        <ele>89</ele>
        <time>2016-12-19T11:04:02Z</time>
      </trkpt>
      <trkpt lat="49.24958" lon="1.82951">
        <ele>87</ele>
        <time>2016-12-19T11:04:05Z</time>
      </trkpt>
      <trkpt lat="49.24948" lon="1.82946">
        <ele>83</ele>
        <time>2016-12-19T11:04:15Z</time>
      </trkpt>
      <trkpt lat="49.24945" lon="1.82948">
        <ele>83</ele>
        <time>2016-12-19T11:04:19Z</time>
      </trkpt>
      <trkpt lat="49.24941" lon="1.82948">
        <ele>82</ele>
        <time>2016-12-19T11:04:23Z</time>
      </trkpt>
      <trkpt lat="49.24934" lon="1.8295">
        <ele>80</ele>
        <time>2016-12-19T11:04:28Z</time>
      </trkpt>
      <trkpt lat="49.24906" lon="1.82952">
        <ele>82</ele>
        <time>2016-12-19T11:04:53Z</time>
      </trkpt>
      <trkpt lat="49.24901" lon="1.82953">
        <ele>82</ele>
        <time>2016-12-19T11:04:56Z</time>
      </trkpt>
      <trkpt lat="49.24894" lon="1.82954">
        <ele>81</ele>
        <time>2016-12-19T11:05:04Z</time>
      </trkpt>
      <trkpt lat="49.24889" lon="1.82956">
        <ele>81</ele>
        <time>2016-12-19T11:05:07Z</time>
      </trkpt>
      <trkpt lat="49.24886" lon="1.82956">
        <ele>79</ele>
        <time>2016-12-19T11:05:10Z</time>
      </trkpt>
      <trkpt lat="49.24886" lon="1.8296">
        <ele>78</ele>
        <time>2016-12-19T11:05:13Z</time>
      </trkpt>
      <trkpt lat="49.2488" lon="1.8296">
        <ele>80</ele>
        <time>2016-12-19T11:05:16Z</time>
      </trkpt>
      <trkpt lat="49.24867" lon="1.82959">
        <ele>79</ele>
        <time>2016-12-19T11:05:27Z</time>
      </trkpt>
      <trkpt lat="49.24864" lon="1.82958">
        <ele>81</ele>
        <time>2016-12-19T11:05:30Z</time>
      </trkpt>
      <trkpt lat="49.2486" lon="1.82961">
        <ele>80</ele>
        <time>2016-12-19T11:05:35Z</time>
      </trkpt>
      <trkpt lat="49.24853" lon="1.82962">
        <ele>75</ele>
        <time>2016-12-19T11:05:45Z</time>
      </trkpt>
      <trkpt lat="49.2485" lon="1.82959">
        <ele>73</ele>
        <time>2016-12-19T11:05:48Z</time>
      </trkpt>
      <trkpt lat="49.24839" lon="1.8296">
        <ele>74</ele>
        <time>2016-12-19T11:05:57Z</time>
      </trkpt>
      <trkpt lat="49.24829" lon="1.82963">
        <ele>73</ele>
        <time>2016-12-19T11:06:03Z</time>
      </trkpt>
      <trkpt lat="49.24826" lon="1.82964">
        <ele>73</ele>
        <time>2016-12-19T11:06:05Z</time>
      </trkpt>
      <trkpt lat="49.24823" lon="1.82963">
        <ele>73</ele>
        <time>2016-12-19T11:06:07Z</time>
      </trkpt>
      <trkpt lat="49.24825" lon="1.82969">
        <ele>73</ele>
        <time>2016-12-19T11:06:21Z</time>
      </trkpt>
      <trkpt lat="49.24823" lon="1.82969">
        <ele>71</ele>
        <time>2016-12-19T11:06:36Z</time>
      </trkpt>
      <trkpt lat="49.24815" lon="1.8297">
        <ele>73</ele>
        <time>2016-12-19T11:06:42Z</time>
      </trkpt>
      <trkpt lat="49.24801" lon="1.82981">
        <ele>72</ele>
        <time>2016-12-19T11:06:54Z</time>
      </trkpt>
      <trkpt lat="49.24798" lon="1.82986">
        <ele>70</ele>
        <time>2016-12-19T11:06:57Z</time>
      </trkpt>
      <trkpt lat="49.24795" lon="1.82986">
        <ele>69</ele>
        <time>2016-12-19T11:06:59Z</time>
      </trkpt>
      <trkpt lat="49.24788" lon="1.82995">
        <ele>67</ele>
        <time>2016-12-19T11:07:07Z</time>
      </trkpt>
      <trkpt lat="49.24789" lon="1.82999">
        <ele>67</ele>
        <time>2016-12-19T11:07:10Z</time>
      </trkpt>
      <trkpt lat="49.24786" lon="1.83">
        <ele>67</ele>
        <time>2016-12-19T11:07:11Z</time>
      </trkpt>
      <trkpt lat="49.24778" lon="1.8301">
        <ele>66</ele>
        <time>2016-12-19T11:07:20Z</time>
      </trkpt>
      <trkpt lat="49.24776" lon="1.83014">
        <ele>67</ele>
        <time>2016-12-19T11:07:23Z</time>
      </trkpt>
      <trkpt lat="49.2476" lon="1.83023">
        <ele>70</ele>
        <time>2016-12-19T11:07:34Z</time>
      </trkpt>
      <trkpt lat="49.24759" lon="1.83027">
        <ele>71</ele>
        <time>2016-12-19T11:07:37Z</time>
      </trkpt>
      <trkpt lat="49.2475" lon="1.83034">
        <ele>71</ele>
        <time>2016-12-19T11:07:44Z</time>
      </trkpt>
      <trkpt lat="49.24751" lon="1.83039">
        <ele>72</ele>
        <time>2016-12-19T11:07:46Z</time>
      </trkpt>
      <trkpt lat="49.24746" lon="1.83044">
        <ele>74</ele>
        <time>2016-12-19T11:07:52Z</time>
      </trkpt>
      <trkpt lat="49.24745" lon="1.83049">
        <ele>75</ele>
        <time>2016-12-19T11:07:54Z</time>
      </trkpt>
      <trkpt lat="49.24737" lon="1.83049">
        <ele>76</ele>
        <time>2016-12-19T11:08:00Z</time>
      </trkpt>
      <trkpt lat="49.24719" lon="1.83055">
        <ele>71</ele>
        <time>2016-12-19T11:08:18Z</time>
      </trkpt>
      <trkpt lat="49.24708" lon="1.83058">
        <ele>68</ele>
        <time>2016-12-19T11:08:28Z</time>
      </trkpt>
      <trkpt lat="49.24698" lon="1.8306">
        <ele>68</ele>
        <time>2016-12-19T11:08:34Z</time>
      </trkpt>
      <trkpt lat="49.24682" lon="1.83058">
        <ele>70</ele>
        <time>2016-12-19T11:08:47Z</time>
      </trkpt>
      <trkpt lat="49.24679" lon="1.83057">
        <ele>69</ele>
        <time>2016-12-19T11:08:49Z</time>
      </trkpt>
      <trkpt lat="49.24675" lon="1.83054">
        <ele>68</ele>
        <time>2016-12-19T11:08:52Z</time>
      </trkpt>
      <trkpt lat="49.24672" lon="1.83054">
        <ele>68</ele>
        <time>2016-12-19T11:08:54Z</time>
      </trkpt>
      <trkpt lat="49.24663" lon="1.8305">
        <ele>68</ele>
        <time>2016-12-19T11:09:02Z</time>
      </trkpt>
      <trkpt lat="49.24661" lon="1.83053">
        <ele>69</ele>
        <time>2016-12-19T11:09:04Z</time>
      </trkpt>
      <trkpt lat="49.24652" lon="1.83053">
        <ele>71</ele>
        <time>2016-12-19T11:09:11Z</time>
      </trkpt>
      <trkpt lat="49.24647" lon="1.83044">
        <ele>71</ele>
        <time>2016-12-19T11:09:15Z</time>
      </trkpt>
      <trkpt lat="49.24644" lon="1.83045">
        <ele>71</ele>
        <time>2016-12-19T11:09:17Z</time>
      </trkpt>
      <trkpt lat="49.24641" lon="1.83044">
        <ele>72</ele>
        <time>2016-12-19T11:09:19Z</time>
      </trkpt>
      <trkpt lat="49.24638" lon="1.83039">
        <ele>73</ele>
        <time>2016-12-19T11:09:22Z</time>
      </trkpt>
      <trkpt lat="49.24631" lon="1.83035">
        <ele>77</ele>
        <time>2016-12-19T11:09:29Z</time>
      </trkpt>
      <trkpt lat="49.24629" lon="1.83031">
        <ele>79</ele>
        <time>2016-12-19T11:09:33Z</time>
      </trkpt>
      <trkpt lat="49.24621" lon="1.83027">
        <ele>79</ele>
        <time>2016-12-19T11:09:40Z</time>
      </trkpt>
      <trkpt lat="49.24613" lon="1.83027">
        <ele>77</ele>
        <time>2016-12-19T11:09:48Z</time>
      </trkpt>
      <trkpt lat="49.2461" lon="1.83027">
        <ele>76</ele>
        <time>2016-12-19T11:09:50Z</time>
      </trkpt>
      <trkpt lat="49.24603" lon="1.83023">
        <ele>74</ele>
        <time>2016-12-19T11:09:55Z</time>
      </trkpt>
      <trkpt lat="49.246" lon="1.83023">
        <ele>74</ele>
        <time>2016-12-19T11:09:58Z</time>
      </trkpt>
      <trkpt lat="49.24574" lon="1.83031">
        <ele>83</ele>
        <time>2016-12-19T11:10:21Z</time>
      </trkpt>
      <trkpt lat="49.24571" lon="1.83031">
        <ele>84</ele>
        <time>2016-12-19T11:10:24Z</time>
      </trkpt>
      <trkpt lat="49.24565" lon="1.83031">
        <ele>86</ele>
        <time>2016-12-19T11:10:32Z</time>
      </trkpt>
      <trkpt lat="49.24563" lon="1.83034">
        <ele>86</ele>
        <time>2016-12-19T11:10:36Z</time>
      </trkpt>
      <trkpt lat="49.24548" lon="1.83032">
        <ele>86</ele>
        <time>2016-12-19T11:10:47Z</time>
      </trkpt>
      <trkpt lat="49.2454" lon="1.83029">
        <ele>86</ele>
        <time>2016-12-19T11:10:55Z</time>
      </trkpt>
      <trkpt lat="49.24535" lon="1.83029">
        <ele>86</ele>
        <time>2016-12-19T11:10:59Z</time>
      </trkpt>
      <trkpt lat="49.24525" lon="1.83021">
        <ele>86</ele>
        <time>2016-12-19T11:11:05Z</time>
      </trkpt>
      <trkpt lat="49.24514" lon="1.83021">
        <ele>89</ele>
        <time>2016-12-19T11:11:12Z</time>
      </trkpt>
      <trkpt lat="49.24509" lon="1.83018">
        <ele>89</ele>
        <time>2016-12-19T11:11:15Z</time>
      </trkpt>
      <trkpt lat="49.24506" lon="1.83015">
        <ele>91</ele>
        <time>2016-12-19T11:11:17Z</time>
      </trkpt>
      <trkpt lat="49.24504" lon="1.83019">
        <ele>92</ele>
        <time>2016-12-19T11:11:21Z</time>
      </trkpt>
      <trkpt lat="49.24502" lon="1.83022">
        <ele>93</ele>
        <time>2016-12-19T11:11:26Z</time>
      </trkpt>
      <trkpt lat="49.24505" lon="1.83025">
        <ele>92</ele>
        <time>2016-12-19T11:11:32Z</time>
      </trkpt>
      <trkpt lat="49.24499" lon="1.83027">
        <ele>91</ele>
        <time>2016-12-19T11:11:37Z</time>
      </trkpt>
      <trkpt lat="49.24497" lon="1.83032">
        <ele>88</ele>
        <time>2016-12-19T11:11:40Z</time>
      </trkpt>
      <trkpt lat="49.24494" lon="1.83032">
        <ele>88</ele>
        <time>2016-12-19T11:11:43Z</time>
      </trkpt>
      <trkpt lat="49.24482" lon="1.83035">
        <ele>89</ele>
        <time>2016-12-19T11:11:56Z</time>
      </trkpt>
      <trkpt lat="49.24479" lon="1.83036">
        <ele>90</ele>
        <time>2016-12-19T11:11:59Z</time>
      </trkpt>
      <trkpt lat="49.2447" lon="1.83036">
        <ele>89</ele>
        <time>2016-12-19T11:12:06Z</time>
      </trkpt>
      <trkpt lat="49.24461" lon="1.83043">
        <ele>90</ele>
        <time>2016-12-19T11:12:15Z</time>
      </trkpt>
      <trkpt lat="49.24456" lon="1.83048">
        <ele>90</ele>
        <time>2016-12-19T11:12:20Z</time>
      </trkpt>
      <trkpt lat="49.2445" lon="1.83064">
        <ele>89</ele>
        <time>2016-12-19T11:12:31Z</time>
      </trkpt>
      <trkpt lat="49.2445" lon="1.83069">
        <ele>89</ele>
        <time>2016-12-19T11:12:35Z</time>
      </trkpt>
      <trkpt lat="49.24447" lon="1.83078">
        <ele>92</ele>
        <time>2016-12-19T11:12:42Z</time>
      </trkpt>
      <trkpt lat="49.24437" lon="1.83095">
        <ele>92</ele>
        <time>2016-12-19T11:12:50Z</time>
      </trkpt>
      <trkpt lat="49.24421" lon="1.8313">
        <ele>95</ele>
        <time>2016-12-19T11:13:13Z</time>
      </trkpt>
      <trkpt lat="49.2441" lon="1.83139">
        <ele>96</ele>
        <time>2016-12-19T11:13:20Z</time>
      </trkpt>
      <trkpt lat="49.24402" lon="1.83169">
        <ele>92</ele>
        <time>2016-12-19T11:13:41Z</time>
      </trkpt>
      <trkpt lat="49.24399" lon="1.83173">
        <ele>94</ele>
        <time>2016-12-19T11:13:43Z</time>
      </trkpt>
      <trkpt lat="49.24397" lon="1.83178">
        <ele>94</ele>
        <time>2016-12-19T11:13:46Z</time>
      </trkpt>
      <trkpt lat="49.24398" lon="1.83184">
        <ele>93</ele>
        <time>2016-12-19T11:13:50Z</time>
      </trkpt>
      <trkpt lat="49.24396" lon="1.83187">
        <ele>93</ele>
        <time>2016-12-19T11:13:52Z</time>
      </trkpt>
      <trkpt lat="49.24398" lon="1.83191">
        <ele>93</ele>
        <time>2016-12-19T11:13:56Z</time>
      </trkpt>
      <trkpt lat="49.244" lon="1.83195">
        <ele>90</ele>
        <time>2016-12-19T11:14:00Z</time>
      </trkpt>
      <trkpt lat="49.24398" lon="1.83201">
        <ele>90</ele>
        <time>2016-12-19T11:14:03Z</time>
      </trkpt>
      <trkpt lat="49.24396" lon="1.83226">
        <ele>88</ele>
        <time>2016-12-19T11:14:14Z</time>
      </trkpt>
      <trkpt lat="49.24392" lon="1.83229">
        <ele>91</ele>
        <time>2016-12-19T11:14:18Z</time>
      </trkpt>
      <trkpt lat="49.24393" lon="1.83235">
        <ele>94</ele>
        <time>2016-12-19T11:14:21Z</time>
      </trkpt>
      <trkpt lat="49.2439" lon="1.83247">
        <ele>94</ele>
        <time>2016-12-19T11:14:28Z</time>
      </trkpt>
      <trkpt lat="49.24391" lon="1.8327">
        <ele>87</ele>
        <time>2016-12-19T11:14:42Z</time>
      </trkpt>
      <trkpt lat="49.24391" lon="1.83275">
        <ele>87</ele>
        <time>2016-12-19T11:14:45Z</time>
      </trkpt>
      <trkpt lat="49.24389" lon="1.8328">
        <ele>88</ele>
        <time>2016-12-19T11:14:48Z</time>
      </trkpt>
      <trkpt lat="49.24388" lon="1.83287">
        <ele>88</ele>
        <time>2016-12-19T11:14:51Z</time>
      </trkpt>
      <trkpt lat="49.24388" lon="1.83293">
        <ele>89</ele>
        <time>2016-12-19T11:14:54Z</time>
      </trkpt>
      <trkpt lat="49.2438" lon="1.83305">
        <ele>90</ele>
        <time>2016-12-19T11:15:03Z</time>
      </trkpt>
      <trkpt lat="49.24378" lon="1.83324">
        <ele>97</ele>
        <time>2016-12-19T11:15:13Z</time>
      </trkpt>
      <trkpt lat="49.24375" lon="1.83331">
        <ele>97</ele>
        <time>2016-12-19T11:15:16Z</time>
      </trkpt>
      <trkpt lat="49.24377" lon="1.83337">
        <ele>96</ele>
        <time>2016-12-19T11:15:20Z</time>
      </trkpt>
      <trkpt lat="49.24377" lon="1.83342">
        <ele>97</ele>
        <time>2016-12-19T11:15:24Z</time>
      </trkpt>
      <trkpt lat="49.24374" lon="1.83345">
        <ele>99</ele>
        <time>2016-12-19T11:15:28Z</time>
      </trkpt>
      <trkpt lat="49.24376" lon="1.83349">
        <ele>100</ele>
        <time>2016-12-19T11:15:32Z</time>
      </trkpt>
      <trkpt lat="49.24372" lon="1.83357">
        <ele>101</ele>
        <time>2016-12-19T11:15:38Z</time>
      </trkpt>
      <trkpt lat="49.24372" lon="1.83366">
        <ele>104</ele>
        <time>2016-12-19T11:15:45Z</time>
      </trkpt>
      <trkpt lat="49.24373" lon="1.8337">
        <ele>105</ele>
        <time>2016-12-19T11:15:51Z</time>
      </trkpt>
      <trkpt lat="49.24377" lon="1.83369">
        <ele>104</ele>
        <time>2016-12-19T11:16:04Z</time>
      </trkpt>
      <trkpt lat="49.24375" lon="1.83372">
        <ele>102</ele>
        <time>2016-12-19T11:16:30Z</time>
      </trkpt>
      <trkpt lat="49.24375" lon="1.83377">
        <ele>102</ele>
        <time>2016-12-19T11:16:34Z</time>
      </trkpt>
    </trkseg>
  </trk>
</gpx>